<?xml version="1.0" encoding="UTF-8" standalone="no" ?>
<gpx xmlns="http://www.topografix.com/GPX/1/1" xmlns:xsi="http://www.w3.org/2001/XMLSchema-instance" xsi:schemaLocation="http://www.topografix.com/GPX/1/1 http://www.topografix.com/GPX/1/1/gpx.xsd" version="1.1" creator="VisuGPX - https://www.visugpx.com">
  <metadata>
    <name>2020-09-14 le Taennchel</name>
    <desc><![CDATA[File with points/tracks from Locus Map/3.48.0]]></desc>
  </metadata>
  <trk>
    <name><![CDATA[2020-09-14 le Taennchel]]></name>
    <extensions>
      <line xmlns="http://www.topografix.com/GPX/gpx_style/0/2">
        <color>0000FF</color>
        <opacity>0.59</opacity>
        <width>6.0</width>
      </line>
    </extensions>
    <trkseg>
      <trkpt lat="48.24365" lon="7.21823">
        <ele>572.87</ele>
        <time>2020-09-14T08:13:00.000Z</time>
      </trkpt>
      <trkpt lat="48.24356" lon="7.21829">
        <ele>569.39</ele>
        <time>2020-09-14T08:13:36.000Z</time>
      </trkpt>
      <trkpt lat="48.24347" lon="7.21833">
        <ele>568.1</ele>
        <time>2020-09-14T08:13:47.000Z</time>
      </trkpt>
      <trkpt lat="48.24337" lon="7.21837">
        <ele>567.52</ele>
        <time>2020-09-14T08:13:57.000Z</time>
      </trkpt>
      <trkpt lat="48.24328" lon="7.21841">
        <ele>566.96</ele>
        <time>2020-09-14T08:14:05.000Z</time>
      </trkpt>
      <trkpt lat="48.24318" lon="7.21846">
        <ele>566.44</ele>
        <time>2020-09-14T08:14:14.000Z</time>
      </trkpt>
      <trkpt lat="48.24309" lon="7.21851">
        <ele>565.95</ele>
        <time>2020-09-14T08:14:24.000Z</time>
      </trkpt>
      <trkpt lat="48.24299" lon="7.21854">
        <ele>565.84</ele>
        <time>2020-09-14T08:14:34.000Z</time>
      </trkpt>
      <trkpt lat="48.24292" lon="7.21845">
        <ele>569.62</ele>
        <time>2020-09-14T08:14:50.000Z</time>
      </trkpt>
      <trkpt lat="48.24285" lon="7.21856">
        <ele>572.28</ele>
        <time>2020-09-14T08:15:01.000Z</time>
      </trkpt>
      <trkpt lat="48.24275" lon="7.21863">
        <ele>572.91</ele>
        <time>2020-09-14T08:15:08.000Z</time>
      </trkpt>
      <trkpt lat="48.24265" lon="7.21868">
        <ele>572.94</ele>
        <time>2020-09-14T08:15:14.000Z</time>
      </trkpt>
      <trkpt lat="48.24256" lon="7.21872">
        <ele>572.67</ele>
        <time>2020-09-14T08:15:21.000Z</time>
      </trkpt>
      <trkpt lat="48.24247" lon="7.21878">
        <ele>572.17</ele>
        <time>2020-09-14T08:15:28.000Z</time>
      </trkpt>
      <trkpt lat="48.24239" lon="7.21886">
        <ele>571.47</ele>
        <time>2020-09-14T08:15:35.000Z</time>
      </trkpt>
      <trkpt lat="48.2423" lon="7.21893">
        <ele>570.97</ele>
        <time>2020-09-14T08:15:43.000Z</time>
      </trkpt>
      <trkpt lat="48.24222" lon="7.21901">
        <ele>570.64</ele>
        <time>2020-09-14T08:15:53.000Z</time>
      </trkpt>
      <trkpt lat="48.24215" lon="7.21912">
        <ele>569.95</ele>
        <time>2020-09-14T08:16:04.000Z</time>
      </trkpt>
      <trkpt lat="48.24208" lon="7.2192">
        <ele>569.45</ele>
        <time>2020-09-14T08:16:11.000Z</time>
      </trkpt>
      <trkpt lat="48.242" lon="7.21927">
        <ele>568.18</ele>
        <time>2020-09-14T08:16:18.000Z</time>
      </trkpt>
      <trkpt lat="48.24193" lon="7.21936">
        <ele>565.92</ele>
        <time>2020-09-14T08:16:25.000Z</time>
      </trkpt>
      <trkpt lat="48.24186" lon="7.21947">
        <ele>562.64</ele>
        <time>2020-09-14T08:16:34.000Z</time>
      </trkpt>
      <trkpt lat="48.24178" lon="7.21958">
        <ele>561.57</ele>
        <time>2020-09-14T08:16:42.000Z</time>
      </trkpt>
      <trkpt lat="48.2417" lon="7.21966">
        <ele>560.78</ele>
        <time>2020-09-14T08:16:49.000Z</time>
      </trkpt>
      <trkpt lat="48.24163" lon="7.21976">
        <ele>559.51</ele>
        <time>2020-09-14T08:16:56.000Z</time>
      </trkpt>
      <trkpt lat="48.24156" lon="7.21987">
        <ele>559.61</ele>
        <time>2020-09-14T08:17:04.000Z</time>
      </trkpt>
      <trkpt lat="48.2415" lon="7.21999">
        <ele>560.11</ele>
        <time>2020-09-14T08:17:15.000Z</time>
      </trkpt>
      <trkpt lat="48.24146" lon="7.22013">
        <ele>560.61</ele>
        <time>2020-09-14T08:17:22.000Z</time>
      </trkpt>
      <trkpt lat="48.2414" lon="7.22025">
        <ele>561.57</ele>
        <time>2020-09-14T08:17:29.000Z</time>
      </trkpt>
      <trkpt lat="48.24131" lon="7.22034">
        <ele>562.38</ele>
        <time>2020-09-14T08:17:37.000Z</time>
      </trkpt>
      <trkpt lat="48.24127" lon="7.22046">
        <ele>564.34</ele>
        <time>2020-09-14T08:17:44.000Z</time>
      </trkpt>
      <trkpt lat="48.24121" lon="7.22058">
        <ele>565.68</ele>
        <time>2020-09-14T08:17:53.000Z</time>
      </trkpt>
      <trkpt lat="48.24117" lon="7.22071">
        <ele>566.25</ele>
        <time>2020-09-14T08:18:02.000Z</time>
      </trkpt>
      <trkpt lat="48.24111" lon="7.22083">
        <ele>565.94</ele>
        <time>2020-09-14T08:18:10.000Z</time>
      </trkpt>
      <trkpt lat="48.24105" lon="7.22096">
        <ele>565.64</ele>
        <time>2020-09-14T08:18:18.000Z</time>
      </trkpt>
      <trkpt lat="48.24098" lon="7.22104">
        <ele>565.57</ele>
        <time>2020-09-14T08:18:25.000Z</time>
      </trkpt>
      <trkpt lat="48.24091" lon="7.22113">
        <ele>564.66</ele>
        <time>2020-09-14T08:18:31.000Z</time>
      </trkpt>
      <trkpt lat="48.24083" lon="7.22121">
        <ele>561.21</ele>
        <time>2020-09-14T08:18:39.000Z</time>
      </trkpt>
      <trkpt lat="48.24076" lon="7.22131">
        <ele>558.17</ele>
        <time>2020-09-14T08:18:48.000Z</time>
      </trkpt>
      <trkpt lat="48.24067" lon="7.22136">
        <ele>557.57</ele>
        <time>2020-09-14T08:18:56.000Z</time>
      </trkpt>
      <trkpt lat="48.24057" lon="7.22139">
        <ele>558.58</ele>
        <time>2020-09-14T08:19:03.000Z</time>
      </trkpt>
      <trkpt lat="48.24047" lon="7.22144">
        <ele>558.64</ele>
        <time>2020-09-14T08:19:12.000Z</time>
      </trkpt>
      <trkpt lat="48.24038" lon="7.22147">
        <ele>558.07</ele>
        <time>2020-09-14T08:19:20.000Z</time>
      </trkpt>
      <trkpt lat="48.24029" lon="7.22152">
        <ele>559</ele>
        <time>2020-09-14T08:19:29.000Z</time>
      </trkpt>
      <trkpt lat="48.24019" lon="7.22152">
        <ele>560.2</ele>
        <time>2020-09-14T08:19:36.000Z</time>
      </trkpt>
      <trkpt lat="48.2401" lon="7.22157">
        <ele>558.72</ele>
        <time>2020-09-14T08:19:43.000Z</time>
      </trkpt>
      <trkpt lat="48.24002" lon="7.22163">
        <ele>557.8</ele>
        <time>2020-09-14T08:19:50.000Z</time>
      </trkpt>
      <trkpt lat="48.23994" lon="7.22171">
        <ele>557.56</ele>
        <time>2020-09-14T08:19:56.000Z</time>
      </trkpt>
      <trkpt lat="48.23986" lon="7.2218">
        <ele>556.87</ele>
        <time>2020-09-14T08:20:03.000Z</time>
      </trkpt>
      <trkpt lat="48.23979" lon="7.22188">
        <ele>556.49</ele>
        <time>2020-09-14T08:20:12.000Z</time>
      </trkpt>
      <trkpt lat="48.2397" lon="7.22193">
        <ele>555.4</ele>
        <time>2020-09-14T08:20:20.000Z</time>
      </trkpt>
      <trkpt lat="48.23963" lon="7.22201">
        <ele>554.08</ele>
        <time>2020-09-14T08:20:31.000Z</time>
      </trkpt>
      <trkpt lat="48.23955" lon="7.22207">
        <ele>552.5</ele>
        <time>2020-09-14T08:20:42.000Z</time>
      </trkpt>
      <trkpt lat="48.23946" lon="7.22211">
        <ele>551.59</ele>
        <time>2020-09-14T08:20:47.000Z</time>
      </trkpt>
      <trkpt lat="48.23937" lon="7.22219">
        <ele>549.23</ele>
        <time>2020-09-14T08:20:52.000Z</time>
      </trkpt>
      <trkpt lat="48.23928" lon="7.22223">
        <ele>543.66</ele>
        <time>2020-09-14T08:21:00.000Z</time>
      </trkpt>
      <trkpt lat="48.23919" lon="7.22226">
        <ele>540.41</ele>
        <time>2020-09-14T08:21:07.000Z</time>
      </trkpt>
      <trkpt lat="48.2391" lon="7.22223">
        <ele>538.11</ele>
        <time>2020-09-14T08:21:16.000Z</time>
      </trkpt>
      <trkpt lat="48.23902" lon="7.22216">
        <ele>535.91</ele>
        <time>2020-09-14T08:21:24.000Z</time>
      </trkpt>
      <trkpt lat="48.23895" lon="7.22208">
        <ele>535.17</ele>
        <time>2020-09-14T08:21:30.000Z</time>
      </trkpt>
      <trkpt lat="48.23889" lon="7.22196">
        <ele>535.24</ele>
        <time>2020-09-14T08:21:39.000Z</time>
      </trkpt>
      <trkpt lat="48.23885" lon="7.22184">
        <ele>534.4</ele>
        <time>2020-09-14T08:21:48.000Z</time>
      </trkpt>
      <trkpt lat="48.23878" lon="7.22175">
        <ele>533</ele>
        <time>2020-09-14T08:21:57.000Z</time>
      </trkpt>
      <trkpt lat="48.23868" lon="7.22171">
        <ele>532.66</ele>
        <time>2020-09-14T08:22:03.000Z</time>
      </trkpt>
      <trkpt lat="48.23858" lon="7.22168">
        <ele>533.95</ele>
        <time>2020-09-14T08:22:08.000Z</time>
      </trkpt>
      <trkpt lat="48.23849" lon="7.2217">
        <ele>535.03</ele>
        <time>2020-09-14T08:22:14.000Z</time>
      </trkpt>
      <trkpt lat="48.2384" lon="7.22174">
        <ele>535.66</ele>
        <time>2020-09-14T08:22:21.000Z</time>
      </trkpt>
      <trkpt lat="48.23832" lon="7.22181">
        <ele>538.4</ele>
        <time>2020-09-14T08:22:32.000Z</time>
      </trkpt>
      <trkpt lat="48.23823" lon="7.22186">
        <ele>538.29</ele>
        <time>2020-09-14T08:22:39.000Z</time>
      </trkpt>
      <trkpt lat="48.23815" lon="7.22195">
        <ele>537.67</ele>
        <time>2020-09-14T08:22:48.000Z</time>
      </trkpt>
      <trkpt lat="48.23807" lon="7.22203">
        <ele>539.99</ele>
        <time>2020-09-14T08:22:56.000Z</time>
      </trkpt>
      <trkpt lat="48.23797" lon="7.22207">
        <ele>540.9</ele>
        <time>2020-09-14T08:23:02.000Z</time>
      </trkpt>
      <trkpt lat="48.23788" lon="7.22212">
        <ele>541.94</ele>
        <time>2020-09-14T08:23:11.000Z</time>
      </trkpt>
      <trkpt lat="48.23781" lon="7.2222">
        <ele>543.09</ele>
        <time>2020-09-14T08:23:18.000Z</time>
      </trkpt>
      <trkpt lat="48.23772" lon="7.22227">
        <ele>544.89</ele>
        <time>2020-09-14T08:23:27.000Z</time>
      </trkpt>
      <trkpt lat="48.23764" lon="7.22236">
        <ele>545.8</ele>
        <time>2020-09-14T08:23:35.000Z</time>
      </trkpt>
      <trkpt lat="48.23755" lon="7.22242">
        <ele>546.98</ele>
        <time>2020-09-14T08:23:43.000Z</time>
      </trkpt>
      <trkpt lat="48.23746" lon="7.22243">
        <ele>547.62</ele>
        <time>2020-09-14T08:23:50.000Z</time>
      </trkpt>
      <trkpt lat="48.23737" lon="7.2224">
        <ele>547.27</ele>
        <time>2020-09-14T08:24:03.000Z</time>
      </trkpt>
      <trkpt lat="48.23728" lon="7.22235">
        <ele>545.6</ele>
        <time>2020-09-14T08:24:13.000Z</time>
      </trkpt>
      <trkpt lat="48.23719" lon="7.22233">
        <ele>544.57</ele>
        <time>2020-09-14T08:24:20.000Z</time>
      </trkpt>
      <trkpt lat="48.2371" lon="7.22232">
        <ele>543.48</ele>
        <time>2020-09-14T08:24:27.000Z</time>
      </trkpt>
      <trkpt lat="48.23701" lon="7.2223">
        <ele>542.11</ele>
        <time>2020-09-14T08:24:35.000Z</time>
      </trkpt>
      <trkpt lat="48.23693" lon="7.22223">
        <ele>540.9</ele>
        <time>2020-09-14T08:24:45.000Z</time>
      </trkpt>
      <trkpt lat="48.23683" lon="7.22222">
        <ele>539.27</ele>
        <time>2020-09-14T08:24:54.000Z</time>
      </trkpt>
      <trkpt lat="48.23673" lon="7.22223">
        <ele>538.75</ele>
        <time>2020-09-14T08:25:00.000Z</time>
      </trkpt>
      <trkpt lat="48.23664" lon="7.22226">
        <ele>538.61</ele>
        <time>2020-09-14T08:25:06.000Z</time>
      </trkpt>
      <trkpt lat="48.23654" lon="7.2223">
        <ele>538.46</ele>
        <time>2020-09-14T08:25:12.000Z</time>
      </trkpt>
      <trkpt lat="48.23645" lon="7.22237">
        <ele>538.27</ele>
        <time>2020-09-14T08:25:20.000Z</time>
      </trkpt>
      <trkpt lat="48.23637" lon="7.22245">
        <ele>538.63</ele>
        <time>2020-09-14T08:25:29.000Z</time>
      </trkpt>
      <trkpt lat="48.23629" lon="7.22252">
        <ele>539.93</ele>
        <time>2020-09-14T08:25:37.000Z</time>
      </trkpt>
      <trkpt lat="48.2362" lon="7.22255">
        <ele>540.99</ele>
        <time>2020-09-14T08:25:44.000Z</time>
      </trkpt>
      <trkpt lat="48.23611" lon="7.22257">
        <ele>542.02</ele>
        <time>2020-09-14T08:25:52.000Z</time>
      </trkpt>
      <trkpt lat="48.23601" lon="7.22263">
        <ele>543.47</ele>
        <time>2020-09-14T08:26:01.000Z</time>
      </trkpt>
      <trkpt lat="48.23593" lon="7.2227">
        <ele>544.87</ele>
        <time>2020-09-14T08:26:11.000Z</time>
      </trkpt>
      <trkpt lat="48.23586" lon="7.2228">
        <ele>545.62</ele>
        <time>2020-09-14T08:26:20.000Z</time>
      </trkpt>
      <trkpt lat="48.23578" lon="7.22285">
        <ele>545.86</ele>
        <time>2020-09-14T08:26:27.000Z</time>
      </trkpt>
      <trkpt lat="48.23569" lon="7.2229">
        <ele>546.41</ele>
        <time>2020-09-14T08:26:36.000Z</time>
      </trkpt>
      <trkpt lat="48.2356" lon="7.22295">
        <ele>546.6</ele>
        <time>2020-09-14T08:26:45.000Z</time>
      </trkpt>
      <trkpt lat="48.23552" lon="7.22301">
        <ele>547.11</ele>
        <time>2020-09-14T08:26:54.000Z</time>
      </trkpt>
      <trkpt lat="48.23543" lon="7.22306">
        <ele>548.46</ele>
        <time>2020-09-14T08:27:03.000Z</time>
      </trkpt>
      <trkpt lat="48.23534" lon="7.2231">
        <ele>550.14</ele>
        <time>2020-09-14T08:27:10.000Z</time>
      </trkpt>
      <trkpt lat="48.23525" lon="7.22315">
        <ele>550.52</ele>
        <time>2020-09-14T08:27:17.000Z</time>
      </trkpt>
      <trkpt lat="48.23517" lon="7.22324">
        <ele>551.11</ele>
        <time>2020-09-14T08:27:26.000Z</time>
      </trkpt>
      <trkpt lat="48.23509" lon="7.2233">
        <ele>552.59</ele>
        <time>2020-09-14T08:27:36.000Z</time>
      </trkpt>
      <trkpt lat="48.235" lon="7.22336">
        <ele>554.66</ele>
        <time>2020-09-14T08:27:45.000Z</time>
      </trkpt>
      <trkpt lat="48.23491" lon="7.22342">
        <ele>556.96</ele>
        <time>2020-09-14T08:27:58.000Z</time>
      </trkpt>
      <trkpt lat="48.23482" lon="7.22337">
        <ele>558.16</ele>
        <time>2020-09-14T08:28:08.000Z</time>
      </trkpt>
      <trkpt lat="48.23473" lon="7.22332">
        <ele>559.63</ele>
        <time>2020-09-14T08:28:18.000Z</time>
      </trkpt>
      <trkpt lat="48.23464" lon="7.22327">
        <ele>560.48</ele>
        <time>2020-09-14T08:28:30.000Z</time>
      </trkpt>
      <trkpt lat="48.23455" lon="7.22324">
        <ele>561.03</ele>
        <time>2020-09-14T08:28:42.000Z</time>
      </trkpt>
      <trkpt lat="48.23446" lon="7.22319">
        <ele>560.95</ele>
        <time>2020-09-14T08:28:50.000Z</time>
      </trkpt>
      <trkpt lat="48.23437" lon="7.22314">
        <ele>561.37</ele>
        <time>2020-09-14T08:28:58.000Z</time>
      </trkpt>
      <trkpt lat="48.23429" lon="7.22309">
        <ele>561.69</ele>
        <time>2020-09-14T08:29:05.000Z</time>
      </trkpt>
      <trkpt lat="48.23419" lon="7.22304">
        <ele>563.01</ele>
        <time>2020-09-14T08:29:14.000Z</time>
      </trkpt>
      <trkpt lat="48.2341" lon="7.22301">
        <ele>563.87</ele>
        <time>2020-09-14T08:29:22.000Z</time>
      </trkpt>
      <trkpt lat="48.23401" lon="7.22296">
        <ele>565.49</ele>
        <time>2020-09-14T08:29:28.000Z</time>
      </trkpt>
      <trkpt lat="48.23392" lon="7.22292">
        <ele>566.35</ele>
        <time>2020-09-14T08:29:40.000Z</time>
      </trkpt>
      <trkpt lat="48.23382" lon="7.2229">
        <ele>567.14</ele>
        <time>2020-09-14T08:29:49.000Z</time>
      </trkpt>
      <trkpt lat="48.23373" lon="7.22286">
        <ele>568.47</ele>
        <time>2020-09-14T08:29:56.000Z</time>
      </trkpt>
      <trkpt lat="48.23364" lon="7.22281">
        <ele>569.43</ele>
        <time>2020-09-14T08:30:06.000Z</time>
      </trkpt>
      <trkpt lat="48.23355" lon="7.22275">
        <ele>571.72</ele>
        <time>2020-09-14T08:30:16.000Z</time>
      </trkpt>
      <trkpt lat="48.23345" lon="7.22271">
        <ele>573.47</ele>
        <time>2020-09-14T08:30:25.000Z</time>
      </trkpt>
      <trkpt lat="48.23339" lon="7.22261">
        <ele>575.06</ele>
        <time>2020-09-14T08:30:32.000Z</time>
      </trkpt>
      <trkpt lat="48.23331" lon="7.22253">
        <ele>575.75</ele>
        <time>2020-09-14T08:30:41.000Z</time>
      </trkpt>
      <trkpt lat="48.23323" lon="7.22247">
        <ele>576.6</ele>
        <time>2020-09-14T08:30:51.000Z</time>
      </trkpt>
      <trkpt lat="48.23315" lon="7.22238">
        <ele>578.04</ele>
        <time>2020-09-14T08:30:59.000Z</time>
      </trkpt>
      <trkpt lat="48.23306" lon="7.22233">
        <ele>579.03</ele>
        <time>2020-09-14T08:31:09.000Z</time>
      </trkpt>
      <trkpt lat="48.23297" lon="7.22229">
        <ele>579.04</ele>
        <time>2020-09-14T08:31:18.000Z</time>
      </trkpt>
      <trkpt lat="48.23288" lon="7.22225">
        <ele>579.88</ele>
        <time>2020-09-14T08:31:27.000Z</time>
      </trkpt>
      <trkpt lat="48.23278" lon="7.22224">
        <ele>579.73</ele>
        <time>2020-09-14T08:31:37.000Z</time>
      </trkpt>
      <trkpt lat="48.23269" lon="7.22222">
        <ele>578.96</ele>
        <time>2020-09-14T08:31:45.000Z</time>
      </trkpt>
      <trkpt lat="48.2326" lon="7.22218">
        <ele>578.53</ele>
        <time>2020-09-14T08:31:53.000Z</time>
      </trkpt>
      <trkpt lat="48.23252" lon="7.22212">
        <ele>578.33</ele>
        <time>2020-09-14T08:32:00.000Z</time>
      </trkpt>
      <trkpt lat="48.23243" lon="7.22208">
        <ele>577.74</ele>
        <time>2020-09-14T08:32:10.000Z</time>
      </trkpt>
      <trkpt lat="48.23234" lon="7.22201">
        <ele>577.03</ele>
        <time>2020-09-14T08:32:21.000Z</time>
      </trkpt>
      <trkpt lat="48.23225" lon="7.22199">
        <ele>577.13</ele>
        <time>2020-09-14T08:32:28.000Z</time>
      </trkpt>
      <trkpt lat="48.23216" lon="7.22196">
        <ele>577.21</ele>
        <time>2020-09-14T08:32:36.000Z</time>
      </trkpt>
      <trkpt lat="48.23206" lon="7.22194">
        <ele>577.01</ele>
        <time>2020-09-14T08:32:45.000Z</time>
      </trkpt>
      <trkpt lat="48.23197" lon="7.22198">
        <ele>577.62</ele>
        <time>2020-09-14T08:32:54.000Z</time>
      </trkpt>
      <trkpt lat="48.23187" lon="7.22196">
        <ele>577.73</ele>
        <time>2020-09-14T08:33:01.000Z</time>
      </trkpt>
      <trkpt lat="48.23176" lon="7.22196">
        <ele>577.79</ele>
        <time>2020-09-14T08:33:06.000Z</time>
      </trkpt>
      <trkpt lat="48.23165" lon="7.22193">
        <ele>578.48</ele>
        <time>2020-09-14T08:33:11.000Z</time>
      </trkpt>
      <trkpt lat="48.23155" lon="7.22194">
        <ele>578.73</ele>
        <time>2020-09-14T08:33:17.000Z</time>
      </trkpt>
      <trkpt lat="48.23148" lon="7.22204">
        <ele>578.8</ele>
        <time>2020-09-14T08:33:29.000Z</time>
      </trkpt>
      <trkpt lat="48.23144" lon="7.22219">
        <ele>579.69</ele>
        <time>2020-09-14T08:33:36.000Z</time>
      </trkpt>
      <trkpt lat="48.23143" lon="7.22234">
        <ele>581.62</ele>
        <time>2020-09-14T08:33:42.000Z</time>
      </trkpt>
      <trkpt lat="48.23148" lon="7.22248">
        <ele>584.32</ele>
        <time>2020-09-14T08:33:52.000Z</time>
      </trkpt>
      <trkpt lat="48.23156" lon="7.22258">
        <ele>587.17</ele>
        <time>2020-09-14T08:33:59.000Z</time>
      </trkpt>
      <trkpt lat="48.23164" lon="7.22269">
        <ele>590.48</ele>
        <time>2020-09-14T08:34:07.000Z</time>
      </trkpt>
      <trkpt lat="48.23161" lon="7.22282">
        <ele>590.64</ele>
        <time>2020-09-14T08:34:14.000Z</time>
      </trkpt>
      <trkpt lat="48.23161" lon="7.22298">
        <ele>589.07</ele>
        <time>2020-09-14T08:34:22.000Z</time>
      </trkpt>
      <trkpt lat="48.23162" lon="7.22312">
        <ele>588.35</ele>
        <time>2020-09-14T08:34:31.000Z</time>
      </trkpt>
      <trkpt lat="48.23167" lon="7.22324">
        <ele>588.52</ele>
        <time>2020-09-14T08:34:37.000Z</time>
      </trkpt>
      <trkpt lat="48.23172" lon="7.22336">
        <ele>588.74</ele>
        <time>2020-09-14T08:34:44.000Z</time>
      </trkpt>
      <trkpt lat="48.23177" lon="7.22349">
        <ele>589.2</ele>
        <time>2020-09-14T08:34:52.000Z</time>
      </trkpt>
      <trkpt lat="48.23184" lon="7.22358">
        <ele>589.53</ele>
        <time>2020-09-14T08:35:00.000Z</time>
      </trkpt>
      <trkpt lat="48.23191" lon="7.22369">
        <ele>589.31</ele>
        <time>2020-09-14T08:35:11.000Z</time>
      </trkpt>
      <trkpt lat="48.232" lon="7.22377">
        <ele>588.54</ele>
        <time>2020-09-14T08:35:17.000Z</time>
      </trkpt>
      <trkpt lat="48.23204" lon="7.2239">
        <ele>588.3</ele>
        <time>2020-09-14T08:35:27.000Z</time>
      </trkpt>
      <trkpt lat="48.2321" lon="7.22401">
        <ele>588.32</ele>
        <time>2020-09-14T08:35:37.000Z</time>
      </trkpt>
      <trkpt lat="48.23215" lon="7.22413">
        <ele>588.92</ele>
        <time>2020-09-14T08:35:44.000Z</time>
      </trkpt>
      <trkpt lat="48.23216" lon="7.22427">
        <ele>589.75</ele>
        <time>2020-09-14T08:35:53.000Z</time>
      </trkpt>
      <trkpt lat="48.2322" lon="7.22441">
        <ele>590.87</ele>
        <time>2020-09-14T08:35:59.000Z</time>
      </trkpt>
      <trkpt lat="48.23224" lon="7.22455">
        <ele>592.89</ele>
        <time>2020-09-14T08:36:05.000Z</time>
      </trkpt>
      <trkpt lat="48.23228" lon="7.22469">
        <ele>595.15</ele>
        <time>2020-09-14T08:36:11.000Z</time>
      </trkpt>
      <trkpt lat="48.23231" lon="7.22481">
        <ele>597.36</ele>
        <time>2020-09-14T08:36:17.000Z</time>
      </trkpt>
      <trkpt lat="48.23232" lon="7.22497">
        <ele>598.38</ele>
        <time>2020-09-14T08:36:26.000Z</time>
      </trkpt>
      <trkpt lat="48.23234" lon="7.22511">
        <ele>599.85</ele>
        <time>2020-09-14T08:36:34.000Z</time>
      </trkpt>
      <trkpt lat="48.23236" lon="7.22524">
        <ele>600.81</ele>
        <time>2020-09-14T08:36:39.000Z</time>
      </trkpt>
      <trkpt lat="48.23237" lon="7.22542">
        <ele>602.93</ele>
        <time>2020-09-14T08:36:44.000Z</time>
      </trkpt>
      <trkpt lat="48.23232" lon="7.22561">
        <ele>605.09</ele>
        <time>2020-09-14T08:36:49.000Z</time>
      </trkpt>
      <trkpt lat="48.23225" lon="7.22572">
        <ele>606.41</ele>
        <time>2020-09-14T08:36:58.000Z</time>
      </trkpt>
      <trkpt lat="48.23214" lon="7.22573">
        <ele>612.03</ele>
        <time>2020-09-14T08:37:19.000Z</time>
      </trkpt>
      <trkpt lat="48.23205" lon="7.22575">
        <ele>614.31</ele>
        <time>2020-09-14T08:37:39.000Z</time>
      </trkpt>
      <trkpt lat="48.23195" lon="7.22574">
        <ele>614.96</ele>
        <time>2020-09-14T08:37:49.000Z</time>
      </trkpt>
      <trkpt lat="48.23186" lon="7.22576">
        <ele>614.76</ele>
        <time>2020-09-14T08:38:02.000Z</time>
      </trkpt>
      <trkpt lat="48.23178" lon="7.22583">
        <ele>614.81</ele>
        <time>2020-09-14T08:38:14.000Z</time>
      </trkpt>
      <trkpt lat="48.23169" lon="7.22587">
        <ele>614.54</ele>
        <time>2020-09-14T08:38:32.000Z</time>
      </trkpt>
      <trkpt lat="48.2316" lon="7.22587">
        <ele>616.16</ele>
        <time>2020-09-14T08:38:39.000Z</time>
      </trkpt>
      <trkpt lat="48.23151" lon="7.22588">
        <ele>617.42</ele>
        <time>2020-09-14T08:38:51.000Z</time>
      </trkpt>
      <trkpt lat="48.23143" lon="7.22595">
        <ele>617.56</ele>
        <time>2020-09-14T08:39:02.000Z</time>
      </trkpt>
      <trkpt lat="48.23133" lon="7.22596">
        <ele>617.51</ele>
        <time>2020-09-14T08:39:09.000Z</time>
      </trkpt>
      <trkpt lat="48.23123" lon="7.22595">
        <ele>617.84</ele>
        <time>2020-09-14T08:39:14.000Z</time>
      </trkpt>
      <trkpt lat="48.23112" lon="7.22602">
        <ele>618.81</ele>
        <time>2020-09-14T08:39:40.000Z</time>
      </trkpt>
      <trkpt lat="48.23102" lon="7.22604">
        <ele>619.22</ele>
        <time>2020-09-14T08:39:47.000Z</time>
      </trkpt>
      <trkpt lat="48.23093" lon="7.22606">
        <ele>619.8</ele>
        <time>2020-09-14T08:39:56.000Z</time>
      </trkpt>
      <trkpt lat="48.23084" lon="7.22609">
        <ele>619.4</ele>
        <time>2020-09-14T08:40:07.000Z</time>
      </trkpt>
      <trkpt lat="48.23074" lon="7.2261">
        <ele>618.87</ele>
        <time>2020-09-14T08:40:14.000Z</time>
      </trkpt>
      <trkpt lat="48.23064" lon="7.22616">
        <ele>618.21</ele>
        <time>2020-09-14T08:40:23.000Z</time>
      </trkpt>
      <trkpt lat="48.23054" lon="7.22621">
        <ele>618.96</ele>
        <time>2020-09-14T08:40:29.000Z</time>
      </trkpt>
      <trkpt lat="48.23045" lon="7.22626">
        <ele>619.5</ele>
        <time>2020-09-14T08:40:35.000Z</time>
      </trkpt>
      <trkpt lat="48.23037" lon="7.22633">
        <ele>620.07</ele>
        <time>2020-09-14T08:40:43.000Z</time>
      </trkpt>
      <trkpt lat="48.2303" lon="7.2264">
        <ele>621.28</ele>
        <time>2020-09-14T08:40:54.000Z</time>
      </trkpt>
      <trkpt lat="48.2302" lon="7.22641">
        <ele>621.6</ele>
        <time>2020-09-14T08:41:08.000Z</time>
      </trkpt>
      <trkpt lat="48.23011" lon="7.2264">
        <ele>622.62</ele>
        <time>2020-09-14T08:41:19.000Z</time>
      </trkpt>
      <trkpt lat="48.23002" lon="7.22639">
        <ele>623.47</ele>
        <time>2020-09-14T08:41:29.000Z</time>
      </trkpt>
      <trkpt lat="48.22993" lon="7.22637">
        <ele>623.87</ele>
        <time>2020-09-14T08:41:35.000Z</time>
      </trkpt>
      <trkpt lat="48.22984" lon="7.22637">
        <ele>624.96</ele>
        <time>2020-09-14T08:41:41.000Z</time>
      </trkpt>
      <trkpt lat="48.22974" lon="7.22643">
        <ele>626.09</ele>
        <time>2020-09-14T08:41:48.000Z</time>
      </trkpt>
      <trkpt lat="48.22966" lon="7.22648">
        <ele>626.6</ele>
        <time>2020-09-14T08:41:54.000Z</time>
      </trkpt>
      <trkpt lat="48.22961" lon="7.22662">
        <ele>627.47</ele>
        <time>2020-09-14T08:42:00.000Z</time>
      </trkpt>
      <trkpt lat="48.22959" lon="7.22676">
        <ele>627.83</ele>
        <time>2020-09-14T08:42:08.000Z</time>
      </trkpt>
      <trkpt lat="48.22954" lon="7.22688">
        <ele>627.64</ele>
        <time>2020-09-14T08:42:17.000Z</time>
      </trkpt>
      <trkpt lat="48.22947" lon="7.22697">
        <ele>627.73</ele>
        <time>2020-09-14T08:42:28.000Z</time>
      </trkpt>
      <trkpt lat="48.22938" lon="7.227">
        <ele>628.13</ele>
        <time>2020-09-14T08:42:36.000Z</time>
      </trkpt>
      <trkpt lat="48.22929" lon="7.22703">
        <ele>628.6</ele>
        <time>2020-09-14T08:42:45.000Z</time>
      </trkpt>
      <trkpt lat="48.22921" lon="7.2271">
        <ele>629.09</ele>
        <time>2020-09-14T08:42:55.000Z</time>
      </trkpt>
      <trkpt lat="48.2291" lon="7.22712">
        <ele>629.35</ele>
        <time>2020-09-14T08:43:02.000Z</time>
      </trkpt>
      <trkpt lat="48.22901" lon="7.22714">
        <ele>630</ele>
        <time>2020-09-14T08:43:12.000Z</time>
      </trkpt>
      <trkpt lat="48.22892" lon="7.22719">
        <ele>629.93</ele>
        <time>2020-09-14T08:43:24.000Z</time>
      </trkpt>
      <trkpt lat="48.22882" lon="7.2272">
        <ele>630.4</ele>
        <time>2020-09-14T08:43:42.000Z</time>
      </trkpt>
      <trkpt lat="48.22872" lon="7.22722">
        <ele>631.29</ele>
        <time>2020-09-14T08:43:49.000Z</time>
      </trkpt>
      <trkpt lat="48.22862" lon="7.22721">
        <ele>631.97</ele>
        <time>2020-09-14T08:43:55.000Z</time>
      </trkpt>
      <trkpt lat="48.22853" lon="7.22724">
        <ele>632.63</ele>
        <time>2020-09-14T08:44:07.000Z</time>
      </trkpt>
      <trkpt lat="48.22844" lon="7.22726">
        <ele>633.1</ele>
        <time>2020-09-14T08:44:14.000Z</time>
      </trkpt>
      <trkpt lat="48.22835" lon="7.22728">
        <ele>633.7</ele>
        <time>2020-09-14T08:44:24.000Z</time>
      </trkpt>
      <trkpt lat="48.22825" lon="7.22729">
        <ele>634.49</ele>
        <time>2020-09-14T08:44:31.000Z</time>
      </trkpt>
      <trkpt lat="48.22815" lon="7.2273">
        <ele>636.16</ele>
        <time>2020-09-14T08:44:42.000Z</time>
      </trkpt>
      <trkpt lat="48.22806" lon="7.22732">
        <ele>637.2</ele>
        <time>2020-09-14T08:44:50.000Z</time>
      </trkpt>
      <trkpt lat="48.22799" lon="7.22742">
        <ele>637.8</ele>
        <time>2020-09-14T08:45:01.000Z</time>
      </trkpt>
      <trkpt lat="48.2279" lon="7.22747">
        <ele>638.03</ele>
        <time>2020-09-14T08:45:07.000Z</time>
      </trkpt>
      <trkpt lat="48.22781" lon="7.22751">
        <ele>638.23</ele>
        <time>2020-09-14T08:45:14.000Z</time>
      </trkpt>
      <trkpt lat="48.22772" lon="7.22754">
        <ele>638.8</ele>
        <time>2020-09-14T08:45:21.000Z</time>
      </trkpt>
      <trkpt lat="48.22763" lon="7.2276">
        <ele>639.4</ele>
        <time>2020-09-14T08:45:30.000Z</time>
      </trkpt>
      <trkpt lat="48.22754" lon="7.22764">
        <ele>640.79</ele>
        <time>2020-09-14T08:45:40.000Z</time>
      </trkpt>
      <trkpt lat="48.22744" lon="7.2277">
        <ele>641.62</ele>
        <time>2020-09-14T08:45:47.000Z</time>
      </trkpt>
      <trkpt lat="48.22737" lon="7.22778">
        <ele>642.2</ele>
        <time>2020-09-14T08:45:56.000Z</time>
      </trkpt>
      <trkpt lat="48.22735" lon="7.22793">
        <ele>644.26</ele>
        <time>2020-09-14T08:46:05.000Z</time>
      </trkpt>
      <trkpt lat="48.22731" lon="7.22806">
        <ele>646.28</ele>
        <time>2020-09-14T08:46:15.000Z</time>
      </trkpt>
      <trkpt lat="48.22724" lon="7.22816">
        <ele>647.76</ele>
        <time>2020-09-14T08:46:26.000Z</time>
      </trkpt>
      <trkpt lat="48.22719" lon="7.22829">
        <ele>649.29</ele>
        <time>2020-09-14T08:46:36.000Z</time>
      </trkpt>
      <trkpt lat="48.22714" lon="7.22842">
        <ele>651.16</ele>
        <time>2020-09-14T08:46:45.000Z</time>
      </trkpt>
      <trkpt lat="48.22707" lon="7.22851">
        <ele>653.68</ele>
        <time>2020-09-14T08:46:55.000Z</time>
      </trkpt>
      <trkpt lat="48.22699" lon="7.22859">
        <ele>655.96</ele>
        <time>2020-09-14T08:47:06.000Z</time>
      </trkpt>
      <trkpt lat="48.22692" lon="7.22869">
        <ele>657.69</ele>
        <time>2020-09-14T08:47:16.000Z</time>
      </trkpt>
      <trkpt lat="48.22683" lon="7.22875">
        <ele>659.34</ele>
        <time>2020-09-14T08:47:24.000Z</time>
      </trkpt>
      <trkpt lat="48.22676" lon="7.22885">
        <ele>661.83</ele>
        <time>2020-09-14T08:47:33.000Z</time>
      </trkpt>
      <trkpt lat="48.22672" lon="7.22897">
        <ele>663.96</ele>
        <time>2020-09-14T08:47:42.000Z</time>
      </trkpt>
      <trkpt lat="48.22665" lon="7.22906">
        <ele>664.77</ele>
        <time>2020-09-14T08:47:50.000Z</time>
      </trkpt>
      <trkpt lat="48.22661" lon="7.22918">
        <ele>666.87</ele>
        <time>2020-09-14T08:48:02.000Z</time>
      </trkpt>
      <trkpt lat="48.22657" lon="7.22933">
        <ele>668.8</ele>
        <time>2020-09-14T08:48:10.000Z</time>
      </trkpt>
      <trkpt lat="48.22656" lon="7.22947">
        <ele>670.78</ele>
        <time>2020-09-14T08:48:18.000Z</time>
      </trkpt>
      <trkpt lat="48.22658" lon="7.22962">
        <ele>673.01</ele>
        <time>2020-09-14T08:48:26.000Z</time>
      </trkpt>
      <trkpt lat="48.22663" lon="7.22974">
        <ele>675.12</ele>
        <time>2020-09-14T08:48:32.000Z</time>
      </trkpt>
      <trkpt lat="48.22665" lon="7.22987">
        <ele>677.43</ele>
        <time>2020-09-14T08:48:39.000Z</time>
      </trkpt>
      <trkpt lat="48.22661" lon="7.23">
        <ele>680.19</ele>
        <time>2020-09-14T08:48:47.000Z</time>
      </trkpt>
      <trkpt lat="48.22659" lon="7.23015">
        <ele>682.81</ele>
        <time>2020-09-14T08:48:57.000Z</time>
      </trkpt>
      <trkpt lat="48.22661" lon="7.23029">
        <ele>683.97</ele>
        <time>2020-09-14T08:49:15.000Z</time>
      </trkpt>
      <trkpt lat="48.22665" lon="7.23043">
        <ele>684.77</ele>
        <time>2020-09-14T08:49:23.000Z</time>
      </trkpt>
      <trkpt lat="48.22669" lon="7.23056">
        <ele>685.3</ele>
        <time>2020-09-14T08:49:30.000Z</time>
      </trkpt>
      <trkpt lat="48.22673" lon="7.23068">
        <ele>686.19</ele>
        <time>2020-09-14T08:49:37.000Z</time>
      </trkpt>
      <trkpt lat="48.22679" lon="7.2308">
        <ele>687.19</ele>
        <time>2020-09-14T08:49:45.000Z</time>
      </trkpt>
      <trkpt lat="48.22684" lon="7.23093">
        <ele>687.99</ele>
        <time>2020-09-14T08:49:53.000Z</time>
      </trkpt>
      <trkpt lat="48.22688" lon="7.23106">
        <ele>690.13</ele>
        <time>2020-09-14T08:50:03.000Z</time>
      </trkpt>
      <trkpt lat="48.22693" lon="7.23118">
        <ele>691.64</ele>
        <time>2020-09-14T08:50:10.000Z</time>
      </trkpt>
      <trkpt lat="48.22693" lon="7.23132">
        <ele>693.26</ele>
        <time>2020-09-14T08:50:19.000Z</time>
      </trkpt>
      <trkpt lat="48.22686" lon="7.2314">
        <ele>694.89</ele>
        <time>2020-09-14T08:50:28.000Z</time>
      </trkpt>
      <trkpt lat="48.22699" lon="7.23134">
        <ele>687.38</ele>
        <time>2020-09-14T08:52:12.000Z</time>
      </trkpt>
      <trkpt lat="48.22708" lon="7.23137">
        <ele>687.11</ele>
        <time>2020-09-14T08:52:21.000Z</time>
      </trkpt>
      <trkpt lat="48.22714" lon="7.23149">
        <ele>687.75</ele>
        <time>2020-09-14T08:52:36.000Z</time>
      </trkpt>
      <trkpt lat="48.2272" lon="7.23159">
        <ele>689.27</ele>
        <time>2020-09-14T08:52:45.000Z</time>
      </trkpt>
      <trkpt lat="48.22729" lon="7.23166">
        <ele>691.1</ele>
        <time>2020-09-14T08:52:55.000Z</time>
      </trkpt>
      <trkpt lat="48.22738" lon="7.2317">
        <ele>691.53</ele>
        <time>2020-09-14T08:53:06.000Z</time>
      </trkpt>
      <trkpt lat="48.22746" lon="7.23177">
        <ele>691.38</ele>
        <time>2020-09-14T08:53:16.000Z</time>
      </trkpt>
      <trkpt lat="48.22756" lon="7.23181">
        <ele>691.79</ele>
        <time>2020-09-14T08:53:23.000Z</time>
      </trkpt>
      <trkpt lat="48.22765" lon="7.23186">
        <ele>692.45</ele>
        <time>2020-09-14T08:53:31.000Z</time>
      </trkpt>
      <trkpt lat="48.22774" lon="7.23188">
        <ele>692.62</ele>
        <time>2020-09-14T08:53:40.000Z</time>
      </trkpt>
      <trkpt lat="48.22783" lon="7.23193">
        <ele>693.1</ele>
        <time>2020-09-14T08:53:49.000Z</time>
      </trkpt>
      <trkpt lat="48.22787" lon="7.23207">
        <ele>695.17</ele>
        <time>2020-09-14T08:54:05.000Z</time>
      </trkpt>
      <trkpt lat="48.22792" lon="7.23218">
        <ele>696.61</ele>
        <time>2020-09-14T08:54:11.000Z</time>
      </trkpt>
      <trkpt lat="48.22793" lon="7.23233">
        <ele>697.88</ele>
        <time>2020-09-14T08:54:18.000Z</time>
      </trkpt>
      <trkpt lat="48.22796" lon="7.23248">
        <ele>700.02</ele>
        <time>2020-09-14T08:54:27.000Z</time>
      </trkpt>
      <trkpt lat="48.22795" lon="7.23262">
        <ele>700.31</ele>
        <time>2020-09-14T08:54:34.000Z</time>
      </trkpt>
      <trkpt lat="48.22795" lon="7.23277">
        <ele>700.13</ele>
        <time>2020-09-14T08:54:42.000Z</time>
      </trkpt>
      <trkpt lat="48.22796" lon="7.23292">
        <ele>700.45</ele>
        <time>2020-09-14T08:54:51.000Z</time>
      </trkpt>
      <trkpt lat="48.22799" lon="7.23306">
        <ele>699.98</ele>
        <time>2020-09-14T08:54:58.000Z</time>
      </trkpt>
      <trkpt lat="48.22801" lon="7.23319">
        <ele>699.04</ele>
        <time>2020-09-14T08:55:06.000Z</time>
      </trkpt>
      <trkpt lat="48.22804" lon="7.23332">
        <ele>698.39</ele>
        <time>2020-09-14T08:55:13.000Z</time>
      </trkpt>
      <trkpt lat="48.22809" lon="7.23345">
        <ele>697.66</ele>
        <time>2020-09-14T08:55:20.000Z</time>
      </trkpt>
      <trkpt lat="48.22815" lon="7.23355">
        <ele>697.26</ele>
        <time>2020-09-14T08:55:27.000Z</time>
      </trkpt>
      <trkpt lat="48.2282" lon="7.23367">
        <ele>696.46</ele>
        <time>2020-09-14T08:55:34.000Z</time>
      </trkpt>
      <trkpt lat="48.22824" lon="7.23381">
        <ele>695.49</ele>
        <time>2020-09-14T08:55:41.000Z</time>
      </trkpt>
      <trkpt lat="48.22829" lon="7.23393">
        <ele>694.2</ele>
        <time>2020-09-14T08:55:48.000Z</time>
      </trkpt>
      <trkpt lat="48.22836" lon="7.23404">
        <ele>692.79</ele>
        <time>2020-09-14T08:55:56.000Z</time>
      </trkpt>
      <trkpt lat="48.22844" lon="7.23415">
        <ele>691.86</ele>
        <time>2020-09-14T08:56:04.000Z</time>
      </trkpt>
      <trkpt lat="48.22852" lon="7.23424">
        <ele>691.72</ele>
        <time>2020-09-14T08:56:12.000Z</time>
      </trkpt>
      <trkpt lat="48.2286" lon="7.23432">
        <ele>690.59</ele>
        <time>2020-09-14T08:56:22.000Z</time>
      </trkpt>
      <trkpt lat="48.22868" lon="7.23438">
        <ele>688.83</ele>
        <time>2020-09-14T08:56:31.000Z</time>
      </trkpt>
      <trkpt lat="48.22876" lon="7.23446">
        <ele>686.47</ele>
        <time>2020-09-14T08:56:40.000Z</time>
      </trkpt>
      <trkpt lat="48.22884" lon="7.23454">
        <ele>685.95</ele>
        <time>2020-09-14T08:56:47.000Z</time>
      </trkpt>
      <trkpt lat="48.22891" lon="7.23464">
        <ele>685.48</ele>
        <time>2020-09-14T08:56:53.000Z</time>
      </trkpt>
      <trkpt lat="48.22899" lon="7.23471">
        <ele>683.97</ele>
        <time>2020-09-14T08:57:02.000Z</time>
      </trkpt>
      <trkpt lat="48.22907" lon="7.23479">
        <ele>682.07</ele>
        <time>2020-09-14T08:57:13.000Z</time>
      </trkpt>
      <trkpt lat="48.22915" lon="7.23488">
        <ele>680.53</ele>
        <time>2020-09-14T08:57:21.000Z</time>
      </trkpt>
      <trkpt lat="48.22915" lon="7.23502">
        <ele>681.45</ele>
        <time>2020-09-14T08:57:34.000Z</time>
      </trkpt>
      <trkpt lat="48.22924" lon="7.23508">
        <ele>679.68</ele>
        <time>2020-09-14T08:57:47.000Z</time>
      </trkpt>
      <trkpt lat="48.22913" lon="7.23499">
        <ele>674.03</ele>
        <time>2020-09-14T08:58:46.000Z</time>
      </trkpt>
      <trkpt lat="48.22902" lon="7.23506">
        <ele>679.38</ele>
        <time>2020-09-14T09:00:43.000Z</time>
      </trkpt>
      <trkpt lat="48.2291" lon="7.23516">
        <ele>682.98</ele>
        <time>2020-09-14T09:02:58.000Z</time>
      </trkpt>
      <trkpt lat="48.22918" lon="7.23523">
        <ele>683.08</ele>
        <time>2020-09-14T09:03:04.000Z</time>
      </trkpt>
      <trkpt lat="48.22926" lon="7.23531">
        <ele>682.56</ele>
        <time>2020-09-14T09:03:14.000Z</time>
      </trkpt>
      <trkpt lat="48.22932" lon="7.23542">
        <ele>684.35</ele>
        <time>2020-09-14T09:03:21.000Z</time>
      </trkpt>
      <trkpt lat="48.22936" lon="7.23554">
        <ele>687</ele>
        <time>2020-09-14T09:03:28.000Z</time>
      </trkpt>
      <trkpt lat="48.2294" lon="7.23566">
        <ele>692.08</ele>
        <time>2020-09-14T09:03:39.000Z</time>
      </trkpt>
      <trkpt lat="48.22947" lon="7.23576">
        <ele>696.5</ele>
        <time>2020-09-14T09:03:50.000Z</time>
      </trkpt>
      <trkpt lat="48.22952" lon="7.23588">
        <ele>700.32</ele>
        <time>2020-09-14T09:04:02.000Z</time>
      </trkpt>
      <trkpt lat="48.22959" lon="7.23598">
        <ele>704.68</ele>
        <time>2020-09-14T09:04:18.000Z</time>
      </trkpt>
      <trkpt lat="48.22963" lon="7.23611">
        <ele>707.26</ele>
        <time>2020-09-14T09:04:28.000Z</time>
      </trkpt>
      <trkpt lat="48.22968" lon="7.23623">
        <ele>709.85</ele>
        <time>2020-09-14T09:04:38.000Z</time>
      </trkpt>
      <trkpt lat="48.22975" lon="7.23635">
        <ele>712.19</ele>
        <time>2020-09-14T09:04:49.000Z</time>
      </trkpt>
      <trkpt lat="48.2298" lon="7.23645">
        <ele>712.08</ele>
        <time>2020-09-14T09:04:57.000Z</time>
      </trkpt>
      <trkpt lat="48.22989" lon="7.23651">
        <ele>712.19</ele>
        <time>2020-09-14T09:05:08.000Z</time>
      </trkpt>
      <trkpt lat="48.22992" lon="7.23664">
        <ele>713.8</ele>
        <time>2020-09-14T09:05:20.000Z</time>
      </trkpt>
      <trkpt lat="48.23" lon="7.23673">
        <ele>715.07</ele>
        <time>2020-09-14T09:05:32.000Z</time>
      </trkpt>
      <trkpt lat="48.23006" lon="7.23683">
        <ele>717.69</ele>
        <time>2020-09-14T09:05:45.000Z</time>
      </trkpt>
      <trkpt lat="48.23014" lon="7.23693">
        <ele>718.8</ele>
        <time>2020-09-14T09:05:58.000Z</time>
      </trkpt>
      <trkpt lat="48.23022" lon="7.237">
        <ele>719.87</ele>
        <time>2020-09-14T09:06:07.000Z</time>
      </trkpt>
      <trkpt lat="48.23027" lon="7.23712">
        <ele>722.96</ele>
        <time>2020-09-14T09:06:21.000Z</time>
      </trkpt>
      <trkpt lat="48.23034" lon="7.23721">
        <ele>724.87</ele>
        <time>2020-09-14T09:06:30.000Z</time>
      </trkpt>
      <trkpt lat="48.23041" lon="7.23732">
        <ele>726.2</ele>
        <time>2020-09-14T09:06:42.000Z</time>
      </trkpt>
      <trkpt lat="48.23047" lon="7.23741">
        <ele>727.39</ele>
        <time>2020-09-14T09:06:53.000Z</time>
      </trkpt>
      <trkpt lat="48.2305" lon="7.23754">
        <ele>729.89</ele>
        <time>2020-09-14T09:07:04.000Z</time>
      </trkpt>
      <trkpt lat="48.23054" lon="7.23767">
        <ele>732.69</ele>
        <time>2020-09-14T09:07:18.000Z</time>
      </trkpt>
      <trkpt lat="48.23059" lon="7.23778">
        <ele>733.1</ele>
        <time>2020-09-14T09:07:26.000Z</time>
      </trkpt>
      <trkpt lat="48.23065" lon="7.23789">
        <ele>734.76</ele>
        <time>2020-09-14T09:07:35.000Z</time>
      </trkpt>
      <trkpt lat="48.2307" lon="7.23801">
        <ele>736.17</ele>
        <time>2020-09-14T09:07:45.000Z</time>
      </trkpt>
      <trkpt lat="48.23075" lon="7.23812">
        <ele>737.9</ele>
        <time>2020-09-14T09:07:55.000Z</time>
      </trkpt>
      <trkpt lat="48.23077" lon="7.23825">
        <ele>739.11</ele>
        <time>2020-09-14T09:08:05.000Z</time>
      </trkpt>
      <trkpt lat="48.23082" lon="7.23838">
        <ele>740.57</ele>
        <time>2020-09-14T09:08:18.000Z</time>
      </trkpt>
      <trkpt lat="48.23087" lon="7.2385">
        <ele>741.67</ele>
        <time>2020-09-14T09:08:28.000Z</time>
      </trkpt>
      <trkpt lat="48.23091" lon="7.23864">
        <ele>743.06</ele>
        <time>2020-09-14T09:08:38.000Z</time>
      </trkpt>
      <trkpt lat="48.23096" lon="7.23875">
        <ele>743.7</ele>
        <time>2020-09-14T09:08:45.000Z</time>
      </trkpt>
      <trkpt lat="48.23101" lon="7.23886">
        <ele>744.89</ele>
        <time>2020-09-14T09:08:53.000Z</time>
      </trkpt>
      <trkpt lat="48.23104" lon="7.239">
        <ele>745.5</ele>
        <time>2020-09-14T09:09:07.000Z</time>
      </trkpt>
      <trkpt lat="48.23109" lon="7.23912">
        <ele>746.78</ele>
        <time>2020-09-14T09:09:17.000Z</time>
      </trkpt>
      <trkpt lat="48.23114" lon="7.23925">
        <ele>747.43</ele>
        <time>2020-09-14T09:09:28.000Z</time>
      </trkpt>
      <trkpt lat="48.2312" lon="7.23937">
        <ele>748.02</ele>
        <time>2020-09-14T09:09:35.000Z</time>
      </trkpt>
      <trkpt lat="48.23123" lon="7.2395">
        <ele>748.73</ele>
        <time>2020-09-14T09:09:43.000Z</time>
      </trkpt>
      <trkpt lat="48.23125" lon="7.23964">
        <ele>749</ele>
        <time>2020-09-14T09:09:51.000Z</time>
      </trkpt>
      <trkpt lat="48.23127" lon="7.23977">
        <ele>749.7</ele>
        <time>2020-09-14T09:10:00.000Z</time>
      </trkpt>
      <trkpt lat="48.23128" lon="7.23991">
        <ele>750.39</ele>
        <time>2020-09-14T09:10:09.000Z</time>
      </trkpt>
      <trkpt lat="48.23131" lon="7.24005">
        <ele>751.52</ele>
        <time>2020-09-14T09:10:19.000Z</time>
      </trkpt>
      <trkpt lat="48.23132" lon="7.2402">
        <ele>752.23</ele>
        <time>2020-09-14T09:10:28.000Z</time>
      </trkpt>
      <trkpt lat="48.23133" lon="7.24035">
        <ele>753.25</ele>
        <time>2020-09-14T09:10:36.000Z</time>
      </trkpt>
      <trkpt lat="48.2313" lon="7.2405">
        <ele>754.59</ele>
        <time>2020-09-14T09:10:45.000Z</time>
      </trkpt>
      <trkpt lat="48.23126" lon="7.24063">
        <ele>755.35</ele>
        <time>2020-09-14T09:10:53.000Z</time>
      </trkpt>
      <trkpt lat="48.23119" lon="7.24072">
        <ele>756</ele>
        <time>2020-09-14T09:11:01.000Z</time>
      </trkpt>
      <trkpt lat="48.23113" lon="7.24082">
        <ele>756.13</ele>
        <time>2020-09-14T09:11:08.000Z</time>
      </trkpt>
      <trkpt lat="48.23108" lon="7.24093">
        <ele>756.52</ele>
        <time>2020-09-14T09:11:16.000Z</time>
      </trkpt>
      <trkpt lat="48.23102" lon="7.24105">
        <ele>756.73</ele>
        <time>2020-09-14T09:11:27.000Z</time>
      </trkpt>
      <trkpt lat="48.23094" lon="7.24113">
        <ele>757.1</ele>
        <time>2020-09-14T09:11:38.000Z</time>
      </trkpt>
      <trkpt lat="48.23088" lon="7.24123">
        <ele>758.74</ele>
        <time>2020-09-14T09:11:47.000Z</time>
      </trkpt>
      <trkpt lat="48.23086" lon="7.24136">
        <ele>759.64</ele>
        <time>2020-09-14T09:11:59.000Z</time>
      </trkpt>
      <trkpt lat="48.23079" lon="7.24148">
        <ele>760.88</ele>
        <time>2020-09-14T09:12:08.000Z</time>
      </trkpt>
      <trkpt lat="48.23071" lon="7.24154">
        <ele>762.2</ele>
        <time>2020-09-14T09:12:19.000Z</time>
      </trkpt>
      <trkpt lat="48.23064" lon="7.24162">
        <ele>763.9</ele>
        <time>2020-09-14T09:12:29.000Z</time>
      </trkpt>
      <trkpt lat="48.23056" lon="7.2417">
        <ele>766.67</ele>
        <time>2020-09-14T09:12:40.000Z</time>
      </trkpt>
      <trkpt lat="48.23054" lon="7.24183">
        <ele>768.71</ele>
        <time>2020-09-14T09:12:48.000Z</time>
      </trkpt>
      <trkpt lat="48.2305" lon="7.24198">
        <ele>771.26</ele>
        <time>2020-09-14T09:12:57.000Z</time>
      </trkpt>
      <trkpt lat="48.23045" lon="7.24209">
        <ele>772.11</ele>
        <time>2020-09-14T09:13:09.000Z</time>
      </trkpt>
      <trkpt lat="48.23039" lon="7.2422">
        <ele>773.05</ele>
        <time>2020-09-14T09:13:20.000Z</time>
      </trkpt>
      <trkpt lat="48.23032" lon="7.24232">
        <ele>773.14</ele>
        <time>2020-09-14T09:13:28.000Z</time>
      </trkpt>
      <trkpt lat="48.23026" lon="7.24243">
        <ele>773.62</ele>
        <time>2020-09-14T09:13:37.000Z</time>
      </trkpt>
      <trkpt lat="48.23019" lon="7.24251">
        <ele>774.13</ele>
        <time>2020-09-14T09:13:47.000Z</time>
      </trkpt>
      <trkpt lat="48.23009" lon="7.24255">
        <ele>774.82</ele>
        <time>2020-09-14T09:13:55.000Z</time>
      </trkpt>
      <trkpt lat="48.23002" lon="7.24265">
        <ele>776.59</ele>
        <time>2020-09-14T09:14:07.000Z</time>
      </trkpt>
      <trkpt lat="48.22995" lon="7.24273">
        <ele>784.73</ele>
        <time>2020-09-14T09:14:33.000Z</time>
      </trkpt>
      <trkpt lat="48.22985" lon="7.24275">
        <ele>798.51</ele>
        <time>2020-09-14T09:16:23.000Z</time>
      </trkpt>
      <trkpt lat="48.22976" lon="7.2428">
        <ele>800.8</ele>
        <time>2020-09-14T09:16:36.000Z</time>
      </trkpt>
      <trkpt lat="48.22978" lon="7.24295">
        <ele>803.57</ele>
        <time>2020-09-14T09:16:58.000Z</time>
      </trkpt>
      <trkpt lat="48.22981" lon="7.24308">
        <ele>804.1</ele>
        <time>2020-09-14T09:17:07.000Z</time>
      </trkpt>
      <trkpt lat="48.22985" lon="7.24322">
        <ele>804.7</ele>
        <time>2020-09-14T09:17:17.000Z</time>
      </trkpt>
      <trkpt lat="48.2299" lon="7.24334">
        <ele>806.07</ele>
        <time>2020-09-14T09:17:28.000Z</time>
      </trkpt>
      <trkpt lat="48.2299" lon="7.24348">
        <ele>806.92</ele>
        <time>2020-09-14T09:17:39.000Z</time>
      </trkpt>
      <trkpt lat="48.22988" lon="7.24361">
        <ele>807.9</ele>
        <time>2020-09-14T09:17:48.000Z</time>
      </trkpt>
      <trkpt lat="48.22987" lon="7.24375">
        <ele>808.35</ele>
        <time>2020-09-14T09:17:57.000Z</time>
      </trkpt>
      <trkpt lat="48.22988" lon="7.24388">
        <ele>809.02</ele>
        <time>2020-09-14T09:18:05.000Z</time>
      </trkpt>
      <trkpt lat="48.2299" lon="7.24404">
        <ele>810.36</ele>
        <time>2020-09-14T09:18:15.000Z</time>
      </trkpt>
      <trkpt lat="48.22992" lon="7.24417">
        <ele>816.85</ele>
        <time>2020-09-14T09:18:34.000Z</time>
      </trkpt>
      <trkpt lat="48.22991" lon="7.24432">
        <ele>817.98</ele>
        <time>2020-09-14T09:18:43.000Z</time>
      </trkpt>
      <trkpt lat="48.2299" lon="7.24445">
        <ele>818.12</ele>
        <time>2020-09-14T09:18:51.000Z</time>
      </trkpt>
      <trkpt lat="48.22991" lon="7.2446">
        <ele>821.15</ele>
        <time>2020-09-14T09:19:00.000Z</time>
      </trkpt>
      <trkpt lat="48.22997" lon="7.2447">
        <ele>822.3</ele>
        <time>2020-09-14T09:19:10.000Z</time>
      </trkpt>
      <trkpt lat="48.23004" lon="7.24482">
        <ele>821.64</ele>
        <time>2020-09-14T09:19:19.000Z</time>
      </trkpt>
      <trkpt lat="48.23011" lon="7.24492">
        <ele>819.89</ele>
        <time>2020-09-14T09:19:29.000Z</time>
      </trkpt>
      <trkpt lat="48.23019" lon="7.24498">
        <ele>821.2</ele>
        <time>2020-09-14T09:19:39.000Z</time>
      </trkpt>
      <trkpt lat="48.23028" lon="7.24504">
        <ele>823.27</ele>
        <time>2020-09-14T09:19:51.000Z</time>
      </trkpt>
      <trkpt lat="48.23037" lon="7.24509">
        <ele>825.29</ele>
        <time>2020-09-14T09:20:00.000Z</time>
      </trkpt>
      <trkpt lat="48.23046" lon="7.24514">
        <ele>826.86</ele>
        <time>2020-09-14T09:20:08.000Z</time>
      </trkpt>
      <trkpt lat="48.23055" lon="7.24521">
        <ele>829.74</ele>
        <time>2020-09-14T09:20:22.000Z</time>
      </trkpt>
      <trkpt lat="48.23064" lon="7.24527">
        <ele>831.46</ele>
        <time>2020-09-14T09:20:30.000Z</time>
      </trkpt>
      <trkpt lat="48.23073" lon="7.24529">
        <ele>832.73</ele>
        <time>2020-09-14T09:20:42.000Z</time>
      </trkpt>
      <trkpt lat="48.23076" lon="7.24543">
        <ele>836.4</ele>
        <time>2020-09-14T09:21:10.000Z</time>
      </trkpt>
      <trkpt lat="48.23081" lon="7.24554">
        <ele>836.37</ele>
        <time>2020-09-14T09:21:22.000Z</time>
      </trkpt>
      <trkpt lat="48.23094" lon="7.24543">
        <ele>838.76</ele>
        <time>2020-09-14T09:21:48.000Z</time>
      </trkpt>
      <trkpt lat="48.23101" lon="7.24533">
        <ele>840.7</ele>
        <time>2020-09-14T09:22:01.000Z</time>
      </trkpt>
      <trkpt lat="48.23109" lon="7.24526">
        <ele>842.22</ele>
        <time>2020-09-14T09:22:20.000Z</time>
      </trkpt>
      <trkpt lat="48.23118" lon="7.24523">
        <ele>842.24</ele>
        <time>2020-09-14T09:22:36.000Z</time>
      </trkpt>
      <trkpt lat="48.23109" lon="7.24524">
        <ele>837.58</ele>
        <time>2020-09-14T09:32:58.000Z</time>
      </trkpt>
      <trkpt lat="48.23102" lon="7.24533">
        <ele>836.61</ele>
        <time>2020-09-14T09:33:20.000Z</time>
      </trkpt>
      <trkpt lat="48.23094" lon="7.24541">
        <ele>837.51</ele>
        <time>2020-09-14T09:33:38.000Z</time>
      </trkpt>
      <trkpt lat="48.23097" lon="7.24554">
        <ele>835.9</ele>
        <time>2020-09-14T09:34:00.000Z</time>
      </trkpt>
      <trkpt lat="48.23103" lon="7.24566">
        <ele>836.23</ele>
        <time>2020-09-14T09:34:09.000Z</time>
      </trkpt>
      <trkpt lat="48.23111" lon="7.24574">
        <ele>836.26</ele>
        <time>2020-09-14T09:34:19.000Z</time>
      </trkpt>
      <trkpt lat="48.23119" lon="7.24581">
        <ele>834.9</ele>
        <time>2020-09-14T09:34:29.000Z</time>
      </trkpt>
      <trkpt lat="48.23128" lon="7.24586">
        <ele>834.72</ele>
        <time>2020-09-14T09:34:40.000Z</time>
      </trkpt>
      <trkpt lat="48.23137" lon="7.2459">
        <ele>834.79</ele>
        <time>2020-09-14T09:34:49.000Z</time>
      </trkpt>
      <trkpt lat="48.23141" lon="7.24602">
        <ele>835.73</ele>
        <time>2020-09-14T09:34:57.000Z</time>
      </trkpt>
      <trkpt lat="48.23146" lon="7.24614">
        <ele>835.56</ele>
        <time>2020-09-14T09:35:10.000Z</time>
      </trkpt>
      <trkpt lat="48.23151" lon="7.24627">
        <ele>835.8</ele>
        <time>2020-09-14T09:35:22.000Z</time>
      </trkpt>
      <trkpt lat="48.23152" lon="7.2464">
        <ele>836.27</ele>
        <time>2020-09-14T09:35:32.000Z</time>
      </trkpt>
      <trkpt lat="48.23158" lon="7.24652">
        <ele>836.43</ele>
        <time>2020-09-14T09:35:42.000Z</time>
      </trkpt>
      <trkpt lat="48.23165" lon="7.24662">
        <ele>838.27</ele>
        <time>2020-09-14T09:35:49.000Z</time>
      </trkpt>
      <trkpt lat="48.23174" lon="7.24669">
        <ele>838.61</ele>
        <time>2020-09-14T09:35:55.000Z</time>
      </trkpt>
      <trkpt lat="48.23172" lon="7.24683">
        <ele>839.67</ele>
        <time>2020-09-14T09:36:21.000Z</time>
      </trkpt>
      <trkpt lat="48.23178" lon="7.24693">
        <ele>841.53</ele>
        <time>2020-09-14T09:36:36.000Z</time>
      </trkpt>
      <trkpt lat="48.23184" lon="7.24704">
        <ele>845.61</ele>
        <time>2020-09-14T09:37:27.000Z</time>
      </trkpt>
      <trkpt lat="48.23189" lon="7.24725">
        <ele>845.13</ele>
        <time>2020-09-14T09:39:27.000Z</time>
      </trkpt>
      <trkpt lat="48.23179" lon="7.24725">
        <ele>846.19</ele>
        <time>2020-09-14T09:40:26.000Z</time>
      </trkpt>
      <trkpt lat="48.23176" lon="7.24738">
        <ele>847.14</ele>
        <time>2020-09-14T09:40:35.000Z</time>
      </trkpt>
      <trkpt lat="48.23175" lon="7.24752">
        <ele>848.82</ele>
        <time>2020-09-14T09:40:43.000Z</time>
      </trkpt>
      <trkpt lat="48.23175" lon="7.24766">
        <ele>850.94</ele>
        <time>2020-09-14T09:40:53.000Z</time>
      </trkpt>
      <trkpt lat="48.23179" lon="7.2478">
        <ele>853.3</ele>
        <time>2020-09-14T09:41:03.000Z</time>
      </trkpt>
      <trkpt lat="48.23179" lon="7.24795">
        <ele>854.76</ele>
        <time>2020-09-14T09:41:12.000Z</time>
      </trkpt>
      <trkpt lat="48.23179" lon="7.24809">
        <ele>855.44</ele>
        <time>2020-09-14T09:41:20.000Z</time>
      </trkpt>
      <trkpt lat="48.23181" lon="7.24824">
        <ele>855.17</ele>
        <time>2020-09-14T09:41:30.000Z</time>
      </trkpt>
      <trkpt lat="48.23182" lon="7.24838">
        <ele>854.1</ele>
        <time>2020-09-14T09:41:37.000Z</time>
      </trkpt>
      <trkpt lat="48.23178" lon="7.24851">
        <ele>853.02</ele>
        <time>2020-09-14T09:41:44.000Z</time>
      </trkpt>
      <trkpt lat="48.23177" lon="7.24867">
        <ele>852.27</ele>
        <time>2020-09-14T09:41:53.000Z</time>
      </trkpt>
      <trkpt lat="48.23172" lon="7.24878">
        <ele>851.22</ele>
        <time>2020-09-14T09:42:01.000Z</time>
      </trkpt>
      <trkpt lat="48.23171" lon="7.24892">
        <ele>855.2</ele>
        <time>2020-09-14T09:42:34.000Z</time>
      </trkpt>
      <trkpt lat="48.23168" lon="7.24907">
        <ele>856.12</ele>
        <time>2020-09-14T09:42:46.000Z</time>
      </trkpt>
      <trkpt lat="48.23165" lon="7.24921">
        <ele>854.94</ele>
        <time>2020-09-14T09:42:58.000Z</time>
      </trkpt>
      <trkpt lat="48.23164" lon="7.24935">
        <ele>855.06</ele>
        <time>2020-09-14T09:43:08.000Z</time>
      </trkpt>
      <trkpt lat="48.23156" lon="7.24941">
        <ele>854.18</ele>
        <time>2020-09-14T09:43:37.000Z</time>
      </trkpt>
      <trkpt lat="48.23153" lon="7.24955">
        <ele>853.43</ele>
        <time>2020-09-14T09:43:53.000Z</time>
      </trkpt>
      <trkpt lat="48.23152" lon="7.24969">
        <ele>853.11</ele>
        <time>2020-09-14T09:44:06.000Z</time>
      </trkpt>
      <trkpt lat="48.23145" lon="7.24985">
        <ele>852.88</ele>
        <time>2020-09-14T09:44:37.000Z</time>
      </trkpt>
      <trkpt lat="48.23142" lon="7.24998">
        <ele>853.24</ele>
        <time>2020-09-14T09:44:52.000Z</time>
      </trkpt>
      <trkpt lat="48.23136" lon="7.25009">
        <ele>853.13</ele>
        <time>2020-09-14T09:45:02.000Z</time>
      </trkpt>
      <trkpt lat="48.2313" lon="7.2502">
        <ele>853.33</ele>
        <time>2020-09-14T09:45:12.000Z</time>
      </trkpt>
      <trkpt lat="48.23128" lon="7.25034">
        <ele>853.52</ele>
        <time>2020-09-14T09:45:21.000Z</time>
      </trkpt>
      <trkpt lat="48.23124" lon="7.25047">
        <ele>853.9</ele>
        <time>2020-09-14T09:45:31.000Z</time>
      </trkpt>
      <trkpt lat="48.23121" lon="7.2506">
        <ele>853.26</ele>
        <time>2020-09-14T09:45:41.000Z</time>
      </trkpt>
      <trkpt lat="48.23117" lon="7.25074">
        <ele>853.95</ele>
        <time>2020-09-14T09:45:50.000Z</time>
      </trkpt>
      <trkpt lat="48.23115" lon="7.25088">
        <ele>854.43</ele>
        <time>2020-09-14T09:46:01.000Z</time>
      </trkpt>
      <trkpt lat="48.23112" lon="7.25101">
        <ele>854.71</ele>
        <time>2020-09-14T09:46:09.000Z</time>
      </trkpt>
      <trkpt lat="48.2311" lon="7.25115">
        <ele>856.22</ele>
        <time>2020-09-14T09:46:24.000Z</time>
      </trkpt>
      <trkpt lat="48.23109" lon="7.25129">
        <ele>856.34</ele>
        <time>2020-09-14T09:46:32.000Z</time>
      </trkpt>
      <trkpt lat="48.23112" lon="7.25143">
        <ele>856.9</ele>
        <time>2020-09-14T09:46:43.000Z</time>
      </trkpt>
      <trkpt lat="48.23115" lon="7.25157">
        <ele>858.6</ele>
        <time>2020-09-14T09:46:54.000Z</time>
      </trkpt>
      <trkpt lat="48.23115" lon="7.2517">
        <ele>859.26</ele>
        <time>2020-09-14T09:47:05.000Z</time>
      </trkpt>
      <trkpt lat="48.23114" lon="7.25184">
        <ele>858.47</ele>
        <time>2020-09-14T09:47:17.000Z</time>
      </trkpt>
      <trkpt lat="48.23111" lon="7.25199">
        <ele>857.47</ele>
        <time>2020-09-14T09:47:28.000Z</time>
      </trkpt>
      <trkpt lat="48.2311" lon="7.25213">
        <ele>856.86</ele>
        <time>2020-09-14T09:47:35.000Z</time>
      </trkpt>
      <trkpt lat="48.2311" lon="7.25227">
        <ele>856.43</ele>
        <time>2020-09-14T09:47:43.000Z</time>
      </trkpt>
      <trkpt lat="48.23112" lon="7.25242">
        <ele>855.77</ele>
        <time>2020-09-14T09:47:51.000Z</time>
      </trkpt>
      <trkpt lat="48.23113" lon="7.25256">
        <ele>854.67</ele>
        <time>2020-09-14T09:48:00.000Z</time>
      </trkpt>
      <trkpt lat="48.23111" lon="7.2527">
        <ele>853.89</ele>
        <time>2020-09-14T09:48:07.000Z</time>
      </trkpt>
      <trkpt lat="48.23109" lon="7.25283">
        <ele>853.04</ele>
        <time>2020-09-14T09:48:17.000Z</time>
      </trkpt>
      <trkpt lat="48.231" lon="7.25301">
        <ele>853.66</ele>
        <time>2020-09-14T09:48:35.000Z</time>
      </trkpt>
      <trkpt lat="48.23096" lon="7.25315">
        <ele>856.49</ele>
        <time>2020-09-14T09:48:53.000Z</time>
      </trkpt>
      <trkpt lat="48.23094" lon="7.25328">
        <ele>858.27</ele>
        <time>2020-09-14T09:49:03.000Z</time>
      </trkpt>
      <trkpt lat="48.23092" lon="7.25341">
        <ele>859.97</ele>
        <time>2020-09-14T09:49:14.000Z</time>
      </trkpt>
      <trkpt lat="48.2309" lon="7.25355">
        <ele>861.14</ele>
        <time>2020-09-14T09:49:19.000Z</time>
      </trkpt>
      <trkpt lat="48.23089" lon="7.2537">
        <ele>861.97</ele>
        <time>2020-09-14T09:49:27.000Z</time>
      </trkpt>
      <trkpt lat="48.23088" lon="7.25385">
        <ele>862.84</ele>
        <time>2020-09-14T09:49:37.000Z</time>
      </trkpt>
      <trkpt lat="48.23091" lon="7.25399">
        <ele>864.39</ele>
        <time>2020-09-14T09:49:45.000Z</time>
      </trkpt>
      <trkpt lat="48.23092" lon="7.25413">
        <ele>865.13</ele>
        <time>2020-09-14T09:49:51.000Z</time>
      </trkpt>
      <trkpt lat="48.23091" lon="7.25427">
        <ele>866.96</ele>
        <time>2020-09-14T09:49:59.000Z</time>
      </trkpt>
      <trkpt lat="48.23087" lon="7.25439">
        <ele>868.01</ele>
        <time>2020-09-14T09:50:08.000Z</time>
      </trkpt>
      <trkpt lat="48.23088" lon="7.25453">
        <ele>867.86</ele>
        <time>2020-09-14T09:50:17.000Z</time>
      </trkpt>
      <trkpt lat="48.23087" lon="7.25467">
        <ele>869.99</ele>
        <time>2020-09-14T09:50:25.000Z</time>
      </trkpt>
      <trkpt lat="48.23083" lon="7.25481">
        <ele>874.29</ele>
        <time>2020-09-14T09:50:37.000Z</time>
      </trkpt>
      <trkpt lat="48.23084" lon="7.25495">
        <ele>876.41</ele>
        <time>2020-09-14T09:50:45.000Z</time>
      </trkpt>
      <trkpt lat="48.23084" lon="7.25509">
        <ele>878.85</ele>
        <time>2020-09-14T09:50:55.000Z</time>
      </trkpt>
      <trkpt lat="48.23083" lon="7.25523">
        <ele>881.06</ele>
        <time>2020-09-14T09:51:04.000Z</time>
      </trkpt>
      <trkpt lat="48.23082" lon="7.25538">
        <ele>882.55</ele>
        <time>2020-09-14T09:51:13.000Z</time>
      </trkpt>
      <trkpt lat="48.23085" lon="7.25552">
        <ele>882.09</ele>
        <time>2020-09-14T09:51:22.000Z</time>
      </trkpt>
      <trkpt lat="48.23084" lon="7.25566">
        <ele>882.28</ele>
        <time>2020-09-14T09:51:28.000Z</time>
      </trkpt>
      <trkpt lat="48.23085" lon="7.2558">
        <ele>884.66</ele>
        <time>2020-09-14T09:51:40.000Z</time>
      </trkpt>
      <trkpt lat="48.23083" lon="7.25595">
        <ele>887.17</ele>
        <time>2020-09-14T09:51:54.000Z</time>
      </trkpt>
      <trkpt lat="48.23082" lon="7.2561">
        <ele>887.41</ele>
        <time>2020-09-14T09:52:03.000Z</time>
      </trkpt>
      <trkpt lat="48.2308" lon="7.25624">
        <ele>887.51</ele>
        <time>2020-09-14T09:52:08.000Z</time>
      </trkpt>
      <trkpt lat="48.23077" lon="7.25637">
        <ele>887.04</ele>
        <time>2020-09-14T09:52:17.000Z</time>
      </trkpt>
      <trkpt lat="48.23073" lon="7.25649">
        <ele>886.49</ele>
        <time>2020-09-14T09:52:30.000Z</time>
      </trkpt>
      <trkpt lat="48.23071" lon="7.25664">
        <ele>884.39</ele>
        <time>2020-09-14T09:52:40.000Z</time>
      </trkpt>
      <trkpt lat="48.23066" lon="7.25676">
        <ele>883.07</ele>
        <time>2020-09-14T09:52:48.000Z</time>
      </trkpt>
      <trkpt lat="48.23062" lon="7.25689">
        <ele>881.9</ele>
        <time>2020-09-14T09:52:57.000Z</time>
      </trkpt>
      <trkpt lat="48.23057" lon="7.257">
        <ele>879.93</ele>
        <time>2020-09-14T09:53:06.000Z</time>
      </trkpt>
      <trkpt lat="48.2305" lon="7.2571">
        <ele>877.9</ele>
        <time>2020-09-14T09:53:17.000Z</time>
      </trkpt>
      <trkpt lat="48.23043" lon="7.25721">
        <ele>876.93</ele>
        <time>2020-09-14T09:53:25.000Z</time>
      </trkpt>
      <trkpt lat="48.23034" lon="7.25724">
        <ele>874.4</ele>
        <time>2020-09-14T09:53:34.000Z</time>
      </trkpt>
      <trkpt lat="48.23022" lon="7.25728">
        <ele>866.18</ele>
        <time>2020-09-14T09:54:51.000Z</time>
      </trkpt>
      <trkpt lat="48.23021" lon="7.25742">
        <ele>864.69</ele>
        <time>2020-09-14T09:55:04.000Z</time>
      </trkpt>
      <trkpt lat="48.23014" lon="7.25751">
        <ele>865.01</ele>
        <time>2020-09-14T09:55:14.000Z</time>
      </trkpt>
      <trkpt lat="48.23005" lon="7.25757">
        <ele>864.54</ele>
        <time>2020-09-14T09:55:23.000Z</time>
      </trkpt>
      <trkpt lat="48.22998" lon="7.25767">
        <ele>863.4</ele>
        <time>2020-09-14T09:55:34.000Z</time>
      </trkpt>
      <trkpt lat="48.2299" lon="7.25775">
        <ele>861.89</ele>
        <time>2020-09-14T09:55:43.000Z</time>
      </trkpt>
      <trkpt lat="48.22983" lon="7.25786">
        <ele>860.3</ele>
        <time>2020-09-14T09:55:53.000Z</time>
      </trkpt>
      <trkpt lat="48.22978" lon="7.25798">
        <ele>859.34</ele>
        <time>2020-09-14T09:56:00.000Z</time>
      </trkpt>
      <trkpt lat="48.22972" lon="7.25809">
        <ele>858.62</ele>
        <time>2020-09-14T09:56:11.000Z</time>
      </trkpt>
      <trkpt lat="48.22964" lon="7.25816">
        <ele>859.87</ele>
        <time>2020-09-14T09:56:18.000Z</time>
      </trkpt>
      <trkpt lat="48.22954" lon="7.2582">
        <ele>859.11</ele>
        <time>2020-09-14T09:56:26.000Z</time>
      </trkpt>
      <trkpt lat="48.22942" lon="7.25824">
        <ele>859.07</ele>
        <time>2020-09-14T09:56:31.000Z</time>
      </trkpt>
      <trkpt lat="48.22932" lon="7.25826">
        <ele>860.61</ele>
        <time>2020-09-14T09:56:37.000Z</time>
      </trkpt>
      <trkpt lat="48.22923" lon="7.25831">
        <ele>863.6</ele>
        <time>2020-09-14T09:56:44.000Z</time>
      </trkpt>
      <trkpt lat="48.22914" lon="7.25837">
        <ele>865.41</ele>
        <time>2020-09-14T09:56:52.000Z</time>
      </trkpt>
      <trkpt lat="48.22911" lon="7.25852">
        <ele>866.46</ele>
        <time>2020-09-14T09:57:01.000Z</time>
      </trkpt>
      <trkpt lat="48.22914" lon="7.25865">
        <ele>865.5</ele>
        <time>2020-09-14T09:57:08.000Z</time>
      </trkpt>
      <trkpt lat="48.22915" lon="7.2588">
        <ele>863.06</ele>
        <time>2020-09-14T09:57:17.000Z</time>
      </trkpt>
      <trkpt lat="48.22906" lon="7.25882">
        <ele>861.12</ele>
        <time>2020-09-14T09:57:28.000Z</time>
      </trkpt>
      <trkpt lat="48.22896" lon="7.2588">
        <ele>859.64</ele>
        <time>2020-09-14T09:57:36.000Z</time>
      </trkpt>
      <trkpt lat="48.22887" lon="7.25876">
        <ele>858.16</ele>
        <time>2020-09-14T09:57:44.000Z</time>
      </trkpt>
      <trkpt lat="48.22878" lon="7.25875">
        <ele>856.47</ele>
        <time>2020-09-14T09:57:54.000Z</time>
      </trkpt>
      <trkpt lat="48.22868" lon="7.25872">
        <ele>855.69</ele>
        <time>2020-09-14T09:58:02.000Z</time>
      </trkpt>
      <trkpt lat="48.22859" lon="7.25872">
        <ele>855.36</ele>
        <time>2020-09-14T09:58:07.000Z</time>
      </trkpt>
      <trkpt lat="48.2285" lon="7.25871">
        <ele>854.21</ele>
        <time>2020-09-14T09:58:15.000Z</time>
      </trkpt>
      <trkpt lat="48.22841" lon="7.25871">
        <ele>853.36</ele>
        <time>2020-09-14T09:58:24.000Z</time>
      </trkpt>
      <trkpt lat="48.22832" lon="7.25868">
        <ele>851.69</ele>
        <time>2020-09-14T09:58:33.000Z</time>
      </trkpt>
      <trkpt lat="48.22823" lon="7.25866">
        <ele>850.89</ele>
        <time>2020-09-14T09:58:40.000Z</time>
      </trkpt>
      <trkpt lat="48.22814" lon="7.2586">
        <ele>848.8</ele>
        <time>2020-09-14T09:58:49.000Z</time>
      </trkpt>
      <trkpt lat="48.22804" lon="7.25858">
        <ele>847.14</ele>
        <time>2020-09-14T09:59:00.000Z</time>
      </trkpt>
      <trkpt lat="48.22795" lon="7.2586">
        <ele>846.64</ele>
        <time>2020-09-14T09:59:07.000Z</time>
      </trkpt>
      <trkpt lat="48.22786" lon="7.25863">
        <ele>846.43</ele>
        <time>2020-09-14T09:59:14.000Z</time>
      </trkpt>
      <trkpt lat="48.22776" lon="7.25863">
        <ele>845.57</ele>
        <time>2020-09-14T09:59:21.000Z</time>
      </trkpt>
      <trkpt lat="48.22767" lon="7.25864">
        <ele>845.09</ele>
        <time>2020-09-14T09:59:29.000Z</time>
      </trkpt>
      <trkpt lat="48.22757" lon="7.2586">
        <ele>844.36</ele>
        <time>2020-09-14T09:59:40.000Z</time>
      </trkpt>
      <trkpt lat="48.22748" lon="7.25857">
        <ele>843.76</ele>
        <time>2020-09-14T09:59:50.000Z</time>
      </trkpt>
      <trkpt lat="48.22738" lon="7.25855">
        <ele>843.64</ele>
        <time>2020-09-14T09:59:58.000Z</time>
      </trkpt>
      <trkpt lat="48.22728" lon="7.25857">
        <ele>843.73</ele>
        <time>2020-09-14T10:00:05.000Z</time>
      </trkpt>
      <trkpt lat="48.22718" lon="7.2586">
        <ele>844.08</ele>
        <time>2020-09-14T10:00:13.000Z</time>
      </trkpt>
      <trkpt lat="48.22709" lon="7.25858">
        <ele>845.42</ele>
        <time>2020-09-14T10:00:25.000Z</time>
      </trkpt>
      <trkpt lat="48.22699" lon="7.25853">
        <ele>847.88</ele>
        <time>2020-09-14T10:00:45.000Z</time>
      </trkpt>
      <trkpt lat="48.22689" lon="7.25853">
        <ele>850.43</ele>
        <time>2020-09-14T10:00:55.000Z</time>
      </trkpt>
      <trkpt lat="48.2268" lon="7.25856">
        <ele>853.5</ele>
        <time>2020-09-14T10:01:04.000Z</time>
      </trkpt>
      <trkpt lat="48.2267" lon="7.25855">
        <ele>856.52</ele>
        <time>2020-09-14T10:01:13.000Z</time>
      </trkpt>
      <trkpt lat="48.22661" lon="7.25856">
        <ele>859.48</ele>
        <time>2020-09-14T10:01:23.000Z</time>
      </trkpt>
      <trkpt lat="48.22651" lon="7.25862">
        <ele>861.74</ele>
        <time>2020-09-14T10:01:34.000Z</time>
      </trkpt>
      <trkpt lat="48.22642" lon="7.25865">
        <ele>862.53</ele>
        <time>2020-09-14T10:01:40.000Z</time>
      </trkpt>
      <trkpt lat="48.22632" lon="7.2587">
        <ele>862.9</ele>
        <time>2020-09-14T10:01:51.000Z</time>
      </trkpt>
      <trkpt lat="48.22623" lon="7.25874">
        <ele>863.5</ele>
        <time>2020-09-14T10:02:00.000Z</time>
      </trkpt>
      <trkpt lat="48.22614" lon="7.25875">
        <ele>863.9</ele>
        <time>2020-09-14T10:02:09.000Z</time>
      </trkpt>
      <trkpt lat="48.22605" lon="7.25879">
        <ele>863.62</ele>
        <time>2020-09-14T10:02:19.000Z</time>
      </trkpt>
      <trkpt lat="48.22595" lon="7.25882">
        <ele>860.6</ele>
        <time>2020-09-14T10:02:30.000Z</time>
      </trkpt>
      <trkpt lat="48.22586" lon="7.25883">
        <ele>859.95</ele>
        <time>2020-09-14T10:02:38.000Z</time>
      </trkpt>
      <trkpt lat="48.22577" lon="7.25886">
        <ele>858.81</ele>
        <time>2020-09-14T10:02:46.000Z</time>
      </trkpt>
      <trkpt lat="48.22568" lon="7.25889">
        <ele>858.23</ele>
        <time>2020-09-14T10:02:57.000Z</time>
      </trkpt>
      <trkpt lat="48.22558" lon="7.25888">
        <ele>856.03</ele>
        <time>2020-09-14T10:03:26.000Z</time>
      </trkpt>
      <trkpt lat="48.22552" lon="7.25898">
        <ele>855.53</ele>
        <time>2020-09-14T10:03:38.000Z</time>
      </trkpt>
      <trkpt lat="48.22543" lon="7.25904">
        <ele>854.57</ele>
        <time>2020-09-14T10:03:46.000Z</time>
      </trkpt>
      <trkpt lat="48.22547" lon="7.25919">
        <ele>847.03</ele>
        <time>2020-09-14T10:06:54.000Z</time>
      </trkpt>
      <trkpt lat="48.22554" lon="7.25909">
        <ele>848.75</ele>
        <time>2020-09-14T10:07:04.000Z</time>
      </trkpt>
      <trkpt lat="48.22563" lon="7.25909">
        <ele>850.76</ele>
        <time>2020-09-14T10:07:16.000Z</time>
      </trkpt>
      <trkpt lat="48.22572" lon="7.2591">
        <ele>852.32</ele>
        <time>2020-09-14T10:07:29.000Z</time>
      </trkpt>
      <trkpt lat="48.22581" lon="7.25906">
        <ele>853.89</ele>
        <time>2020-09-14T10:07:44.000Z</time>
      </trkpt>
      <trkpt lat="48.22589" lon="7.25899">
        <ele>854.79</ele>
        <time>2020-09-14T10:07:53.000Z</time>
      </trkpt>
      <trkpt lat="48.22598" lon="7.25895">
        <ele>855.69</ele>
        <time>2020-09-14T10:08:04.000Z</time>
      </trkpt>
      <trkpt lat="48.22606" lon="7.25887">
        <ele>856.6</ele>
        <time>2020-09-14T10:08:15.000Z</time>
      </trkpt>
      <trkpt lat="48.22613" lon="7.25878">
        <ele>858.46</ele>
        <time>2020-09-14T10:08:25.000Z</time>
      </trkpt>
      <trkpt lat="48.22622" lon="7.25885">
        <ele>860.1</ele>
        <time>2020-09-14T10:08:36.000Z</time>
      </trkpt>
      <trkpt lat="48.22631" lon="7.25889">
        <ele>860.43</ele>
        <time>2020-09-14T10:08:44.000Z</time>
      </trkpt>
      <trkpt lat="48.22639" lon="7.25884">
        <ele>860.45</ele>
        <time>2020-09-14T10:08:53.000Z</time>
      </trkpt>
      <trkpt lat="48.22646" lon="7.25875">
        <ele>860.43</ele>
        <time>2020-09-14T10:09:01.000Z</time>
      </trkpt>
      <trkpt lat="48.22655" lon="7.2587">
        <ele>859.76</ele>
        <time>2020-09-14T10:09:08.000Z</time>
      </trkpt>
      <trkpt lat="48.22664" lon="7.2587">
        <ele>858.79</ele>
        <time>2020-09-14T10:09:16.000Z</time>
      </trkpt>
      <trkpt lat="48.22673" lon="7.25871">
        <ele>857.94</ele>
        <time>2020-09-14T10:09:25.000Z</time>
      </trkpt>
      <trkpt lat="48.22682" lon="7.25864">
        <ele>858.5</ele>
        <time>2020-09-14T10:09:33.000Z</time>
      </trkpt>
      <trkpt lat="48.22691" lon="7.2586">
        <ele>859.4</ele>
        <time>2020-09-14T10:09:43.000Z</time>
      </trkpt>
      <trkpt lat="48.22701" lon="7.25862">
        <ele>860.49</ele>
        <time>2020-09-14T10:09:50.000Z</time>
      </trkpt>
      <trkpt lat="48.22709" lon="7.25867">
        <ele>860.88</ele>
        <time>2020-09-14T10:09:56.000Z</time>
      </trkpt>
      <trkpt lat="48.22718" lon="7.25871">
        <ele>861.2</ele>
        <time>2020-09-14T10:10:05.000Z</time>
      </trkpt>
      <trkpt lat="48.22728" lon="7.25872">
        <ele>862.1</ele>
        <time>2020-09-14T10:10:14.000Z</time>
      </trkpt>
      <trkpt lat="48.22738" lon="7.25873">
        <ele>862.9</ele>
        <time>2020-09-14T10:10:23.000Z</time>
      </trkpt>
      <trkpt lat="48.22748" lon="7.25875">
        <ele>863.35</ele>
        <time>2020-09-14T10:10:30.000Z</time>
      </trkpt>
      <trkpt lat="48.22757" lon="7.25877">
        <ele>863.89</ele>
        <time>2020-09-14T10:10:38.000Z</time>
      </trkpt>
      <trkpt lat="48.22766" lon="7.25881">
        <ele>864.65</ele>
        <time>2020-09-14T10:10:47.000Z</time>
      </trkpt>
      <trkpt lat="48.22775" lon="7.25882">
        <ele>863.41</ele>
        <time>2020-09-14T10:10:56.000Z</time>
      </trkpt>
      <trkpt lat="48.22785" lon="7.25881">
        <ele>863.21</ele>
        <time>2020-09-14T10:11:03.000Z</time>
      </trkpt>
      <trkpt lat="48.22795" lon="7.25882">
        <ele>863.6</ele>
        <time>2020-09-14T10:11:09.000Z</time>
      </trkpt>
      <trkpt lat="48.22804" lon="7.25883">
        <ele>864.02</ele>
        <time>2020-09-14T10:11:16.000Z</time>
      </trkpt>
      <trkpt lat="48.22812" lon="7.25889">
        <ele>864.1</ele>
        <time>2020-09-14T10:11:26.000Z</time>
      </trkpt>
      <trkpt lat="48.22821" lon="7.25893">
        <ele>864.35</ele>
        <time>2020-09-14T10:11:35.000Z</time>
      </trkpt>
      <trkpt lat="48.2283" lon="7.25897">
        <ele>864.31</ele>
        <time>2020-09-14T10:11:43.000Z</time>
      </trkpt>
      <trkpt lat="48.2284" lon="7.25897">
        <ele>864.53</ele>
        <time>2020-09-14T10:11:51.000Z</time>
      </trkpt>
      <trkpt lat="48.22849" lon="7.25895">
        <ele>865.1</ele>
        <time>2020-09-14T10:12:00.000Z</time>
      </trkpt>
      <trkpt lat="48.22859" lon="7.25895">
        <ele>865.46</ele>
        <time>2020-09-14T10:12:08.000Z</time>
      </trkpt>
      <trkpt lat="48.22869" lon="7.25894">
        <ele>866.03</ele>
        <time>2020-09-14T10:12:16.000Z</time>
      </trkpt>
      <trkpt lat="48.22878" lon="7.25895">
        <ele>866.72</ele>
        <time>2020-09-14T10:12:24.000Z</time>
      </trkpt>
      <trkpt lat="48.22887" lon="7.25898">
        <ele>867.4</ele>
        <time>2020-09-14T10:12:31.000Z</time>
      </trkpt>
      <trkpt lat="48.22897" lon="7.25899">
        <ele>867.8</ele>
        <time>2020-09-14T10:12:39.000Z</time>
      </trkpt>
      <trkpt lat="48.22907" lon="7.259">
        <ele>867.93</ele>
        <time>2020-09-14T10:12:47.000Z</time>
      </trkpt>
      <trkpt lat="48.22915" lon="7.25892">
        <ele>868.34</ele>
        <time>2020-09-14T10:12:57.000Z</time>
      </trkpt>
      <trkpt lat="48.22919" lon="7.25878">
        <ele>868.52</ele>
        <time>2020-09-14T10:13:05.000Z</time>
      </trkpt>
      <trkpt lat="48.22919" lon="7.25863">
        <ele>869.1</ele>
        <time>2020-09-14T10:13:15.000Z</time>
      </trkpt>
      <trkpt lat="48.22924" lon="7.25851">
        <ele>868.21</ele>
        <time>2020-09-14T10:13:25.000Z</time>
      </trkpt>
      <trkpt lat="48.22932" lon="7.25844">
        <ele>869.53</ele>
        <time>2020-09-14T10:13:31.000Z</time>
      </trkpt>
      <trkpt lat="48.22942" lon="7.25841">
        <ele>873.04</ele>
        <time>2020-09-14T10:13:38.000Z</time>
      </trkpt>
      <trkpt lat="48.22951" lon="7.25837">
        <ele>876.24</ele>
        <time>2020-09-14T10:13:47.000Z</time>
      </trkpt>
      <trkpt lat="48.22961" lon="7.25833">
        <ele>877.79</ele>
        <time>2020-09-14T10:13:57.000Z</time>
      </trkpt>
      <trkpt lat="48.22969" lon="7.25827">
        <ele>880.04</ele>
        <time>2020-09-14T10:14:04.000Z</time>
      </trkpt>
      <trkpt lat="48.22977" lon="7.2582">
        <ele>881.96</ele>
        <time>2020-09-14T10:14:12.000Z</time>
      </trkpt>
      <trkpt lat="48.22984" lon="7.25812">
        <ele>883.29</ele>
        <time>2020-09-14T10:14:19.000Z</time>
      </trkpt>
      <trkpt lat="48.22992" lon="7.25805">
        <ele>884.84</ele>
        <time>2020-09-14T10:14:27.000Z</time>
      </trkpt>
      <trkpt lat="48.22999" lon="7.25794">
        <ele>886.09</ele>
        <time>2020-09-14T10:14:35.000Z</time>
      </trkpt>
      <trkpt lat="48.23005" lon="7.25785">
        <ele>886.62</ele>
        <time>2020-09-14T10:14:43.000Z</time>
      </trkpt>
      <trkpt lat="48.23012" lon="7.25775">
        <ele>887.3</ele>
        <time>2020-09-14T10:14:50.000Z</time>
      </trkpt>
      <trkpt lat="48.23016" lon="7.25762">
        <ele>887.43</ele>
        <time>2020-09-14T10:15:01.000Z</time>
      </trkpt>
      <trkpt lat="48.23024" lon="7.25755">
        <ele>885.29</ele>
        <time>2020-09-14T10:15:13.000Z</time>
      </trkpt>
      <trkpt lat="48.23032" lon="7.25746">
        <ele>883.72</ele>
        <time>2020-09-14T10:15:20.000Z</time>
      </trkpt>
      <trkpt lat="48.2304" lon="7.25739">
        <ele>882.67</ele>
        <time>2020-09-14T10:15:28.000Z</time>
      </trkpt>
      <trkpt lat="48.23047" lon="7.2573">
        <ele>881.23</ele>
        <time>2020-09-14T10:15:35.000Z</time>
      </trkpt>
      <trkpt lat="48.23055" lon="7.25725">
        <ele>878.71</ele>
        <time>2020-09-14T10:15:45.000Z</time>
      </trkpt>
      <trkpt lat="48.23065" lon="7.25726">
        <ele>878.3</ele>
        <time>2020-09-14T10:16:00.000Z</time>
      </trkpt>
      <trkpt lat="48.23071" lon="7.25737">
        <ele>880.69</ele>
        <time>2020-09-14T10:16:13.000Z</time>
      </trkpt>
      <trkpt lat="48.2308" lon="7.25744">
        <ele>882.17</ele>
        <time>2020-09-14T10:16:22.000Z</time>
      </trkpt>
      <trkpt lat="48.23088" lon="7.25751">
        <ele>883.32</ele>
        <time>2020-09-14T10:16:32.000Z</time>
      </trkpt>
      <trkpt lat="48.23096" lon="7.25759">
        <ele>884.1</ele>
        <time>2020-09-14T10:16:41.000Z</time>
      </trkpt>
      <trkpt lat="48.23101" lon="7.25772">
        <ele>884.82</ele>
        <time>2020-09-14T10:16:50.000Z</time>
      </trkpt>
      <trkpt lat="48.23105" lon="7.25785">
        <ele>886.46</ele>
        <time>2020-09-14T10:16:59.000Z</time>
      </trkpt>
      <trkpt lat="48.2311" lon="7.25798">
        <ele>888.17</ele>
        <time>2020-09-14T10:17:08.000Z</time>
      </trkpt>
      <trkpt lat="48.23116" lon="7.2581">
        <ele>890.17</ele>
        <time>2020-09-14T10:17:18.000Z</time>
      </trkpt>
      <trkpt lat="48.2312" lon="7.25822">
        <ele>891.19</ele>
        <time>2020-09-14T10:17:28.000Z</time>
      </trkpt>
      <trkpt lat="48.23128" lon="7.25831">
        <ele>892.29</ele>
        <time>2020-09-14T10:17:38.000Z</time>
      </trkpt>
      <trkpt lat="48.23134" lon="7.25843">
        <ele>892.33</ele>
        <time>2020-09-14T10:17:48.000Z</time>
      </trkpt>
      <trkpt lat="48.2314" lon="7.25855">
        <ele>892.69</ele>
        <time>2020-09-14T10:17:57.000Z</time>
      </trkpt>
      <trkpt lat="48.23142" lon="7.25869">
        <ele>893.23</ele>
        <time>2020-09-14T10:18:05.000Z</time>
      </trkpt>
      <trkpt lat="48.23145" lon="7.25883">
        <ele>892.94</ele>
        <time>2020-09-14T10:18:15.000Z</time>
      </trkpt>
      <trkpt lat="48.23141" lon="7.25895">
        <ele>893.9</ele>
        <time>2020-09-14T10:18:25.000Z</time>
      </trkpt>
      <trkpt lat="48.2314" lon="7.2591">
        <ele>894.51</ele>
        <time>2020-09-14T10:18:33.000Z</time>
      </trkpt>
      <trkpt lat="48.23141" lon="7.25924">
        <ele>894.57</ele>
        <time>2020-09-14T10:18:41.000Z</time>
      </trkpt>
      <trkpt lat="48.23143" lon="7.25939">
        <ele>893.18</ele>
        <time>2020-09-14T10:18:50.000Z</time>
      </trkpt>
      <trkpt lat="48.23146" lon="7.25953">
        <ele>892.64</ele>
        <time>2020-09-14T10:18:56.000Z</time>
      </trkpt>
      <trkpt lat="48.23151" lon="7.25965">
        <ele>892.17</ele>
        <time>2020-09-14T10:19:05.000Z</time>
      </trkpt>
      <trkpt lat="48.23157" lon="7.25978">
        <ele>892.7</ele>
        <time>2020-09-14T10:19:15.000Z</time>
      </trkpt>
      <trkpt lat="48.23165" lon="7.25986">
        <ele>891.68</ele>
        <time>2020-09-14T10:19:26.000Z</time>
      </trkpt>
      <trkpt lat="48.23175" lon="7.2599">
        <ele>891.07</ele>
        <time>2020-09-14T10:19:34.000Z</time>
      </trkpt>
      <trkpt lat="48.2318" lon="7.26002">
        <ele>890</ele>
        <time>2020-09-14T10:19:41.000Z</time>
      </trkpt>
      <trkpt lat="48.23187" lon="7.26013">
        <ele>888.89</ele>
        <time>2020-09-14T10:19:48.000Z</time>
      </trkpt>
      <trkpt lat="48.23195" lon="7.26019">
        <ele>886.88</ele>
        <time>2020-09-14T10:19:57.000Z</time>
      </trkpt>
      <trkpt lat="48.23205" lon="7.26021">
        <ele>885.47</ele>
        <time>2020-09-14T10:20:07.000Z</time>
      </trkpt>
      <trkpt lat="48.23214" lon="7.26025">
        <ele>884.77</ele>
        <time>2020-09-14T10:20:17.000Z</time>
      </trkpt>
      <trkpt lat="48.23224" lon="7.26025">
        <ele>884.36</ele>
        <time>2020-09-14T10:20:24.000Z</time>
      </trkpt>
      <trkpt lat="48.23233" lon="7.26027">
        <ele>883.64</ele>
        <time>2020-09-14T10:20:32.000Z</time>
      </trkpt>
      <trkpt lat="48.23243" lon="7.26029">
        <ele>883.63</ele>
        <time>2020-09-14T10:20:42.000Z</time>
      </trkpt>
      <trkpt lat="48.23253" lon="7.26033">
        <ele>883.62</ele>
        <time>2020-09-14T10:20:50.000Z</time>
      </trkpt>
      <trkpt lat="48.23263" lon="7.26034">
        <ele>882.97</ele>
        <time>2020-09-14T10:21:02.000Z</time>
      </trkpt>
      <trkpt lat="48.23272" lon="7.26038">
        <ele>883.35</ele>
        <time>2020-09-14T10:21:23.000Z</time>
      </trkpt>
      <trkpt lat="48.23281" lon="7.26041">
        <ele>883.43</ele>
        <time>2020-09-14T10:21:33.000Z</time>
      </trkpt>
      <trkpt lat="48.23291" lon="7.26044">
        <ele>883.43</ele>
        <time>2020-09-14T10:21:41.000Z</time>
      </trkpt>
      <trkpt lat="48.233" lon="7.26046">
        <ele>883.69</ele>
        <time>2020-09-14T10:21:48.000Z</time>
      </trkpt>
      <trkpt lat="48.23309" lon="7.26055">
        <ele>883.47</ele>
        <time>2020-09-14T10:21:55.000Z</time>
      </trkpt>
      <trkpt lat="48.23317" lon="7.26062">
        <ele>884.13</ele>
        <time>2020-09-14T10:22:07.000Z</time>
      </trkpt>
      <trkpt lat="48.23326" lon="7.26068">
        <ele>884.9</ele>
        <time>2020-09-14T10:22:16.000Z</time>
      </trkpt>
      <trkpt lat="48.23335" lon="7.26069">
        <ele>885.08</ele>
        <time>2020-09-14T10:22:23.000Z</time>
      </trkpt>
      <trkpt lat="48.23345" lon="7.26074">
        <ele>885.5</ele>
        <time>2020-09-14T10:22:29.000Z</time>
      </trkpt>
      <trkpt lat="48.23354" lon="7.2608">
        <ele>886.23</ele>
        <time>2020-09-14T10:22:36.000Z</time>
      </trkpt>
      <trkpt lat="48.23364" lon="7.26084">
        <ele>887.12</ele>
        <time>2020-09-14T10:22:45.000Z</time>
      </trkpt>
      <trkpt lat="48.23372" lon="7.26094">
        <ele>891.29</ele>
        <time>2020-09-14T10:23:28.000Z</time>
      </trkpt>
      <trkpt lat="48.23381" lon="7.261">
        <ele>892.3</ele>
        <time>2020-09-14T10:23:38.000Z</time>
      </trkpt>
      <trkpt lat="48.2339" lon="7.26105">
        <ele>892.88</ele>
        <time>2020-09-14T10:23:47.000Z</time>
      </trkpt>
      <trkpt lat="48.23399" lon="7.26112">
        <ele>893.5</ele>
        <time>2020-09-14T10:23:55.000Z</time>
      </trkpt>
      <trkpt lat="48.23408" lon="7.26117">
        <ele>895.46</ele>
        <time>2020-09-14T10:24:35.000Z</time>
      </trkpt>
      <trkpt lat="48.23405" lon="7.26134">
        <ele>898.79</ele>
        <time>2020-09-14T10:25:14.000Z</time>
      </trkpt>
      <trkpt lat="48.23418" lon="7.26146">
        <ele>901.76</ele>
        <time>2020-09-14T10:26:06.000Z</time>
      </trkpt>
      <trkpt lat="48.23426" lon="7.26152">
        <ele>901.27</ele>
        <time>2020-09-14T10:26:32.000Z</time>
      </trkpt>
      <trkpt lat="48.23435" lon="7.26156">
        <ele>900.44</ele>
        <time>2020-09-14T10:26:43.000Z</time>
      </trkpt>
      <trkpt lat="48.23443" lon="7.26161">
        <ele>899.96</ele>
        <time>2020-09-14T10:26:52.000Z</time>
      </trkpt>
      <trkpt lat="48.23452" lon="7.2617">
        <ele>899.8</ele>
        <time>2020-09-14T10:28:10.000Z</time>
      </trkpt>
      <trkpt lat="48.23458" lon="7.26179">
        <ele>906.03</ele>
        <time>2020-09-14T10:29:44.000Z</time>
      </trkpt>
      <trkpt lat="48.23466" lon="7.26186">
        <ele>906.8</ele>
        <time>2020-09-14T10:29:57.000Z</time>
      </trkpt>
      <trkpt lat="48.23475" lon="7.26194">
        <ele>908.68</ele>
        <time>2020-09-14T10:30:11.000Z</time>
      </trkpt>
      <trkpt lat="48.23488" lon="7.26198">
        <ele>906.66</ele>
        <time>2020-09-14T10:31:02.000Z</time>
      </trkpt>
      <trkpt lat="48.23496" lon="7.26202">
        <ele>906.91</ele>
        <time>2020-09-14T10:31:16.000Z</time>
      </trkpt>
      <trkpt lat="48.23507" lon="7.26203">
        <ele>907.31</ele>
        <time>2020-09-14T10:31:42.000Z</time>
      </trkpt>
      <trkpt lat="48.23501" lon="7.26192">
        <ele>910.8</ele>
        <time>2020-09-14T10:32:37.000Z</time>
      </trkpt>
      <trkpt lat="48.23503" lon="7.26206">
        <ele>913.89</ele>
        <time>2020-09-14T10:34:56.000Z</time>
      </trkpt>
      <trkpt lat="48.23511" lon="7.26212">
        <ele>907.76</ele>
        <time>2020-09-14T10:35:47.000Z</time>
      </trkpt>
      <trkpt lat="48.23519" lon="7.26221">
        <ele>907.19</ele>
        <time>2020-09-14T10:36:03.000Z</time>
      </trkpt>
      <trkpt lat="48.23528" lon="7.26226">
        <ele>907.33</ele>
        <time>2020-09-14T10:36:14.000Z</time>
      </trkpt>
      <trkpt lat="48.23535" lon="7.26235">
        <ele>908.26</ele>
        <time>2020-09-14T10:36:26.000Z</time>
      </trkpt>
      <trkpt lat="48.23543" lon="7.26244">
        <ele>908.6</ele>
        <time>2020-09-14T10:36:38.000Z</time>
      </trkpt>
      <trkpt lat="48.23551" lon="7.2625">
        <ele>909.51</ele>
        <time>2020-09-14T10:36:51.000Z</time>
      </trkpt>
      <trkpt lat="48.23559" lon="7.26258">
        <ele>910.85</ele>
        <time>2020-09-14T10:37:02.000Z</time>
      </trkpt>
      <trkpt lat="48.23567" lon="7.26263">
        <ele>912.6</ele>
        <time>2020-09-14T10:37:15.000Z</time>
      </trkpt>
      <trkpt lat="48.23575" lon="7.26256">
        <ele>916.21</ele>
        <time>2020-09-14T10:37:31.000Z</time>
      </trkpt>
      <trkpt lat="48.23579" lon="7.26233">
        <ele>920.74</ele>
        <time>2020-09-14T10:38:01.000Z</time>
      </trkpt>
      <trkpt lat="48.23574" lon="7.26244">
        <ele>921.29</ele>
        <time>2020-09-14T10:38:27.000Z</time>
      </trkpt>
      <trkpt lat="48.23576" lon="7.26258">
        <ele>925.78</ele>
        <time>2020-09-14T10:38:41.000Z</time>
      </trkpt>
      <trkpt lat="48.23571" lon="7.26269">
        <ele>923.47</ele>
        <time>2020-09-14T10:39:22.000Z</time>
      </trkpt>
      <trkpt lat="48.23568" lon="7.26282">
        <ele>922.2</ele>
        <time>2020-09-14T10:39:32.000Z</time>
      </trkpt>
      <trkpt lat="48.23568" lon="7.26296">
        <ele>921.17</ele>
        <time>2020-09-14T10:39:45.000Z</time>
      </trkpt>
      <trkpt lat="48.23572" lon="7.26309">
        <ele>920.35</ele>
        <time>2020-09-14T10:39:54.000Z</time>
      </trkpt>
      <trkpt lat="48.23573" lon="7.26323">
        <ele>919.96</ele>
        <time>2020-09-14T10:40:03.000Z</time>
      </trkpt>
      <trkpt lat="48.23577" lon="7.26336">
        <ele>919.84</ele>
        <time>2020-09-14T10:40:12.000Z</time>
      </trkpt>
      <trkpt lat="48.23586" lon="7.26341">
        <ele>920.62</ele>
        <time>2020-09-14T10:40:22.000Z</time>
      </trkpt>
      <trkpt lat="48.23595" lon="7.26336">
        <ele>922.96</ele>
        <time>2020-09-14T10:40:43.000Z</time>
      </trkpt>
      <trkpt lat="48.23595" lon="7.2635">
        <ele>924.81</ele>
        <time>2020-09-14T10:41:17.000Z</time>
      </trkpt>
      <trkpt lat="48.23597" lon="7.26337">
        <ele>926.8</ele>
        <time>2020-09-14T10:42:11.000Z</time>
      </trkpt>
      <trkpt lat="48.23588" lon="7.26336">
        <ele>929.2</ele>
        <time>2020-09-14T10:42:36.000Z</time>
      </trkpt>
      <trkpt lat="48.23579" lon="7.26334">
        <ele>930.21</ele>
        <time>2020-09-14T10:43:05.000Z</time>
      </trkpt>
      <trkpt lat="48.23577" lon="7.26348">
        <ele>929.66</ele>
        <time>2020-09-14T10:43:13.000Z</time>
      </trkpt>
      <trkpt lat="48.2358" lon="7.26363">
        <ele>928.57</ele>
        <time>2020-09-14T10:43:21.000Z</time>
      </trkpt>
      <trkpt lat="48.23584" lon="7.26375">
        <ele>927.2</ele>
        <time>2020-09-14T10:43:29.000Z</time>
      </trkpt>
      <trkpt lat="48.23589" lon="7.26388">
        <ele>926.1</ele>
        <time>2020-09-14T10:43:38.000Z</time>
      </trkpt>
      <trkpt lat="48.23594" lon="7.26401">
        <ele>924.69</ele>
        <time>2020-09-14T10:43:45.000Z</time>
      </trkpt>
      <trkpt lat="48.23602" lon="7.26409">
        <ele>924.11</ele>
        <time>2020-09-14T10:43:54.000Z</time>
      </trkpt>
      <trkpt lat="48.2361" lon="7.26415">
        <ele>924.31</ele>
        <time>2020-09-14T10:44:29.000Z</time>
      </trkpt>
      <trkpt lat="48.23616" lon="7.26429">
        <ele>922.24</ele>
        <time>2020-09-14T10:45:19.000Z</time>
      </trkpt>
      <trkpt lat="48.23616" lon="7.26443">
        <ele>918.65</ele>
        <time>2020-09-14T10:45:29.000Z</time>
      </trkpt>
      <trkpt lat="48.23621" lon="7.26456">
        <ele>916.36</ele>
        <time>2020-09-14T10:45:40.000Z</time>
      </trkpt>
      <trkpt lat="48.23627" lon="7.26466">
        <ele>913.71</ele>
        <time>2020-09-14T10:45:51.000Z</time>
      </trkpt>
      <trkpt lat="48.23632" lon="7.26477">
        <ele>912.47</ele>
        <time>2020-09-14T10:45:59.000Z</time>
      </trkpt>
      <trkpt lat="48.23639" lon="7.26489">
        <ele>910.21</ele>
        <time>2020-09-14T10:46:10.000Z</time>
      </trkpt>
      <trkpt lat="48.23643" lon="7.26501">
        <ele>908.33</ele>
        <time>2020-09-14T10:46:18.000Z</time>
      </trkpt>
      <trkpt lat="48.23646" lon="7.26514">
        <ele>908.67</ele>
        <time>2020-09-14T10:47:23.000Z</time>
      </trkpt>
      <trkpt lat="48.23653" lon="7.26523">
        <ele>908.83</ele>
        <time>2020-09-14T10:47:40.000Z</time>
      </trkpt>
      <trkpt lat="48.23658" lon="7.26535">
        <ele>908.81</ele>
        <time>2020-09-14T10:47:59.000Z</time>
      </trkpt>
      <trkpt lat="48.23663" lon="7.26547">
        <ele>908.75</ele>
        <time>2020-09-14T10:48:12.000Z</time>
      </trkpt>
      <trkpt lat="48.23668" lon="7.26559">
        <ele>908.83</ele>
        <time>2020-09-14T10:48:22.000Z</time>
      </trkpt>
      <trkpt lat="48.23667" lon="7.26573">
        <ele>908.26</ele>
        <time>2020-09-14T10:48:34.000Z</time>
      </trkpt>
      <trkpt lat="48.23666" lon="7.26587">
        <ele>907.57</ele>
        <time>2020-09-14T10:48:43.000Z</time>
      </trkpt>
      <trkpt lat="48.2367" lon="7.266">
        <ele>906.4</ele>
        <time>2020-09-14T10:48:51.000Z</time>
      </trkpt>
      <trkpt lat="48.23672" lon="7.26615">
        <ele>904.8</ele>
        <time>2020-09-14T10:49:02.000Z</time>
      </trkpt>
      <trkpt lat="48.23673" lon="7.26629">
        <ele>902.44</ele>
        <time>2020-09-14T10:49:10.000Z</time>
      </trkpt>
      <trkpt lat="48.23671" lon="7.26643">
        <ele>899.58</ele>
        <time>2020-09-14T10:49:19.000Z</time>
      </trkpt>
      <trkpt lat="48.23667" lon="7.26656">
        <ele>897.61</ele>
        <time>2020-09-14T10:49:27.000Z</time>
      </trkpt>
      <trkpt lat="48.23662" lon="7.26667">
        <ele>896.75</ele>
        <time>2020-09-14T10:49:38.000Z</time>
      </trkpt>
      <trkpt lat="48.2367" lon="7.26672">
        <ele>900.8</ele>
        <time>2020-09-14T10:51:26.000Z</time>
      </trkpt>
      <trkpt lat="48.23671" lon="7.26687">
        <ele>899.57</ele>
        <time>2020-09-14T10:51:37.000Z</time>
      </trkpt>
      <trkpt lat="48.23678" lon="7.26708">
        <ele>898.86</ele>
        <time>2020-09-14T10:52:07.000Z</time>
      </trkpt>
      <trkpt lat="48.23672" lon="7.26721">
        <ele>901.18</ele>
        <time>2020-09-14T10:52:44.000Z</time>
      </trkpt>
      <trkpt lat="48.23667" lon="7.26733">
        <ele>900.77</ele>
        <time>2020-09-14T10:52:55.000Z</time>
      </trkpt>
      <trkpt lat="48.2366" lon="7.26743">
        <ele>899.88</ele>
        <time>2020-09-14T10:53:03.000Z</time>
      </trkpt>
      <trkpt lat="48.23655" lon="7.26755">
        <ele>899.64</ele>
        <time>2020-09-14T10:53:13.000Z</time>
      </trkpt>
      <trkpt lat="48.23653" lon="7.26769">
        <ele>899.42</ele>
        <time>2020-09-14T10:53:21.000Z</time>
      </trkpt>
      <trkpt lat="48.2365" lon="7.26782">
        <ele>899.27</ele>
        <time>2020-09-14T10:53:27.000Z</time>
      </trkpt>
      <trkpt lat="48.23647" lon="7.26795">
        <ele>898.95</ele>
        <time>2020-09-14T10:53:32.000Z</time>
      </trkpt>
      <trkpt lat="48.23643" lon="7.26809">
        <ele>899.31</ele>
        <time>2020-09-14T10:53:40.000Z</time>
      </trkpt>
      <trkpt lat="48.23638" lon="7.26819">
        <ele>900.01</ele>
        <time>2020-09-14T10:53:48.000Z</time>
      </trkpt>
      <trkpt lat="48.23631" lon="7.26829">
        <ele>900.15</ele>
        <time>2020-09-14T10:53:57.000Z</time>
      </trkpt>
      <trkpt lat="48.23621" lon="7.26834">
        <ele>899.94</ele>
        <time>2020-09-14T10:54:06.000Z</time>
      </trkpt>
      <trkpt lat="48.23612" lon="7.26836">
        <ele>900.33</ele>
        <time>2020-09-14T10:54:15.000Z</time>
      </trkpt>
      <trkpt lat="48.23604" lon="7.26847">
        <ele>899.87</ele>
        <time>2020-09-14T10:54:23.000Z</time>
      </trkpt>
      <trkpt lat="48.23602" lon="7.26861">
        <ele>900.59</ele>
        <time>2020-09-14T10:54:45.000Z</time>
      </trkpt>
      <trkpt lat="48.23605" lon="7.26874">
        <ele>901.34</ele>
        <time>2020-09-14T10:54:56.000Z</time>
      </trkpt>
      <trkpt lat="48.23603" lon="7.2689">
        <ele>901.58</ele>
        <time>2020-09-14T10:55:04.000Z</time>
      </trkpt>
      <trkpt lat="48.236" lon="7.26904">
        <ele>902.82</ele>
        <time>2020-09-14T10:55:12.000Z</time>
      </trkpt>
      <trkpt lat="48.23596" lon="7.26918">
        <ele>905.36</ele>
        <time>2020-09-14T10:55:20.000Z</time>
      </trkpt>
      <trkpt lat="48.23592" lon="7.2693">
        <ele>906.66</ele>
        <time>2020-09-14T10:55:30.000Z</time>
      </trkpt>
      <trkpt lat="48.23594" lon="7.26945">
        <ele>908.52</ele>
        <time>2020-09-14T10:56:08.000Z</time>
      </trkpt>
      <trkpt lat="48.23595" lon="7.26959">
        <ele>908.47</ele>
        <time>2020-09-14T10:56:22.000Z</time>
      </trkpt>
      <trkpt lat="48.23593" lon="7.26973">
        <ele>908.98</ele>
        <time>2020-09-14T10:56:30.000Z</time>
      </trkpt>
      <trkpt lat="48.23597" lon="7.26986">
        <ele>909.74</ele>
        <time>2020-09-14T10:56:38.000Z</time>
      </trkpt>
      <trkpt lat="48.23602" lon="7.26999">
        <ele>910.11</ele>
        <time>2020-09-14T10:56:45.000Z</time>
      </trkpt>
      <trkpt lat="48.236" lon="7.27012">
        <ele>908.6</ele>
        <time>2020-09-14T10:56:56.000Z</time>
      </trkpt>
      <trkpt lat="48.23596" lon="7.27024">
        <ele>906.07</ele>
        <time>2020-09-14T10:57:05.000Z</time>
      </trkpt>
      <trkpt lat="48.23595" lon="7.27038">
        <ele>904.87</ele>
        <time>2020-09-14T10:57:13.000Z</time>
      </trkpt>
      <trkpt lat="48.23594" lon="7.27052">
        <ele>904.24</ele>
        <time>2020-09-14T10:57:22.000Z</time>
      </trkpt>
      <trkpt lat="48.23593" lon="7.27066">
        <ele>903.94</ele>
        <time>2020-09-14T10:57:32.000Z</time>
      </trkpt>
      <trkpt lat="48.23587" lon="7.27077">
        <ele>903.37</ele>
        <time>2020-09-14T10:57:42.000Z</time>
      </trkpt>
      <trkpt lat="48.23582" lon="7.2709">
        <ele>903.13</ele>
        <time>2020-09-14T10:57:50.000Z</time>
      </trkpt>
      <trkpt lat="48.23581" lon="7.27104">
        <ele>902.75</ele>
        <time>2020-09-14T10:57:57.000Z</time>
      </trkpt>
      <trkpt lat="48.23579" lon="7.27118">
        <ele>903.14</ele>
        <time>2020-09-14T10:58:09.000Z</time>
      </trkpt>
      <trkpt lat="48.23582" lon="7.27132">
        <ele>901.74</ele>
        <time>2020-09-14T10:58:20.000Z</time>
      </trkpt>
      <trkpt lat="48.23582" lon="7.27145">
        <ele>899.87</ele>
        <time>2020-09-14T10:58:29.000Z</time>
      </trkpt>
      <trkpt lat="48.23585" lon="7.27158">
        <ele>900.02</ele>
        <time>2020-09-14T10:59:02.000Z</time>
      </trkpt>
      <trkpt lat="48.23591" lon="7.27169">
        <ele>901.95</ele>
        <time>2020-09-14T10:59:10.000Z</time>
      </trkpt>
      <trkpt lat="48.23593" lon="7.27182">
        <ele>902.51</ele>
        <time>2020-09-14T10:59:19.000Z</time>
      </trkpt>
      <trkpt lat="48.23599" lon="7.27193">
        <ele>903.5</ele>
        <time>2020-09-14T10:59:26.000Z</time>
      </trkpt>
      <trkpt lat="48.23603" lon="7.27205">
        <ele>903.85</ele>
        <time>2020-09-14T10:59:38.000Z</time>
      </trkpt>
      <trkpt lat="48.23603" lon="7.27191">
        <ele>903.41</ele>
        <time>2020-09-14T10:59:57.000Z</time>
      </trkpt>
      <trkpt lat="48.23598" lon="7.27179">
        <ele>903.37</ele>
        <time>2020-09-14T11:00:08.000Z</time>
      </trkpt>
      <trkpt lat="48.23593" lon="7.27166">
        <ele>902.42</ele>
        <time>2020-09-14T11:00:16.000Z</time>
      </trkpt>
      <trkpt lat="48.23588" lon="7.27155">
        <ele>902.35</ele>
        <time>2020-09-14T11:00:22.000Z</time>
      </trkpt>
      <trkpt lat="48.23581" lon="7.27145">
        <ele>903.28</ele>
        <time>2020-09-14T11:00:30.000Z</time>
      </trkpt>
      <trkpt lat="48.23575" lon="7.2716">
        <ele>905.71</ele>
        <time>2020-09-14T11:08:45.000Z</time>
      </trkpt>
      <trkpt lat="48.23577" lon="7.27143">
        <ele>905.01</ele>
        <time>2020-09-14T11:32:37.000Z</time>
      </trkpt>
      <trkpt lat="48.23568" lon="7.2716">
        <ele>910.59</ele>
        <time>2020-09-14T11:33:40.000Z</time>
      </trkpt>
      <trkpt lat="48.23582" lon="7.27156">
        <ele>904.11</ele>
        <time>2020-09-14T11:35:49.000Z</time>
      </trkpt>
      <trkpt lat="48.23588" lon="7.27167">
        <ele>902.4</ele>
        <time>2020-09-14T11:36:09.000Z</time>
      </trkpt>
      <trkpt lat="48.23593" lon="7.2718">
        <ele>901.06</ele>
        <time>2020-09-14T11:36:23.000Z</time>
      </trkpt>
      <trkpt lat="48.23599" lon="7.2719">
        <ele>900.94</ele>
        <time>2020-09-14T11:36:31.000Z</time>
      </trkpt>
      <trkpt lat="48.23604" lon="7.27202">
        <ele>901.14</ele>
        <time>2020-09-14T11:36:39.000Z</time>
      </trkpt>
      <trkpt lat="48.23608" lon="7.27214">
        <ele>900.61</ele>
        <time>2020-09-14T11:36:51.000Z</time>
      </trkpt>
      <trkpt lat="48.23617" lon="7.27211">
        <ele>901.62</ele>
        <time>2020-09-14T11:37:01.000Z</time>
      </trkpt>
      <trkpt lat="48.23627" lon="7.27211">
        <ele>901.22</ele>
        <time>2020-09-14T11:37:08.000Z</time>
      </trkpt>
      <trkpt lat="48.23637" lon="7.27215">
        <ele>899.91</ele>
        <time>2020-09-14T11:37:16.000Z</time>
      </trkpt>
      <trkpt lat="48.23645" lon="7.27222">
        <ele>899.02</ele>
        <time>2020-09-14T11:37:24.000Z</time>
      </trkpt>
      <trkpt lat="48.23651" lon="7.27233">
        <ele>898.67</ele>
        <time>2020-09-14T11:37:32.000Z</time>
      </trkpt>
      <trkpt lat="48.23651" lon="7.27247">
        <ele>898.24</ele>
        <time>2020-09-14T11:37:42.000Z</time>
      </trkpt>
      <trkpt lat="48.23648" lon="7.27261">
        <ele>898.11</ele>
        <time>2020-09-14T11:37:52.000Z</time>
      </trkpt>
      <trkpt lat="48.23645" lon="7.27274">
        <ele>898.64</ele>
        <time>2020-09-14T11:38:03.000Z</time>
      </trkpt>
      <trkpt lat="48.23642" lon="7.27287">
        <ele>898.52</ele>
        <time>2020-09-14T11:38:13.000Z</time>
      </trkpt>
      <trkpt lat="48.23638" lon="7.27301">
        <ele>898.81</ele>
        <time>2020-09-14T11:38:21.000Z</time>
      </trkpt>
      <trkpt lat="48.23636" lon="7.27315">
        <ele>899.32</ele>
        <time>2020-09-14T11:38:29.000Z</time>
      </trkpt>
      <trkpt lat="48.23632" lon="7.27328">
        <ele>899.44</ele>
        <time>2020-09-14T11:38:36.000Z</time>
      </trkpt>
      <trkpt lat="48.23629" lon="7.27341">
        <ele>900.01</ele>
        <time>2020-09-14T11:38:44.000Z</time>
      </trkpt>
      <trkpt lat="48.23625" lon="7.27355">
        <ele>900.79</ele>
        <time>2020-09-14T11:38:52.000Z</time>
      </trkpt>
      <trkpt lat="48.23622" lon="7.27369">
        <ele>901.41</ele>
        <time>2020-09-14T11:38:59.000Z</time>
      </trkpt>
      <trkpt lat="48.2362" lon="7.27382">
        <ele>901.65</ele>
        <time>2020-09-14T11:39:06.000Z</time>
      </trkpt>
      <trkpt lat="48.23621" lon="7.27395">
        <ele>901.84</ele>
        <time>2020-09-14T11:39:14.000Z</time>
      </trkpt>
      <trkpt lat="48.23619" lon="7.27409">
        <ele>902.21</ele>
        <time>2020-09-14T11:39:23.000Z</time>
      </trkpt>
      <trkpt lat="48.23614" lon="7.27424">
        <ele>902.17</ele>
        <time>2020-09-14T11:39:33.000Z</time>
      </trkpt>
      <trkpt lat="48.23613" lon="7.27437">
        <ele>901.31</ele>
        <time>2020-09-14T11:39:40.000Z</time>
      </trkpt>
      <trkpt lat="48.23611" lon="7.27452">
        <ele>900.67</ele>
        <time>2020-09-14T11:39:47.000Z</time>
      </trkpt>
      <trkpt lat="48.23609" lon="7.27465">
        <ele>900.47</ele>
        <time>2020-09-14T11:39:55.000Z</time>
      </trkpt>
      <trkpt lat="48.23603" lon="7.27477">
        <ele>899.64</ele>
        <time>2020-09-14T11:40:04.000Z</time>
      </trkpt>
      <trkpt lat="48.23598" lon="7.27488">
        <ele>899.34</ele>
        <time>2020-09-14T11:40:11.000Z</time>
      </trkpt>
      <trkpt lat="48.23594" lon="7.27502">
        <ele>899.36</ele>
        <time>2020-09-14T11:40:17.000Z</time>
      </trkpt>
      <trkpt lat="48.23593" lon="7.27515">
        <ele>898.67</ele>
        <time>2020-09-14T11:40:25.000Z</time>
      </trkpt>
      <trkpt lat="48.23588" lon="7.27527">
        <ele>899.04</ele>
        <time>2020-09-14T11:40:34.000Z</time>
      </trkpt>
      <trkpt lat="48.23585" lon="7.2754">
        <ele>899.61</ele>
        <time>2020-09-14T11:40:43.000Z</time>
      </trkpt>
      <trkpt lat="48.23583" lon="7.27555">
        <ele>899.92</ele>
        <time>2020-09-14T11:40:50.000Z</time>
      </trkpt>
      <trkpt lat="48.23586" lon="7.27568">
        <ele>898.89</ele>
        <time>2020-09-14T11:41:04.000Z</time>
      </trkpt>
      <trkpt lat="48.23589" lon="7.27581">
        <ele>898.07</ele>
        <time>2020-09-14T11:41:13.000Z</time>
      </trkpt>
      <trkpt lat="48.23592" lon="7.27594">
        <ele>897.35</ele>
        <time>2020-09-14T11:41:21.000Z</time>
      </trkpt>
      <trkpt lat="48.23594" lon="7.27608">
        <ele>896.68</ele>
        <time>2020-09-14T11:41:29.000Z</time>
      </trkpt>
      <trkpt lat="48.23597" lon="7.27623">
        <ele>895.75</ele>
        <time>2020-09-14T11:41:36.000Z</time>
      </trkpt>
      <trkpt lat="48.236" lon="7.27635">
        <ele>894.57</ele>
        <time>2020-09-14T11:41:46.000Z</time>
      </trkpt>
      <trkpt lat="48.23604" lon="7.27648">
        <ele>894.15</ele>
        <time>2020-09-14T11:41:55.000Z</time>
      </trkpt>
      <trkpt lat="48.23607" lon="7.27661">
        <ele>893.37</ele>
        <time>2020-09-14T11:42:03.000Z</time>
      </trkpt>
      <trkpt lat="48.23614" lon="7.27673">
        <ele>892.77</ele>
        <time>2020-09-14T11:42:12.000Z</time>
      </trkpt>
      <trkpt lat="48.23619" lon="7.27684">
        <ele>891.99</ele>
        <time>2020-09-14T11:42:21.000Z</time>
      </trkpt>
      <trkpt lat="48.23622" lon="7.27698">
        <ele>891.39</ele>
        <time>2020-09-14T11:42:32.000Z</time>
      </trkpt>
      <trkpt lat="48.23624" lon="7.27712">
        <ele>890.77</ele>
        <time>2020-09-14T11:42:47.000Z</time>
      </trkpt>
      <trkpt lat="48.23629" lon="7.27723">
        <ele>890.44</ele>
        <time>2020-09-14T11:42:59.000Z</time>
      </trkpt>
      <trkpt lat="48.23639" lon="7.27723">
        <ele>890.29</ele>
        <time>2020-09-14T11:43:20.000Z</time>
      </trkpt>
      <trkpt lat="48.23643" lon="7.27735">
        <ele>890.59</ele>
        <time>2020-09-14T11:43:44.000Z</time>
      </trkpt>
      <trkpt lat="48.23646" lon="7.27748">
        <ele>891.31</ele>
        <time>2020-09-14T11:44:05.000Z</time>
      </trkpt>
      <trkpt lat="48.23642" lon="7.27761">
        <ele>891.74</ele>
        <time>2020-09-14T11:44:15.000Z</time>
      </trkpt>
      <trkpt lat="48.23642" lon="7.27776">
        <ele>891.74</ele>
        <time>2020-09-14T11:44:24.000Z</time>
      </trkpt>
      <trkpt lat="48.23651" lon="7.27776">
        <ele>891.29</ele>
        <time>2020-09-14T11:44:39.000Z</time>
      </trkpt>
      <trkpt lat="48.23661" lon="7.27776">
        <ele>890.44</ele>
        <time>2020-09-14T11:44:49.000Z</time>
      </trkpt>
      <trkpt lat="48.2367" lon="7.27773">
        <ele>890.94</ele>
        <time>2020-09-14T11:44:57.000Z</time>
      </trkpt>
      <trkpt lat="48.23679" lon="7.2777">
        <ele>891.19</ele>
        <time>2020-09-14T11:45:07.000Z</time>
      </trkpt>
      <trkpt lat="48.23688" lon="7.27767">
        <ele>891.85</ele>
        <time>2020-09-14T11:45:18.000Z</time>
      </trkpt>
      <trkpt lat="48.23697" lon="7.27769">
        <ele>891.96</ele>
        <time>2020-09-14T11:45:28.000Z</time>
      </trkpt>
      <trkpt lat="48.23707" lon="7.27767">
        <ele>891.32</ele>
        <time>2020-09-14T11:45:36.000Z</time>
      </trkpt>
      <trkpt lat="48.23718" lon="7.27764">
        <ele>891.24</ele>
        <time>2020-09-14T11:45:44.000Z</time>
      </trkpt>
      <trkpt lat="48.23726" lon="7.27759">
        <ele>890.89</ele>
        <time>2020-09-14T11:45:52.000Z</time>
      </trkpt>
      <trkpt lat="48.23735" lon="7.27753">
        <ele>889.67</ele>
        <time>2020-09-14T11:46:11.000Z</time>
      </trkpt>
      <trkpt lat="48.23744" lon="7.27754">
        <ele>888.98</ele>
        <time>2020-09-14T11:46:23.000Z</time>
      </trkpt>
      <trkpt lat="48.23754" lon="7.27759">
        <ele>893.8</ele>
        <time>2020-09-14T11:46:35.000Z</time>
      </trkpt>
      <trkpt lat="48.23754" lon="7.27745">
        <ele>893.78</ele>
        <time>2020-09-14T11:48:02.000Z</time>
      </trkpt>
      <trkpt lat="48.23749" lon="7.27733">
        <ele>890.66</ele>
        <time>2020-09-14T11:48:30.000Z</time>
      </trkpt>
      <trkpt lat="48.2374" lon="7.27731">
        <ele>890.27</ele>
        <time>2020-09-14T11:48:47.000Z</time>
      </trkpt>
      <trkpt lat="48.23749" lon="7.27729">
        <ele>890.81</ele>
        <time>2020-09-14T11:50:11.000Z</time>
      </trkpt>
      <trkpt lat="48.23756" lon="7.27721">
        <ele>891.54</ele>
        <time>2020-09-14T11:50:21.000Z</time>
      </trkpt>
      <trkpt lat="48.23759" lon="7.27709">
        <ele>891.84</ele>
        <time>2020-09-14T11:50:28.000Z</time>
      </trkpt>
      <trkpt lat="48.23761" lon="7.27695">
        <ele>892.32</ele>
        <time>2020-09-14T11:50:35.000Z</time>
      </trkpt>
      <trkpt lat="48.23764" lon="7.27681">
        <ele>891.92</ele>
        <time>2020-09-14T11:50:44.000Z</time>
      </trkpt>
      <trkpt lat="48.23768" lon="7.27669">
        <ele>891.94</ele>
        <time>2020-09-14T11:50:54.000Z</time>
      </trkpt>
      <trkpt lat="48.23775" lon="7.27657">
        <ele>892.21</ele>
        <time>2020-09-14T11:51:02.000Z</time>
      </trkpt>
      <trkpt lat="48.2378" lon="7.27645">
        <ele>892.27</ele>
        <time>2020-09-14T11:51:09.000Z</time>
      </trkpt>
      <trkpt lat="48.23784" lon="7.27632">
        <ele>891.37</ele>
        <time>2020-09-14T11:51:16.000Z</time>
      </trkpt>
      <trkpt lat="48.23783" lon="7.27618">
        <ele>890.65</ele>
        <time>2020-09-14T11:51:24.000Z</time>
      </trkpt>
      <trkpt lat="48.23784" lon="7.27604">
        <ele>890.27</ele>
        <time>2020-09-14T11:51:32.000Z</time>
      </trkpt>
      <trkpt lat="48.23782" lon="7.2759">
        <ele>890.24</ele>
        <time>2020-09-14T11:51:42.000Z</time>
      </trkpt>
      <trkpt lat="48.23781" lon="7.27576">
        <ele>889.95</ele>
        <time>2020-09-14T11:51:52.000Z</time>
      </trkpt>
      <trkpt lat="48.23783" lon="7.27562">
        <ele>889.87</ele>
        <time>2020-09-14T11:52:01.000Z</time>
      </trkpt>
      <trkpt lat="48.23788" lon="7.2755">
        <ele>890.04</ele>
        <time>2020-09-14T11:52:10.000Z</time>
      </trkpt>
      <trkpt lat="48.2379" lon="7.27536">
        <ele>889.58</ele>
        <time>2020-09-14T11:52:17.000Z</time>
      </trkpt>
      <trkpt lat="48.23791" lon="7.27521">
        <ele>889.24</ele>
        <time>2020-09-14T11:52:26.000Z</time>
      </trkpt>
      <trkpt lat="48.23794" lon="7.27508">
        <ele>889.35</ele>
        <time>2020-09-14T11:52:33.000Z</time>
      </trkpt>
      <trkpt lat="48.23797" lon="7.27493">
        <ele>889.08</ele>
        <time>2020-09-14T11:52:40.000Z</time>
      </trkpt>
      <trkpt lat="48.23801" lon="7.2748">
        <ele>888.87</ele>
        <time>2020-09-14T11:52:49.000Z</time>
      </trkpt>
      <trkpt lat="48.23805" lon="7.27467">
        <ele>888.64</ele>
        <time>2020-09-14T11:52:57.000Z</time>
      </trkpt>
      <trkpt lat="48.23807" lon="7.27453">
        <ele>888.37</ele>
        <time>2020-09-14T11:53:04.000Z</time>
      </trkpt>
      <trkpt lat="48.2381" lon="7.27439">
        <ele>887.95</ele>
        <time>2020-09-14T11:53:10.000Z</time>
      </trkpt>
      <trkpt lat="48.2381" lon="7.27426">
        <ele>887.75</ele>
        <time>2020-09-14T11:53:17.000Z</time>
      </trkpt>
      <trkpt lat="48.23811" lon="7.27412">
        <ele>887.84</ele>
        <time>2020-09-14T11:53:23.000Z</time>
      </trkpt>
      <trkpt lat="48.23814" lon="7.27398">
        <ele>887.95</ele>
        <time>2020-09-14T11:53:32.000Z</time>
      </trkpt>
      <trkpt lat="48.23815" lon="7.27383">
        <ele>888.54</ele>
        <time>2020-09-14T11:53:41.000Z</time>
      </trkpt>
      <trkpt lat="48.23819" lon="7.27369">
        <ele>888.92</ele>
        <time>2020-09-14T11:53:49.000Z</time>
      </trkpt>
      <trkpt lat="48.23822" lon="7.27357">
        <ele>889.14</ele>
        <time>2020-09-14T11:53:56.000Z</time>
      </trkpt>
      <trkpt lat="48.23823" lon="7.27343">
        <ele>889.24</ele>
        <time>2020-09-14T11:54:04.000Z</time>
      </trkpt>
      <trkpt lat="48.2382" lon="7.27329">
        <ele>888.57</ele>
        <time>2020-09-14T11:54:13.000Z</time>
      </trkpt>
      <trkpt lat="48.23816" lon="7.27315">
        <ele>887.58</ele>
        <time>2020-09-14T11:54:20.000Z</time>
      </trkpt>
      <trkpt lat="48.23815" lon="7.273">
        <ele>886.95</ele>
        <time>2020-09-14T11:54:26.000Z</time>
      </trkpt>
      <trkpt lat="48.2381" lon="7.27287">
        <ele>886.74</ele>
        <time>2020-09-14T11:54:35.000Z</time>
      </trkpt>
      <trkpt lat="48.23804" lon="7.27275">
        <ele>886.64</ele>
        <time>2020-09-14T11:54:44.000Z</time>
      </trkpt>
      <trkpt lat="48.23798" lon="7.27265">
        <ele>887.61</ele>
        <time>2020-09-14T11:54:58.000Z</time>
      </trkpt>
      <trkpt lat="48.23796" lon="7.27251">
        <ele>889.29</ele>
        <time>2020-09-14T11:55:10.000Z</time>
      </trkpt>
      <trkpt lat="48.23799" lon="7.27238">
        <ele>892.14</ele>
        <time>2020-09-14T11:55:22.000Z</time>
      </trkpt>
      <trkpt lat="48.23799" lon="7.27224">
        <ele>894.45</ele>
        <time>2020-09-14T11:55:32.000Z</time>
      </trkpt>
      <trkpt lat="48.23796" lon="7.27211">
        <ele>897.28</ele>
        <time>2020-09-14T11:55:45.000Z</time>
      </trkpt>
      <trkpt lat="48.23795" lon="7.27196">
        <ele>899.47</ele>
        <time>2020-09-14T11:55:57.000Z</time>
      </trkpt>
      <trkpt lat="48.23796" lon="7.27182">
        <ele>900.66</ele>
        <time>2020-09-14T11:56:08.000Z</time>
      </trkpt>
      <trkpt lat="48.23796" lon="7.27168">
        <ele>901.44</ele>
        <time>2020-09-14T11:56:18.000Z</time>
      </trkpt>
      <trkpt lat="48.23796" lon="7.27153">
        <ele>901.74</ele>
        <time>2020-09-14T11:56:26.000Z</time>
      </trkpt>
      <trkpt lat="48.23795" lon="7.27139">
        <ele>901.17</ele>
        <time>2020-09-14T11:56:38.000Z</time>
      </trkpt>
      <trkpt lat="48.23787" lon="7.27131">
        <ele>900.84</ele>
        <time>2020-09-14T11:56:50.000Z</time>
      </trkpt>
      <trkpt lat="48.23778" lon="7.27128">
        <ele>900.08</ele>
        <time>2020-09-14T11:57:00.000Z</time>
      </trkpt>
      <trkpt lat="48.23771" lon="7.27118">
        <ele>899.89</ele>
        <time>2020-09-14T11:57:07.000Z</time>
      </trkpt>
      <trkpt lat="48.23767" lon="7.27106">
        <ele>901.52</ele>
        <time>2020-09-14T11:57:15.000Z</time>
      </trkpt>
      <trkpt lat="48.23766" lon="7.27093">
        <ele>902.73</ele>
        <time>2020-09-14T11:57:21.000Z</time>
      </trkpt>
      <trkpt lat="48.23765" lon="7.27078">
        <ele>904.77</ele>
        <time>2020-09-14T11:57:28.000Z</time>
      </trkpt>
      <trkpt lat="48.23766" lon="7.27064">
        <ele>905.83</ele>
        <time>2020-09-14T11:57:37.000Z</time>
      </trkpt>
      <trkpt lat="48.23765" lon="7.27048">
        <ele>905.74</ele>
        <time>2020-09-14T11:57:46.000Z</time>
      </trkpt>
      <trkpt lat="48.23762" lon="7.27035">
        <ele>905.89</ele>
        <time>2020-09-14T11:57:54.000Z</time>
      </trkpt>
      <trkpt lat="48.23758" lon="7.27021">
        <ele>906.33</ele>
        <time>2020-09-14T11:58:04.000Z</time>
      </trkpt>
      <trkpt lat="48.23758" lon="7.27007">
        <ele>906.12</ele>
        <time>2020-09-14T11:58:12.000Z</time>
      </trkpt>
      <trkpt lat="48.23763" lon="7.26995">
        <ele>905.08</ele>
        <time>2020-09-14T11:58:22.000Z</time>
      </trkpt>
      <trkpt lat="48.23766" lon="7.26983">
        <ele>904.28</ele>
        <time>2020-09-14T11:58:32.000Z</time>
      </trkpt>
      <trkpt lat="48.23767" lon="7.26968">
        <ele>902.61</ele>
        <time>2020-09-14T11:58:49.000Z</time>
      </trkpt>
      <trkpt lat="48.23773" lon="7.26957">
        <ele>901.52</ele>
        <time>2020-09-14T11:59:01.000Z</time>
      </trkpt>
      <trkpt lat="48.23764" lon="7.26951">
        <ele>900.4</ele>
        <time>2020-09-14T11:59:53.000Z</time>
      </trkpt>
      <trkpt lat="48.23757" lon="7.2694">
        <ele>898.98</ele>
        <time>2020-09-14T12:00:07.000Z</time>
      </trkpt>
      <trkpt lat="48.23748" lon="7.26933">
        <ele>898.47</ele>
        <time>2020-09-14T12:00:18.000Z</time>
      </trkpt>
      <trkpt lat="48.23739" lon="7.26935">
        <ele>898.05</ele>
        <time>2020-09-14T12:00:29.000Z</time>
      </trkpt>
      <trkpt lat="48.23733" lon="7.26924">
        <ele>897.26</ele>
        <time>2020-09-14T12:00:39.000Z</time>
      </trkpt>
      <trkpt lat="48.23728" lon="7.26913">
        <ele>896.46</ele>
        <time>2020-09-14T12:00:51.000Z</time>
      </trkpt>
      <trkpt lat="48.23721" lon="7.26901">
        <ele>895.95</ele>
        <time>2020-09-14T12:01:03.000Z</time>
      </trkpt>
      <trkpt lat="48.23714" lon="7.26889">
        <ele>895.93</ele>
        <time>2020-09-14T12:01:13.000Z</time>
      </trkpt>
      <trkpt lat="48.23708" lon="7.26877">
        <ele>895.74</ele>
        <time>2020-09-14T12:01:21.000Z</time>
      </trkpt>
      <trkpt lat="48.237" lon="7.26869">
        <ele>895.47</ele>
        <time>2020-09-14T12:01:29.000Z</time>
      </trkpt>
      <trkpt lat="48.23692" lon="7.26862">
        <ele>894.1</ele>
        <time>2020-09-14T12:01:38.000Z</time>
      </trkpt>
      <trkpt lat="48.23686" lon="7.26849">
        <ele>892.87</ele>
        <time>2020-09-14T12:01:48.000Z</time>
      </trkpt>
      <trkpt lat="48.23684" lon="7.26836">
        <ele>891.56</ele>
        <time>2020-09-14T12:02:00.000Z</time>
      </trkpt>
      <trkpt lat="48.23682" lon="7.26821">
        <ele>892.69</ele>
        <time>2020-09-14T12:02:09.000Z</time>
      </trkpt>
      <trkpt lat="48.23684" lon="7.26807">
        <ele>893.93</ele>
        <time>2020-09-14T12:02:17.000Z</time>
      </trkpt>
      <trkpt lat="48.23689" lon="7.26796">
        <ele>894.52</ele>
        <time>2020-09-14T12:02:27.000Z</time>
      </trkpt>
      <trkpt lat="48.23692" lon="7.26781">
        <ele>896.04</ele>
        <time>2020-09-14T12:02:37.000Z</time>
      </trkpt>
      <trkpt lat="48.23695" lon="7.26766">
        <ele>896.34</ele>
        <time>2020-09-14T12:02:45.000Z</time>
      </trkpt>
      <trkpt lat="48.23693" lon="7.26752">
        <ele>897.09</ele>
        <time>2020-09-14T12:02:52.000Z</time>
      </trkpt>
      <trkpt lat="48.23693" lon="7.26737">
        <ele>898.18</ele>
        <time>2020-09-14T12:03:00.000Z</time>
      </trkpt>
      <trkpt lat="48.23694" lon="7.26722">
        <ele>898.71</ele>
        <time>2020-09-14T12:03:07.000Z</time>
      </trkpt>
      <trkpt lat="48.23693" lon="7.26707">
        <ele>896.09</ele>
        <time>2020-09-14T12:03:43.000Z</time>
      </trkpt>
      <trkpt lat="48.23701" lon="7.26714">
        <ele>896.82</ele>
        <time>2020-09-14T12:03:51.000Z</time>
      </trkpt>
      <trkpt lat="48.23708" lon="7.26724">
        <ele>898.36</ele>
        <time>2020-09-14T12:03:59.000Z</time>
      </trkpt>
      <trkpt lat="48.23712" lon="7.26738">
        <ele>898.87</ele>
        <time>2020-09-14T12:04:08.000Z</time>
      </trkpt>
      <trkpt lat="48.23719" lon="7.26749">
        <ele>898.44</ele>
        <time>2020-09-14T12:04:19.000Z</time>
      </trkpt>
      <trkpt lat="48.23728" lon="7.26753">
        <ele>896.01</ele>
        <time>2020-09-14T12:04:34.000Z</time>
      </trkpt>
      <trkpt lat="48.23734" lon="7.26763">
        <ele>894.08</ele>
        <time>2020-09-14T12:04:47.000Z</time>
      </trkpt>
      <trkpt lat="48.2374" lon="7.26753">
        <ele>890.1</ele>
        <time>2020-09-14T12:05:07.000Z</time>
      </trkpt>
      <trkpt lat="48.23752" lon="7.26753">
        <ele>890.06</ele>
        <time>2020-09-14T12:05:34.000Z</time>
      </trkpt>
      <trkpt lat="48.23756" lon="7.26788">
        <ele>890.9</ele>
        <time>2020-09-14T12:05:39.000Z</time>
      </trkpt>
      <trkpt lat="48.23741" lon="7.26812">
        <ele>891.14</ele>
        <time>2020-09-14T12:05:44.000Z</time>
      </trkpt>
      <trkpt lat="48.2375" lon="7.2679">
        <ele>890.02</ele>
        <time>2020-09-14T12:05:49.000Z</time>
      </trkpt>
      <trkpt lat="48.2376" lon="7.26795">
        <ele>885.95</ele>
        <time>2020-09-14T12:05:57.000Z</time>
      </trkpt>
      <trkpt lat="48.23767" lon="7.26806">
        <ele>884.36</ele>
        <time>2020-09-14T12:06:04.000Z</time>
      </trkpt>
      <trkpt lat="48.23772" lon="7.26818">
        <ele>882.43</ele>
        <time>2020-09-14T12:06:13.000Z</time>
      </trkpt>
      <trkpt lat="48.23778" lon="7.26829">
        <ele>881.05</ele>
        <time>2020-09-14T12:06:20.000Z</time>
      </trkpt>
      <trkpt lat="48.23786" lon="7.26838">
        <ele>878.77</ele>
        <time>2020-09-14T12:06:28.000Z</time>
      </trkpt>
      <trkpt lat="48.23792" lon="7.26848">
        <ele>875.98</ele>
        <time>2020-09-14T12:06:36.000Z</time>
      </trkpt>
      <trkpt lat="48.23797" lon="7.2686">
        <ele>873.31</ele>
        <time>2020-09-14T12:06:44.000Z</time>
      </trkpt>
      <trkpt lat="48.23805" lon="7.26867">
        <ele>870.91</ele>
        <time>2020-09-14T12:06:53.000Z</time>
      </trkpt>
      <trkpt lat="48.23812" lon="7.26858">
        <ele>868.11</ele>
        <time>2020-09-14T12:06:59.000Z</time>
      </trkpt>
      <trkpt lat="48.23813" lon="7.26842">
        <ele>864.58</ele>
        <time>2020-09-14T12:07:07.000Z</time>
      </trkpt>
      <trkpt lat="48.23816" lon="7.26829">
        <ele>860.78</ele>
        <time>2020-09-14T12:07:16.000Z</time>
      </trkpt>
      <trkpt lat="48.23817" lon="7.26815">
        <ele>856.87</ele>
        <time>2020-09-14T12:07:26.000Z</time>
      </trkpt>
      <trkpt lat="48.23817" lon="7.26801">
        <ele>853.66</ele>
        <time>2020-09-14T12:07:37.000Z</time>
      </trkpt>
      <trkpt lat="48.23817" lon="7.26786">
        <ele>850.28</ele>
        <time>2020-09-14T12:07:48.000Z</time>
      </trkpt>
      <trkpt lat="48.23824" lon="7.26794">
        <ele>849.97</ele>
        <time>2020-09-14T12:08:03.000Z</time>
      </trkpt>
      <trkpt lat="48.23833" lon="7.268">
        <ele>849.29</ele>
        <time>2020-09-14T12:08:17.000Z</time>
      </trkpt>
      <trkpt lat="48.2384" lon="7.26811">
        <ele>847.64</ele>
        <time>2020-09-14T12:08:29.000Z</time>
      </trkpt>
      <trkpt lat="48.23847" lon="7.2682">
        <ele>847.05</ele>
        <time>2020-09-14T12:08:40.000Z</time>
      </trkpt>
      <trkpt lat="48.23855" lon="7.26825">
        <ele>846.41</ele>
        <time>2020-09-14T12:08:52.000Z</time>
      </trkpt>
      <trkpt lat="48.23863" lon="7.26833">
        <ele>843.67</ele>
        <time>2020-09-14T12:09:58.000Z</time>
      </trkpt>
      <trkpt lat="48.2387" lon="7.26843">
        <ele>845.57</ele>
        <time>2020-09-14T12:10:06.000Z</time>
      </trkpt>
      <trkpt lat="48.23879" lon="7.26841">
        <ele>847.91</ele>
        <time>2020-09-14T12:10:26.000Z</time>
      </trkpt>
      <trkpt lat="48.23882" lon="7.26827">
        <ele>847.95</ele>
        <time>2020-09-14T12:10:36.000Z</time>
      </trkpt>
      <trkpt lat="48.23888" lon="7.26816">
        <ele>846.78</ele>
        <time>2020-09-14T12:10:47.000Z</time>
      </trkpt>
      <trkpt lat="48.23897" lon="7.26817">
        <ele>846.44</ele>
        <time>2020-09-14T12:11:08.000Z</time>
      </trkpt>
      <trkpt lat="48.23903" lon="7.26828">
        <ele>845.27</ele>
        <time>2020-09-14T12:11:19.000Z</time>
      </trkpt>
      <trkpt lat="48.23905" lon="7.26842">
        <ele>841.05</ele>
        <time>2020-09-14T12:11:28.000Z</time>
      </trkpt>
      <trkpt lat="48.23912" lon="7.26834">
        <ele>829.74</ele>
        <time>2020-09-14T12:11:57.000Z</time>
      </trkpt>
      <trkpt lat="48.23922" lon="7.26832">
        <ele>822.6</ele>
        <time>2020-09-14T12:12:22.000Z</time>
      </trkpt>
      <trkpt lat="48.2393" lon="7.26841">
        <ele>818.9</ele>
        <time>2020-09-14T12:12:39.000Z</time>
      </trkpt>
      <trkpt lat="48.23934" lon="7.26827">
        <ele>809.34</ele>
        <time>2020-09-14T12:13:10.000Z</time>
      </trkpt>
      <trkpt lat="48.23935" lon="7.26813">
        <ele>807.04</ele>
        <time>2020-09-14T12:13:19.000Z</time>
      </trkpt>
      <trkpt lat="48.23936" lon="7.26799">
        <ele>805.1</ele>
        <time>2020-09-14T12:13:27.000Z</time>
      </trkpt>
      <trkpt lat="48.23943" lon="7.2681">
        <ele>799.91</ele>
        <time>2020-09-14T12:13:48.000Z</time>
      </trkpt>
      <trkpt lat="48.23948" lon="7.26822">
        <ele>795.92</ele>
        <time>2020-09-14T12:13:59.000Z</time>
      </trkpt>
      <trkpt lat="48.23954" lon="7.26833">
        <ele>793.98</ele>
        <time>2020-09-14T12:14:07.000Z</time>
      </trkpt>
      <trkpt lat="48.23962" lon="7.26841">
        <ele>793.2</ele>
        <time>2020-09-14T12:14:16.000Z</time>
      </trkpt>
      <trkpt lat="48.23971" lon="7.26847">
        <ele>792.16</ele>
        <time>2020-09-14T12:14:25.000Z</time>
      </trkpt>
      <trkpt lat="48.23979" lon="7.26852">
        <ele>791.13</ele>
        <time>2020-09-14T12:14:34.000Z</time>
      </trkpt>
      <trkpt lat="48.23974" lon="7.2684">
        <ele>782.14</ele>
        <time>2020-09-14T12:15:16.000Z</time>
      </trkpt>
      <trkpt lat="48.23969" lon="7.26827">
        <ele>780.66</ele>
        <time>2020-09-14T12:15:23.000Z</time>
      </trkpt>
      <trkpt lat="48.23964" lon="7.26815">
        <ele>779.39</ele>
        <time>2020-09-14T12:15:32.000Z</time>
      </trkpt>
      <trkpt lat="48.2396" lon="7.26803">
        <ele>779.53</ele>
        <time>2020-09-14T12:15:46.000Z</time>
      </trkpt>
      <trkpt lat="48.23956" lon="7.26791">
        <ele>779.72</ele>
        <time>2020-09-14T12:15:54.000Z</time>
      </trkpt>
      <trkpt lat="48.23951" lon="7.26779">
        <ele>778.73</ele>
        <time>2020-09-14T12:16:03.000Z</time>
      </trkpt>
      <trkpt lat="48.23945" lon="7.26767">
        <ele>778.3</ele>
        <time>2020-09-14T12:16:13.000Z</time>
      </trkpt>
      <trkpt lat="48.2394" lon="7.26754">
        <ele>778.91</ele>
        <time>2020-09-14T12:16:21.000Z</time>
      </trkpt>
      <trkpt lat="48.23937" lon="7.2674">
        <ele>779.93</ele>
        <time>2020-09-14T12:16:31.000Z</time>
      </trkpt>
      <trkpt lat="48.23933" lon="7.26727">
        <ele>780.73</ele>
        <time>2020-09-14T12:16:39.000Z</time>
      </trkpt>
      <trkpt lat="48.23928" lon="7.26714">
        <ele>781.12</ele>
        <time>2020-09-14T12:16:47.000Z</time>
      </trkpt>
      <trkpt lat="48.23925" lon="7.26702">
        <ele>780.87</ele>
        <time>2020-09-14T12:16:55.000Z</time>
      </trkpt>
      <trkpt lat="48.2392" lon="7.2669">
        <ele>781.48</ele>
        <time>2020-09-14T12:17:03.000Z</time>
      </trkpt>
      <trkpt lat="48.23916" lon="7.26677">
        <ele>781.31</ele>
        <time>2020-09-14T12:17:15.000Z</time>
      </trkpt>
      <trkpt lat="48.23913" lon="7.26664">
        <ele>782.24</ele>
        <time>2020-09-14T12:17:26.000Z</time>
      </trkpt>
      <trkpt lat="48.2391" lon="7.26651">
        <ele>783.04</ele>
        <time>2020-09-14T12:17:35.000Z</time>
      </trkpt>
      <trkpt lat="48.2391" lon="7.26636">
        <ele>783.58</ele>
        <time>2020-09-14T12:17:42.000Z</time>
      </trkpt>
      <trkpt lat="48.23906" lon="7.26623">
        <ele>784.44</ele>
        <time>2020-09-14T12:17:49.000Z</time>
      </trkpt>
      <trkpt lat="48.239" lon="7.2661">
        <ele>784.49</ele>
        <time>2020-09-14T12:17:57.000Z</time>
      </trkpt>
      <trkpt lat="48.23896" lon="7.26597">
        <ele>784.55</ele>
        <time>2020-09-14T12:18:05.000Z</time>
      </trkpt>
      <trkpt lat="48.23891" lon="7.26583">
        <ele>784.52</ele>
        <time>2020-09-14T12:18:13.000Z</time>
      </trkpt>
      <trkpt lat="48.23886" lon="7.2657">
        <ele>786.27</ele>
        <time>2020-09-14T12:18:28.000Z</time>
      </trkpt>
      <trkpt lat="48.23879" lon="7.26561">
        <ele>787.14</ele>
        <time>2020-09-14T12:18:40.000Z</time>
      </trkpt>
      <trkpt lat="48.23877" lon="7.26546">
        <ele>787.53</ele>
        <time>2020-09-14T12:18:51.000Z</time>
      </trkpt>
      <trkpt lat="48.23873" lon="7.26533">
        <ele>788.21</ele>
        <time>2020-09-14T12:19:00.000Z</time>
      </trkpt>
      <trkpt lat="48.2387" lon="7.26521">
        <ele>788.62</ele>
        <time>2020-09-14T12:19:11.000Z</time>
      </trkpt>
      <trkpt lat="48.23868" lon="7.26506">
        <ele>789.78</ele>
        <time>2020-09-14T12:19:21.000Z</time>
      </trkpt>
      <trkpt lat="48.23865" lon="7.26492">
        <ele>791.17</ele>
        <time>2020-09-14T12:19:31.000Z</time>
      </trkpt>
      <trkpt lat="48.23862" lon="7.26478">
        <ele>792.28</ele>
        <time>2020-09-14T12:19:41.000Z</time>
      </trkpt>
      <trkpt lat="48.23858" lon="7.26464">
        <ele>793.38</ele>
        <time>2020-09-14T12:19:49.000Z</time>
      </trkpt>
      <trkpt lat="48.23854" lon="7.2645">
        <ele>795.1</ele>
        <time>2020-09-14T12:19:58.000Z</time>
      </trkpt>
      <trkpt lat="48.23851" lon="7.26437">
        <ele>796.31</ele>
        <time>2020-09-14T12:20:07.000Z</time>
      </trkpt>
      <trkpt lat="48.23847" lon="7.26424">
        <ele>796.82</ele>
        <time>2020-09-14T12:20:16.000Z</time>
      </trkpt>
      <trkpt lat="48.23839" lon="7.2641">
        <ele>799.22</ele>
        <time>2020-09-14T12:21:00.000Z</time>
      </trkpt>
      <trkpt lat="48.23838" lon="7.26394">
        <ele>799.94</ele>
        <time>2020-09-14T12:21:19.000Z</time>
      </trkpt>
      <trkpt lat="48.23839" lon="7.26379">
        <ele>800.56</ele>
        <time>2020-09-14T12:21:30.000Z</time>
      </trkpt>
      <trkpt lat="48.23834" lon="7.26367">
        <ele>800.67</ele>
        <time>2020-09-14T12:21:40.000Z</time>
      </trkpt>
      <trkpt lat="48.23829" lon="7.26355">
        <ele>800.79</ele>
        <time>2020-09-14T12:21:52.000Z</time>
      </trkpt>
      <trkpt lat="48.23825" lon="7.26343">
        <ele>801.34</ele>
        <time>2020-09-14T12:21:59.000Z</time>
      </trkpt>
      <trkpt lat="48.23822" lon="7.26328">
        <ele>801.86</ele>
        <time>2020-09-14T12:22:08.000Z</time>
      </trkpt>
      <trkpt lat="48.23817" lon="7.26315">
        <ele>802.22</ele>
        <time>2020-09-14T12:22:20.000Z</time>
      </trkpt>
      <trkpt lat="48.23812" lon="7.26303">
        <ele>802.76</ele>
        <time>2020-09-14T12:22:31.000Z</time>
      </trkpt>
      <trkpt lat="48.23803" lon="7.26304">
        <ele>804.76</ele>
        <time>2020-09-14T12:23:43.000Z</time>
      </trkpt>
      <trkpt lat="48.23807" lon="7.26291">
        <ele>804.54</ele>
        <time>2020-09-14T12:24:04.000Z</time>
      </trkpt>
      <trkpt lat="48.23801" lon="7.26301">
        <ele>804.35</ele>
        <time>2020-09-14T12:24:14.000Z</time>
      </trkpt>
      <trkpt lat="48.23809" lon="7.26294">
        <ele>804.75</ele>
        <time>2020-09-14T12:24:31.000Z</time>
      </trkpt>
      <trkpt lat="48.23807" lon="7.2628">
        <ele>805.41</ele>
        <time>2020-09-14T12:25:08.000Z</time>
      </trkpt>
      <trkpt lat="48.23802" lon="7.26267">
        <ele>806.33</ele>
        <time>2020-09-14T12:25:25.000Z</time>
      </trkpt>
      <trkpt lat="48.23799" lon="7.26254">
        <ele>805.67</ele>
        <time>2020-09-14T12:25:38.000Z</time>
      </trkpt>
      <trkpt lat="48.23795" lon="7.26242">
        <ele>804.97</ele>
        <time>2020-09-14T12:25:47.000Z</time>
      </trkpt>
      <trkpt lat="48.23788" lon="7.26232">
        <ele>804.25</ele>
        <time>2020-09-14T12:25:55.000Z</time>
      </trkpt>
      <trkpt lat="48.23784" lon="7.26218">
        <ele>804.7</ele>
        <time>2020-09-14T12:26:03.000Z</time>
      </trkpt>
      <trkpt lat="48.23781" lon="7.26204">
        <ele>805.68</ele>
        <time>2020-09-14T12:26:10.000Z</time>
      </trkpt>
      <trkpt lat="48.23778" lon="7.26191">
        <ele>806.34</ele>
        <time>2020-09-14T12:26:16.000Z</time>
      </trkpt>
      <trkpt lat="48.23774" lon="7.26177">
        <ele>807.4</ele>
        <time>2020-09-14T12:26:22.000Z</time>
      </trkpt>
      <trkpt lat="48.23774" lon="7.26164">
        <ele>807.74</ele>
        <time>2020-09-14T12:26:31.000Z</time>
      </trkpt>
      <trkpt lat="48.23772" lon="7.26149">
        <ele>807.36</ele>
        <time>2020-09-14T12:26:41.000Z</time>
      </trkpt>
      <trkpt lat="48.23767" lon="7.26137">
        <ele>808.88</ele>
        <time>2020-09-14T12:26:50.000Z</time>
      </trkpt>
      <trkpt lat="48.23766" lon="7.26123">
        <ele>811.55</ele>
        <time>2020-09-14T12:26:57.000Z</time>
      </trkpt>
      <trkpt lat="48.23764" lon="7.26109">
        <ele>814.1</ele>
        <time>2020-09-14T12:27:03.000Z</time>
      </trkpt>
      <trkpt lat="48.2376" lon="7.26097">
        <ele>815.46</ele>
        <time>2020-09-14T12:27:09.000Z</time>
      </trkpt>
      <trkpt lat="48.23759" lon="7.26082">
        <ele>817.92</ele>
        <time>2020-09-14T12:27:21.000Z</time>
      </trkpt>
      <trkpt lat="48.23758" lon="7.26067">
        <ele>819.89</ele>
        <time>2020-09-14T12:27:28.000Z</time>
      </trkpt>
      <trkpt lat="48.23754" lon="7.26054">
        <ele>821.67</ele>
        <time>2020-09-14T12:27:36.000Z</time>
      </trkpt>
      <trkpt lat="48.23753" lon="7.2604">
        <ele>822.49</ele>
        <time>2020-09-14T12:27:44.000Z</time>
      </trkpt>
      <trkpt lat="48.23749" lon="7.26028">
        <ele>820.68</ele>
        <time>2020-09-14T12:27:53.000Z</time>
      </trkpt>
      <trkpt lat="48.23747" lon="7.26014">
        <ele>820.02</ele>
        <time>2020-09-14T12:28:24.000Z</time>
      </trkpt>
      <trkpt lat="48.23744" lon="7.26">
        <ele>821.29</ele>
        <time>2020-09-14T12:28:36.000Z</time>
      </trkpt>
      <trkpt lat="48.23741" lon="7.25986">
        <ele>822.59</ele>
        <time>2020-09-14T12:28:46.000Z</time>
      </trkpt>
      <trkpt lat="48.23737" lon="7.25974">
        <ele>823.88</ele>
        <time>2020-09-14T12:28:56.000Z</time>
      </trkpt>
      <trkpt lat="48.23738" lon="7.2596">
        <ele>825.05</ele>
        <time>2020-09-14T12:29:07.000Z</time>
      </trkpt>
      <trkpt lat="48.2374" lon="7.25947">
        <ele>826.61</ele>
        <time>2020-09-14T12:29:40.000Z</time>
      </trkpt>
      <trkpt lat="48.2374" lon="7.25933">
        <ele>827.41</ele>
        <time>2020-09-14T12:29:49.000Z</time>
      </trkpt>
      <trkpt lat="48.23738" lon="7.25919">
        <ele>828.24</ele>
        <time>2020-09-14T12:30:05.000Z</time>
      </trkpt>
      <trkpt lat="48.23737" lon="7.25905">
        <ele>827.94</ele>
        <time>2020-09-14T12:30:14.000Z</time>
      </trkpt>
      <trkpt lat="48.23738" lon="7.2589">
        <ele>826.47</ele>
        <time>2020-09-14T12:30:24.000Z</time>
      </trkpt>
      <trkpt lat="48.23735" lon="7.25876">
        <ele>825.33</ele>
        <time>2020-09-14T12:30:39.000Z</time>
      </trkpt>
      <trkpt lat="48.23733" lon="7.25862">
        <ele>824.4</ele>
        <time>2020-09-14T12:30:48.000Z</time>
      </trkpt>
      <trkpt lat="48.23728" lon="7.25849">
        <ele>822.98</ele>
        <time>2020-09-14T12:30:56.000Z</time>
      </trkpt>
      <trkpt lat="48.23726" lon="7.25836">
        <ele>822.54</ele>
        <time>2020-09-14T12:31:04.000Z</time>
      </trkpt>
      <trkpt lat="48.23726" lon="7.25822">
        <ele>822.51</ele>
        <time>2020-09-14T12:31:12.000Z</time>
      </trkpt>
      <trkpt lat="48.23729" lon="7.25809">
        <ele>822.81</ele>
        <time>2020-09-14T12:31:20.000Z</time>
      </trkpt>
      <trkpt lat="48.23732" lon="7.25794">
        <ele>822.97</ele>
        <time>2020-09-14T12:31:29.000Z</time>
      </trkpt>
      <trkpt lat="48.23734" lon="7.25779">
        <ele>822.74</ele>
        <time>2020-09-14T12:31:38.000Z</time>
      </trkpt>
      <trkpt lat="48.23736" lon="7.25766">
        <ele>822.38</ele>
        <time>2020-09-14T12:31:46.000Z</time>
      </trkpt>
      <trkpt lat="48.23735" lon="7.25751">
        <ele>821.86</ele>
        <time>2020-09-14T12:31:56.000Z</time>
      </trkpt>
      <trkpt lat="48.23736" lon="7.25736">
        <ele>821.54</ele>
        <time>2020-09-14T12:32:04.000Z</time>
      </trkpt>
      <trkpt lat="48.2374" lon="7.25723">
        <ele>821.44</ele>
        <time>2020-09-14T12:32:12.000Z</time>
      </trkpt>
      <trkpt lat="48.23743" lon="7.25709">
        <ele>821.68</ele>
        <time>2020-09-14T12:32:20.000Z</time>
      </trkpt>
      <trkpt lat="48.2375" lon="7.25698">
        <ele>822.7</ele>
        <time>2020-09-14T12:32:26.000Z</time>
      </trkpt>
      <trkpt lat="48.23758" lon="7.2569">
        <ele>823.51</ele>
        <time>2020-09-14T12:32:33.000Z</time>
      </trkpt>
      <trkpt lat="48.23758" lon="7.25676">
        <ele>823.35</ele>
        <time>2020-09-14T12:32:52.000Z</time>
      </trkpt>
      <trkpt lat="48.23764" lon="7.25665">
        <ele>826.8</ele>
        <time>2020-09-14T12:33:40.000Z</time>
      </trkpt>
      <trkpt lat="48.23773" lon="7.25663">
        <ele>828.53</ele>
        <time>2020-09-14T12:34:01.000Z</time>
      </trkpt>
      <trkpt lat="48.23781" lon="7.25659">
        <ele>828.8</ele>
        <time>2020-09-14T12:34:15.000Z</time>
      </trkpt>
      <trkpt lat="48.23787" lon="7.25647">
        <ele>827.44</ele>
        <time>2020-09-14T12:34:26.000Z</time>
      </trkpt>
      <trkpt lat="48.23793" lon="7.25635">
        <ele>826.01</ele>
        <time>2020-09-14T12:34:38.000Z</time>
      </trkpt>
      <trkpt lat="48.238" lon="7.25625">
        <ele>825.37</ele>
        <time>2020-09-14T12:34:48.000Z</time>
      </trkpt>
      <trkpt lat="48.23807" lon="7.25616">
        <ele>824.01</ele>
        <time>2020-09-14T12:34:57.000Z</time>
      </trkpt>
      <trkpt lat="48.23812" lon="7.25604">
        <ele>823.47</ele>
        <time>2020-09-14T12:35:06.000Z</time>
      </trkpt>
      <trkpt lat="48.23817" lon="7.25591">
        <ele>822.67</ele>
        <time>2020-09-14T12:35:14.000Z</time>
      </trkpt>
      <trkpt lat="48.23822" lon="7.25578">
        <ele>821.37</ele>
        <time>2020-09-14T12:35:24.000Z</time>
      </trkpt>
      <trkpt lat="48.23829" lon="7.25568">
        <ele>820.8</ele>
        <time>2020-09-14T12:35:32.000Z</time>
      </trkpt>
      <trkpt lat="48.23832" lon="7.25553">
        <ele>819.36</ele>
        <time>2020-09-14T12:35:41.000Z</time>
      </trkpt>
      <trkpt lat="48.23834" lon="7.25539">
        <ele>815.85</ele>
        <time>2020-09-14T12:35:51.000Z</time>
      </trkpt>
      <trkpt lat="48.23836" lon="7.25525">
        <ele>813.41</ele>
        <time>2020-09-14T12:36:00.000Z</time>
      </trkpt>
      <trkpt lat="48.23836" lon="7.2551">
        <ele>810.51</ele>
        <time>2020-09-14T12:36:10.000Z</time>
      </trkpt>
      <trkpt lat="48.23837" lon="7.25496">
        <ele>808.24</ele>
        <time>2020-09-14T12:36:20.000Z</time>
      </trkpt>
      <trkpt lat="48.23838" lon="7.25482">
        <ele>806.43</ele>
        <time>2020-09-14T12:36:28.000Z</time>
      </trkpt>
      <trkpt lat="48.23838" lon="7.25467">
        <ele>804.98</ele>
        <time>2020-09-14T12:36:36.000Z</time>
      </trkpt>
      <trkpt lat="48.23837" lon="7.25453">
        <ele>802.83</ele>
        <time>2020-09-14T12:36:44.000Z</time>
      </trkpt>
      <trkpt lat="48.23837" lon="7.25439">
        <ele>800.47</ele>
        <time>2020-09-14T12:36:52.000Z</time>
      </trkpt>
      <trkpt lat="48.23832" lon="7.25426">
        <ele>797.47</ele>
        <time>2020-09-14T12:37:01.000Z</time>
      </trkpt>
      <trkpt lat="48.23831" lon="7.25412">
        <ele>794.07</ele>
        <time>2020-09-14T12:37:09.000Z</time>
      </trkpt>
      <trkpt lat="48.23826" lon="7.254">
        <ele>791.44</ele>
        <time>2020-09-14T12:37:17.000Z</time>
      </trkpt>
      <trkpt lat="48.2382" lon="7.25389">
        <ele>789.04</ele>
        <time>2020-09-14T12:37:24.000Z</time>
      </trkpt>
      <trkpt lat="48.23819" lon="7.25375">
        <ele>787.58</ele>
        <time>2020-09-14T12:37:30.000Z</time>
      </trkpt>
      <trkpt lat="48.23814" lon="7.25361">
        <ele>786</ele>
        <time>2020-09-14T12:37:38.000Z</time>
      </trkpt>
      <trkpt lat="48.23809" lon="7.2535">
        <ele>784.75</ele>
        <time>2020-09-14T12:37:45.000Z</time>
      </trkpt>
      <trkpt lat="48.23802" lon="7.25341">
        <ele>783.23</ele>
        <time>2020-09-14T12:37:54.000Z</time>
      </trkpt>
      <trkpt lat="48.23796" lon="7.25331">
        <ele>781.76</ele>
        <time>2020-09-14T12:38:03.000Z</time>
      </trkpt>
      <trkpt lat="48.2379" lon="7.25319">
        <ele>780.09</ele>
        <time>2020-09-14T12:38:12.000Z</time>
      </trkpt>
      <trkpt lat="48.23784" lon="7.25308">
        <ele>779.07</ele>
        <time>2020-09-14T12:38:19.000Z</time>
      </trkpt>
      <trkpt lat="48.23776" lon="7.25298">
        <ele>777.74</ele>
        <time>2020-09-14T12:38:49.000Z</time>
      </trkpt>
      <trkpt lat="48.2377" lon="7.25288">
        <ele>778.33</ele>
        <time>2020-09-14T12:38:57.000Z</time>
      </trkpt>
      <trkpt lat="48.23763" lon="7.25278">
        <ele>778.7</ele>
        <time>2020-09-14T12:39:05.000Z</time>
      </trkpt>
      <trkpt lat="48.23756" lon="7.25266">
        <ele>778.91</ele>
        <time>2020-09-14T12:39:14.000Z</time>
      </trkpt>
      <trkpt lat="48.23748" lon="7.25258">
        <ele>778.64</ele>
        <time>2020-09-14T12:39:22.000Z</time>
      </trkpt>
      <trkpt lat="48.23741" lon="7.25249">
        <ele>777.77</ele>
        <time>2020-09-14T12:39:30.000Z</time>
      </trkpt>
      <trkpt lat="48.23735" lon="7.25238">
        <ele>777.1</ele>
        <time>2020-09-14T12:39:39.000Z</time>
      </trkpt>
      <trkpt lat="48.23727" lon="7.25233">
        <ele>775.36</ele>
        <time>2020-09-14T12:39:48.000Z</time>
      </trkpt>
      <trkpt lat="48.23718" lon="7.25229">
        <ele>774.28</ele>
        <time>2020-09-14T12:39:56.000Z</time>
      </trkpt>
      <trkpt lat="48.2371" lon="7.25222">
        <ele>773.08</ele>
        <time>2020-09-14T12:40:03.000Z</time>
      </trkpt>
      <trkpt lat="48.23701" lon="7.25218">
        <ele>771</ele>
        <time>2020-09-14T12:40:12.000Z</time>
      </trkpt>
      <trkpt lat="48.23692" lon="7.25212">
        <ele>769.68</ele>
        <time>2020-09-14T12:40:20.000Z</time>
      </trkpt>
      <trkpt lat="48.23683" lon="7.25207">
        <ele>768.11</ele>
        <time>2020-09-14T12:40:29.000Z</time>
      </trkpt>
      <trkpt lat="48.23674" lon="7.25201">
        <ele>766.57</ele>
        <time>2020-09-14T12:40:38.000Z</time>
      </trkpt>
      <trkpt lat="48.23665" lon="7.25195">
        <ele>765.79</ele>
        <time>2020-09-14T12:40:48.000Z</time>
      </trkpt>
      <trkpt lat="48.23656" lon="7.25193">
        <ele>764.9</ele>
        <time>2020-09-14T12:40:55.000Z</time>
      </trkpt>
      <trkpt lat="48.23647" lon="7.25188">
        <ele>763.61</ele>
        <time>2020-09-14T12:41:03.000Z</time>
      </trkpt>
      <trkpt lat="48.23639" lon="7.2518">
        <ele>762.38</ele>
        <time>2020-09-14T12:41:10.000Z</time>
      </trkpt>
      <trkpt lat="48.23631" lon="7.25173">
        <ele>761.4</ele>
        <time>2020-09-14T12:41:19.000Z</time>
      </trkpt>
      <trkpt lat="48.23622" lon="7.25169">
        <ele>761.09</ele>
        <time>2020-09-14T12:41:28.000Z</time>
      </trkpt>
      <trkpt lat="48.23612" lon="7.25164">
        <ele>759.8</ele>
        <time>2020-09-14T12:41:36.000Z</time>
      </trkpt>
      <trkpt lat="48.23604" lon="7.25159">
        <ele>758.97</ele>
        <time>2020-09-14T12:41:44.000Z</time>
      </trkpt>
      <trkpt lat="48.23595" lon="7.25153">
        <ele>758.66</ele>
        <time>2020-09-14T12:41:52.000Z</time>
      </trkpt>
      <trkpt lat="48.23586" lon="7.25148">
        <ele>758.34</ele>
        <time>2020-09-14T12:42:01.000Z</time>
      </trkpt>
      <trkpt lat="48.23579" lon="7.25138">
        <ele>758.04</ele>
        <time>2020-09-14T12:42:11.000Z</time>
      </trkpt>
      <trkpt lat="48.23572" lon="7.25128">
        <ele>757.86</ele>
        <time>2020-09-14T12:42:20.000Z</time>
      </trkpt>
      <trkpt lat="48.23562" lon="7.2513">
        <ele>758.29</ele>
        <time>2020-09-14T12:42:36.000Z</time>
      </trkpt>
      <trkpt lat="48.23553" lon="7.25125">
        <ele>761.2</ele>
        <time>2020-09-14T12:42:49.000Z</time>
      </trkpt>
      <trkpt lat="48.23548" lon="7.25112">
        <ele>762.67</ele>
        <time>2020-09-14T12:42:59.000Z</time>
      </trkpt>
      <trkpt lat="48.23542" lon="7.25099">
        <ele>763.55</ele>
        <time>2020-09-14T12:43:06.000Z</time>
      </trkpt>
      <trkpt lat="48.23535" lon="7.2509">
        <ele>763.87</ele>
        <time>2020-09-14T12:43:13.000Z</time>
      </trkpt>
      <trkpt lat="48.2353" lon="7.25078">
        <ele>763.01</ele>
        <time>2020-09-14T12:43:21.000Z</time>
      </trkpt>
      <trkpt lat="48.23524" lon="7.25066">
        <ele>760.85</ele>
        <time>2020-09-14T12:43:29.000Z</time>
      </trkpt>
      <trkpt lat="48.23518" lon="7.25055">
        <ele>758.64</ele>
        <time>2020-09-14T12:43:36.000Z</time>
      </trkpt>
      <trkpt lat="48.23512" lon="7.25042">
        <ele>756.61</ele>
        <time>2020-09-14T12:43:45.000Z</time>
      </trkpt>
      <trkpt lat="48.23506" lon="7.25031">
        <ele>755.3</ele>
        <time>2020-09-14T12:43:53.000Z</time>
      </trkpt>
      <trkpt lat="48.23499" lon="7.25022">
        <ele>753.43</ele>
        <time>2020-09-14T12:44:01.000Z</time>
      </trkpt>
      <trkpt lat="48.23492" lon="7.25012">
        <ele>752.11</ele>
        <time>2020-09-14T12:44:09.000Z</time>
      </trkpt>
      <trkpt lat="48.23485" lon="7.25001">
        <ele>750.03</ele>
        <time>2020-09-14T12:44:17.000Z</time>
      </trkpt>
      <trkpt lat="48.23479" lon="7.24988">
        <ele>748.03</ele>
        <time>2020-09-14T12:44:26.000Z</time>
      </trkpt>
      <trkpt lat="48.23475" lon="7.24975">
        <ele>747.54</ele>
        <time>2020-09-14T12:44:37.000Z</time>
      </trkpt>
      <trkpt lat="48.23474" lon="7.2496">
        <ele>747.12</ele>
        <time>2020-09-14T12:44:47.000Z</time>
      </trkpt>
      <trkpt lat="48.23473" lon="7.24943">
        <ele>745.96</ele>
        <time>2020-09-14T12:44:53.000Z</time>
      </trkpt>
      <trkpt lat="48.23469" lon="7.2493">
        <ele>745.95</ele>
        <time>2020-09-14T12:45:01.000Z</time>
      </trkpt>
      <trkpt lat="48.23467" lon="7.24917">
        <ele>745.57</ele>
        <time>2020-09-14T12:45:09.000Z</time>
      </trkpt>
      <trkpt lat="48.23464" lon="7.24903">
        <ele>744.21</ele>
        <time>2020-09-14T12:45:18.000Z</time>
      </trkpt>
      <trkpt lat="48.2346" lon="7.2489">
        <ele>740.66</ele>
        <time>2020-09-14T12:45:27.000Z</time>
      </trkpt>
      <trkpt lat="48.23457" lon="7.24876">
        <ele>742.12</ele>
        <time>2020-09-14T12:45:47.000Z</time>
      </trkpt>
      <trkpt lat="48.23457" lon="7.24862">
        <ele>741.74</ele>
        <time>2020-09-14T12:45:55.000Z</time>
      </trkpt>
      <trkpt lat="48.23454" lon="7.24849">
        <ele>739.8</ele>
        <time>2020-09-14T12:46:07.000Z</time>
      </trkpt>
      <trkpt lat="48.23451" lon="7.24836">
        <ele>738.19</ele>
        <time>2020-09-14T12:46:17.000Z</time>
      </trkpt>
      <trkpt lat="48.23451" lon="7.2482">
        <ele>736.97</ele>
        <time>2020-09-14T12:46:25.000Z</time>
      </trkpt>
      <trkpt lat="48.23449" lon="7.24807">
        <ele>736.08</ele>
        <time>2020-09-14T12:46:33.000Z</time>
      </trkpt>
      <trkpt lat="48.23446" lon="7.24793">
        <ele>734.8</ele>
        <time>2020-09-14T12:46:41.000Z</time>
      </trkpt>
      <trkpt lat="48.23444" lon="7.24779">
        <ele>733.77</ele>
        <time>2020-09-14T12:46:51.000Z</time>
      </trkpt>
      <trkpt lat="48.23447" lon="7.24766">
        <ele>734.04</ele>
        <time>2020-09-14T12:47:20.000Z</time>
      </trkpt>
      <trkpt lat="48.2345" lon="7.24752">
        <ele>733.86</ele>
        <time>2020-09-14T12:47:27.000Z</time>
      </trkpt>
      <trkpt lat="48.2345" lon="7.24738">
        <ele>732.78</ele>
        <time>2020-09-14T12:47:34.000Z</time>
      </trkpt>
      <trkpt lat="48.2345" lon="7.24723">
        <ele>730.53</ele>
        <time>2020-09-14T12:47:45.000Z</time>
      </trkpt>
      <trkpt lat="48.23451" lon="7.24708">
        <ele>728.92</ele>
        <time>2020-09-14T12:47:54.000Z</time>
      </trkpt>
      <trkpt lat="48.23452" lon="7.24694">
        <ele>727.5</ele>
        <time>2020-09-14T12:48:03.000Z</time>
      </trkpt>
      <trkpt lat="48.23454" lon="7.2468">
        <ele>725.97</ele>
        <time>2020-09-14T12:48:13.000Z</time>
      </trkpt>
      <trkpt lat="48.23455" lon="7.24666">
        <ele>725.29</ele>
        <time>2020-09-14T12:48:20.000Z</time>
      </trkpt>
      <trkpt lat="48.23457" lon="7.24652">
        <ele>724.79</ele>
        <time>2020-09-14T12:48:27.000Z</time>
      </trkpt>
      <trkpt lat="48.23458" lon="7.24638">
        <ele>724.36</ele>
        <time>2020-09-14T12:48:35.000Z</time>
      </trkpt>
      <trkpt lat="48.23458" lon="7.24624">
        <ele>723.5</ele>
        <time>2020-09-14T12:48:43.000Z</time>
      </trkpt>
      <trkpt lat="48.2346" lon="7.24608">
        <ele>721.98</ele>
        <time>2020-09-14T12:48:52.000Z</time>
      </trkpt>
      <trkpt lat="48.23463" lon="7.24594">
        <ele>721</ele>
        <time>2020-09-14T12:48:58.000Z</time>
      </trkpt>
      <trkpt lat="48.23463" lon="7.24581">
        <ele>719.3</ele>
        <time>2020-09-14T12:49:06.000Z</time>
      </trkpt>
      <trkpt lat="48.23461" lon="7.24567">
        <ele>717.78</ele>
        <time>2020-09-14T12:49:12.000Z</time>
      </trkpt>
      <trkpt lat="48.23461" lon="7.24551">
        <ele>716.22</ele>
        <time>2020-09-14T12:49:21.000Z</time>
      </trkpt>
      <trkpt lat="48.23465" lon="7.24537">
        <ele>714.4</ele>
        <time>2020-09-14T12:49:29.000Z</time>
      </trkpt>
      <trkpt lat="48.2347" lon="7.24524">
        <ele>713.37</ele>
        <time>2020-09-14T12:49:36.000Z</time>
      </trkpt>
      <trkpt lat="48.23475" lon="7.24512">
        <ele>712.26</ele>
        <time>2020-09-14T12:49:45.000Z</time>
      </trkpt>
      <trkpt lat="48.23482" lon="7.24502">
        <ele>711.94</ele>
        <time>2020-09-14T12:49:52.000Z</time>
      </trkpt>
      <trkpt lat="48.23487" lon="7.24488">
        <ele>711.47</ele>
        <time>2020-09-14T12:50:01.000Z</time>
      </trkpt>
      <trkpt lat="48.23492" lon="7.24475">
        <ele>710.57</ele>
        <time>2020-09-14T12:50:11.000Z</time>
      </trkpt>
      <trkpt lat="48.23495" lon="7.24462">
        <ele>710.04</ele>
        <time>2020-09-14T12:50:18.000Z</time>
      </trkpt>
      <trkpt lat="48.23498" lon="7.24449">
        <ele>709.76</ele>
        <time>2020-09-14T12:50:26.000Z</time>
      </trkpt>
      <trkpt lat="48.23498" lon="7.24433">
        <ele>708.87</ele>
        <time>2020-09-14T12:50:36.000Z</time>
      </trkpt>
      <trkpt lat="48.23501" lon="7.2442">
        <ele>708.44</ele>
        <time>2020-09-14T12:50:42.000Z</time>
      </trkpt>
      <trkpt lat="48.23504" lon="7.24405">
        <ele>707.28</ele>
        <time>2020-09-14T12:50:50.000Z</time>
      </trkpt>
      <trkpt lat="48.23505" lon="7.24392">
        <ele>706.3</ele>
        <time>2020-09-14T12:50:58.000Z</time>
      </trkpt>
      <trkpt lat="48.23505" lon="7.24377">
        <ele>704.98</ele>
        <time>2020-09-14T12:51:06.000Z</time>
      </trkpt>
      <trkpt lat="48.23501" lon="7.24364">
        <ele>704.63</ele>
        <time>2020-09-14T12:51:14.000Z</time>
      </trkpt>
      <trkpt lat="48.23498" lon="7.2435">
        <ele>701.74</ele>
        <time>2020-09-14T12:51:23.000Z</time>
      </trkpt>
      <trkpt lat="48.23498" lon="7.24336">
        <ele>700.6</ele>
        <time>2020-09-14T12:51:31.000Z</time>
      </trkpt>
      <trkpt lat="48.235" lon="7.24321">
        <ele>700.33</ele>
        <time>2020-09-14T12:51:40.000Z</time>
      </trkpt>
      <trkpt lat="48.23503" lon="7.24307">
        <ele>699.48</ele>
        <time>2020-09-14T12:51:48.000Z</time>
      </trkpt>
      <trkpt lat="48.23501" lon="7.24293">
        <ele>699.45</ele>
        <time>2020-09-14T12:51:57.000Z</time>
      </trkpt>
      <trkpt lat="48.23502" lon="7.24278">
        <ele>698.69</ele>
        <time>2020-09-14T12:52:05.000Z</time>
      </trkpt>
      <trkpt lat="48.23498" lon="7.24266">
        <ele>697.38</ele>
        <time>2020-09-14T12:52:21.000Z</time>
      </trkpt>
      <trkpt lat="48.23493" lon="7.24254">
        <ele>690.98</ele>
        <time>2020-09-14T12:53:02.000Z</time>
      </trkpt>
      <trkpt lat="48.23492" lon="7.2424">
        <ele>689.7</ele>
        <time>2020-09-14T12:53:12.000Z</time>
      </trkpt>
      <trkpt lat="48.23488" lon="7.24228">
        <ele>688.72</ele>
        <time>2020-09-14T12:53:21.000Z</time>
      </trkpt>
      <trkpt lat="48.23484" lon="7.24214">
        <ele>687.12</ele>
        <time>2020-09-14T12:53:31.000Z</time>
      </trkpt>
      <trkpt lat="48.2348" lon="7.24202">
        <ele>685.85</ele>
        <time>2020-09-14T12:53:42.000Z</time>
      </trkpt>
      <trkpt lat="48.23474" lon="7.24188">
        <ele>684.42</ele>
        <time>2020-09-14T12:53:51.000Z</time>
      </trkpt>
      <trkpt lat="48.2347" lon="7.24175">
        <ele>683.45</ele>
        <time>2020-09-14T12:54:03.000Z</time>
      </trkpt>
      <trkpt lat="48.23465" lon="7.24163">
        <ele>680.38</ele>
        <time>2020-09-14T12:54:10.000Z</time>
      </trkpt>
      <trkpt lat="48.23465" lon="7.24148">
        <ele>679.54</ele>
        <time>2020-09-14T12:54:18.000Z</time>
      </trkpt>
      <trkpt lat="48.23458" lon="7.24139">
        <ele>679.98</ele>
        <time>2020-09-14T12:54:43.000Z</time>
      </trkpt>
      <trkpt lat="48.23456" lon="7.24125">
        <ele>678.39</ele>
        <time>2020-09-14T12:54:52.000Z</time>
      </trkpt>
      <trkpt lat="48.23456" lon="7.24111">
        <ele>677.96</ele>
        <time>2020-09-14T12:55:02.000Z</time>
      </trkpt>
      <trkpt lat="48.23452" lon="7.24099">
        <ele>675.91</ele>
        <time>2020-09-14T12:55:14.000Z</time>
      </trkpt>
      <trkpt lat="48.2345" lon="7.24085">
        <ele>673.87</ele>
        <time>2020-09-14T12:55:25.000Z</time>
      </trkpt>
      <trkpt lat="48.23449" lon="7.2407">
        <ele>672.87</ele>
        <time>2020-09-14T12:55:36.000Z</time>
      </trkpt>
      <trkpt lat="48.23449" lon="7.24057">
        <ele>672.24</ele>
        <time>2020-09-14T12:55:43.000Z</time>
      </trkpt>
      <trkpt lat="48.23446" lon="7.24044">
        <ele>671.39</ele>
        <time>2020-09-14T12:55:54.000Z</time>
      </trkpt>
      <trkpt lat="48.23444" lon="7.24029">
        <ele>672.01</ele>
        <time>2020-09-14T12:56:01.000Z</time>
      </trkpt>
      <trkpt lat="48.23447" lon="7.24015">
        <ele>677.83</ele>
        <time>2020-09-14T12:56:08.000Z</time>
      </trkpt>
      <trkpt lat="48.23451" lon="7.24002">
        <ele>683.02</ele>
        <time>2020-09-14T12:56:15.000Z</time>
      </trkpt>
      <trkpt lat="48.2345" lon="7.23988">
        <ele>686.4</ele>
        <time>2020-09-14T12:56:24.000Z</time>
      </trkpt>
      <trkpt lat="48.23449" lon="7.23975">
        <ele>686.67</ele>
        <time>2020-09-14T12:56:32.000Z</time>
      </trkpt>
      <trkpt lat="48.23449" lon="7.2396">
        <ele>687.34</ele>
        <time>2020-09-14T12:56:39.000Z</time>
      </trkpt>
      <trkpt lat="48.23451" lon="7.23944">
        <ele>687.52</ele>
        <time>2020-09-14T12:56:46.000Z</time>
      </trkpt>
      <trkpt lat="48.23453" lon="7.23931">
        <ele>685.82</ele>
        <time>2020-09-14T12:56:55.000Z</time>
      </trkpt>
      <trkpt lat="48.23456" lon="7.23916">
        <ele>686.04</ele>
        <time>2020-09-14T12:57:04.000Z</time>
      </trkpt>
      <trkpt lat="48.2346" lon="7.23903">
        <ele>685.83</ele>
        <time>2020-09-14T12:57:13.000Z</time>
      </trkpt>
      <trkpt lat="48.23465" lon="7.2389">
        <ele>685.93</ele>
        <time>2020-09-14T12:57:22.000Z</time>
      </trkpt>
      <trkpt lat="48.23467" lon="7.23876">
        <ele>684.13</ele>
        <time>2020-09-14T12:57:32.000Z</time>
      </trkpt>
      <trkpt lat="48.23466" lon="7.23862">
        <ele>680.81</ele>
        <time>2020-09-14T12:57:48.000Z</time>
      </trkpt>
      <trkpt lat="48.2347" lon="7.23849">
        <ele>677.97</ele>
        <time>2020-09-14T12:57:56.000Z</time>
      </trkpt>
      <trkpt lat="48.23471" lon="7.23835">
        <ele>674.01</ele>
        <time>2020-09-14T12:58:06.000Z</time>
      </trkpt>
      <trkpt lat="48.23472" lon="7.2382">
        <ele>671.7</ele>
        <time>2020-09-14T12:58:15.000Z</time>
      </trkpt>
      <trkpt lat="48.23474" lon="7.23805">
        <ele>669.93</ele>
        <time>2020-09-14T12:58:22.000Z</time>
      </trkpt>
      <trkpt lat="48.23477" lon="7.23791">
        <ele>668.1</ele>
        <time>2020-09-14T12:58:31.000Z</time>
      </trkpt>
      <trkpt lat="48.23479" lon="7.23776">
        <ele>665.96</ele>
        <time>2020-09-14T12:58:39.000Z</time>
      </trkpt>
      <trkpt lat="48.23481" lon="7.23761">
        <ele>664.1</ele>
        <time>2020-09-14T12:58:47.000Z</time>
      </trkpt>
      <trkpt lat="48.23483" lon="7.23747">
        <ele>662</ele>
        <time>2020-09-14T12:58:57.000Z</time>
      </trkpt>
      <trkpt lat="48.23486" lon="7.23734">
        <ele>659.81</ele>
        <time>2020-09-14T12:59:08.000Z</time>
      </trkpt>
      <trkpt lat="48.2349" lon="7.23722">
        <ele>658.67</ele>
        <time>2020-09-14T12:59:16.000Z</time>
      </trkpt>
      <trkpt lat="48.23492" lon="7.23708">
        <ele>657.6</ele>
        <time>2020-09-14T12:59:23.000Z</time>
      </trkpt>
      <trkpt lat="48.23496" lon="7.23694">
        <ele>656.22</ele>
        <time>2020-09-14T12:59:31.000Z</time>
      </trkpt>
      <trkpt lat="48.23501" lon="7.23683">
        <ele>655.07</ele>
        <time>2020-09-14T12:59:39.000Z</time>
      </trkpt>
      <trkpt lat="48.23508" lon="7.23672">
        <ele>653.89</ele>
        <time>2020-09-14T12:59:48.000Z</time>
      </trkpt>
      <trkpt lat="48.23511" lon="7.23658">
        <ele>652.51</ele>
        <time>2020-09-14T12:59:57.000Z</time>
      </trkpt>
      <trkpt lat="48.23513" lon="7.23644">
        <ele>652.33</ele>
        <time>2020-09-14T13:00:05.000Z</time>
      </trkpt>
      <trkpt lat="48.23513" lon="7.23631">
        <ele>653.02</ele>
        <time>2020-09-14T13:00:13.000Z</time>
      </trkpt>
      <trkpt lat="48.23513" lon="7.23617">
        <ele>653.33</ele>
        <time>2020-09-14T13:00:20.000Z</time>
      </trkpt>
      <trkpt lat="48.23515" lon="7.23603">
        <ele>653.43</ele>
        <time>2020-09-14T13:00:29.000Z</time>
      </trkpt>
      <trkpt lat="48.23518" lon="7.23588">
        <ele>653.8</ele>
        <time>2020-09-14T13:00:36.000Z</time>
      </trkpt>
      <trkpt lat="48.2352" lon="7.23574">
        <ele>654.03</ele>
        <time>2020-09-14T13:00:41.000Z</time>
      </trkpt>
      <trkpt lat="48.23523" lon="7.23561">
        <ele>654.33</ele>
        <time>2020-09-14T13:00:49.000Z</time>
      </trkpt>
      <trkpt lat="48.2353" lon="7.23549">
        <ele>654.64</ele>
        <time>2020-09-14T13:00:58.000Z</time>
      </trkpt>
      <trkpt lat="48.23536" lon="7.23537">
        <ele>654.44</ele>
        <time>2020-09-14T13:01:05.000Z</time>
      </trkpt>
      <trkpt lat="48.23544" lon="7.23529">
        <ele>654.91</ele>
        <time>2020-09-14T13:01:13.000Z</time>
      </trkpt>
      <trkpt lat="48.23552" lon="7.23522">
        <ele>655.5</ele>
        <time>2020-09-14T13:01:21.000Z</time>
      </trkpt>
      <trkpt lat="48.23562" lon="7.23518">
        <ele>656.3</ele>
        <time>2020-09-14T13:01:30.000Z</time>
      </trkpt>
      <trkpt lat="48.23571" lon="7.23516">
        <ele>655.75</ele>
        <time>2020-09-14T13:01:37.000Z</time>
      </trkpt>
      <trkpt lat="48.2358" lon="7.23515">
        <ele>654.67</ele>
        <time>2020-09-14T13:01:46.000Z</time>
      </trkpt>
      <trkpt lat="48.23589" lon="7.23511">
        <ele>654.06</ele>
        <time>2020-09-14T13:01:53.000Z</time>
      </trkpt>
      <trkpt lat="48.23598" lon="7.23508">
        <ele>652.96</ele>
        <time>2020-09-14T13:02:04.000Z</time>
      </trkpt>
      <trkpt lat="48.23608" lon="7.23505">
        <ele>651.48</ele>
        <time>2020-09-14T13:02:13.000Z</time>
      </trkpt>
      <trkpt lat="48.23619" lon="7.23504">
        <ele>651.04</ele>
        <time>2020-09-14T13:02:19.000Z</time>
      </trkpt>
      <trkpt lat="48.23629" lon="7.23502">
        <ele>650.76</ele>
        <time>2020-09-14T13:02:25.000Z</time>
      </trkpt>
      <trkpt lat="48.23638" lon="7.23501">
        <ele>649.7</ele>
        <time>2020-09-14T13:02:32.000Z</time>
      </trkpt>
      <trkpt lat="48.23647" lon="7.23507">
        <ele>647.41</ele>
        <time>2020-09-14T13:02:44.000Z</time>
      </trkpt>
      <trkpt lat="48.23656" lon="7.2351">
        <ele>643.15</ele>
        <time>2020-09-14T13:02:55.000Z</time>
      </trkpt>
      <trkpt lat="48.23666" lon="7.23508">
        <ele>638.47</ele>
        <time>2020-09-14T13:03:09.000Z</time>
      </trkpt>
      <trkpt lat="48.23674" lon="7.23503">
        <ele>634.7</ele>
        <time>2020-09-14T13:03:18.000Z</time>
      </trkpt>
      <trkpt lat="48.23683" lon="7.23498">
        <ele>630.35</ele>
        <time>2020-09-14T13:03:27.000Z</time>
      </trkpt>
      <trkpt lat="48.23692" lon="7.23492">
        <ele>626.62</ele>
        <time>2020-09-14T13:03:38.000Z</time>
      </trkpt>
      <trkpt lat="48.23702" lon="7.23486">
        <ele>625.31</ele>
        <time>2020-09-14T13:03:44.000Z</time>
      </trkpt>
      <trkpt lat="48.2371" lon="7.23478">
        <ele>624.07</ele>
        <time>2020-09-14T13:03:52.000Z</time>
      </trkpt>
      <trkpt lat="48.23717" lon="7.23469">
        <ele>623.01</ele>
        <time>2020-09-14T13:03:58.000Z</time>
      </trkpt>
      <trkpt lat="48.23724" lon="7.23458">
        <ele>622.18</ele>
        <time>2020-09-14T13:04:04.000Z</time>
      </trkpt>
      <trkpt lat="48.23731" lon="7.23448">
        <ele>621.01</ele>
        <time>2020-09-14T13:04:10.000Z</time>
      </trkpt>
      <trkpt lat="48.23736" lon="7.23438">
        <ele>619.9</ele>
        <time>2020-09-14T13:04:18.000Z</time>
      </trkpt>
      <trkpt lat="48.23742" lon="7.23426">
        <ele>619.15</ele>
        <time>2020-09-14T13:04:25.000Z</time>
      </trkpt>
      <trkpt lat="48.23749" lon="7.23416">
        <ele>618.27</ele>
        <time>2020-09-14T13:04:33.000Z</time>
      </trkpt>
      <trkpt lat="48.23755" lon="7.23404">
        <ele>617.4</ele>
        <time>2020-09-14T13:04:41.000Z</time>
      </trkpt>
      <trkpt lat="48.23761" lon="7.23392">
        <ele>616.57</ele>
        <time>2020-09-14T13:04:49.000Z</time>
      </trkpt>
      <trkpt lat="48.23767" lon="7.2338">
        <ele>615.27</ele>
        <time>2020-09-14T13:04:57.000Z</time>
      </trkpt>
      <trkpt lat="48.23771" lon="7.23367">
        <ele>613.57</ele>
        <time>2020-09-14T13:05:06.000Z</time>
      </trkpt>
      <trkpt lat="48.23772" lon="7.23352">
        <ele>612.03</ele>
        <time>2020-09-14T13:05:16.000Z</time>
      </trkpt>
      <trkpt lat="48.23776" lon="7.2334">
        <ele>610.57</ele>
        <time>2020-09-14T13:05:25.000Z</time>
      </trkpt>
      <trkpt lat="48.2378" lon="7.23327">
        <ele>609.6</ele>
        <time>2020-09-14T13:05:34.000Z</time>
      </trkpt>
      <trkpt lat="48.23782" lon="7.23314">
        <ele>608.5</ele>
        <time>2020-09-14T13:05:41.000Z</time>
      </trkpt>
      <trkpt lat="48.23784" lon="7.233">
        <ele>607.2</ele>
        <time>2020-09-14T13:05:48.000Z</time>
      </trkpt>
      <trkpt lat="48.23787" lon="7.23287">
        <ele>605.7</ele>
        <time>2020-09-14T13:05:55.000Z</time>
      </trkpt>
      <trkpt lat="48.23786" lon="7.23272">
        <ele>603.84</ele>
        <time>2020-09-14T13:06:03.000Z</time>
      </trkpt>
      <trkpt lat="48.2378" lon="7.23262">
        <ele>602.6</ele>
        <time>2020-09-14T13:06:11.000Z</time>
      </trkpt>
      <trkpt lat="48.23774" lon="7.2325">
        <ele>600.32</ele>
        <time>2020-09-14T13:06:20.000Z</time>
      </trkpt>
      <trkpt lat="48.23767" lon="7.2324">
        <ele>597.09</ele>
        <time>2020-09-14T13:06:28.000Z</time>
      </trkpt>
      <trkpt lat="48.23775" lon="7.23232">
        <ele>593.97</ele>
        <time>2020-09-14T13:06:52.000Z</time>
      </trkpt>
      <trkpt lat="48.23776" lon="7.23218">
        <ele>593.07</ele>
        <time>2020-09-14T13:07:00.000Z</time>
      </trkpt>
      <trkpt lat="48.23773" lon="7.23204">
        <ele>591.8</ele>
        <time>2020-09-14T13:07:10.000Z</time>
      </trkpt>
      <trkpt lat="48.2377" lon="7.23191">
        <ele>590.3</ele>
        <time>2020-09-14T13:07:18.000Z</time>
      </trkpt>
      <trkpt lat="48.23766" lon="7.23176">
        <ele>589.27</ele>
        <time>2020-09-14T13:07:27.000Z</time>
      </trkpt>
      <trkpt lat="48.23763" lon="7.23163">
        <ele>587.98</ele>
        <time>2020-09-14T13:07:36.000Z</time>
      </trkpt>
      <trkpt lat="48.23766" lon="7.2315">
        <ele>589.12</ele>
        <time>2020-09-14T13:07:50.000Z</time>
      </trkpt>
      <trkpt lat="48.23764" lon="7.23136">
        <ele>589.67</ele>
        <time>2020-09-14T13:08:01.000Z</time>
      </trkpt>
      <trkpt lat="48.23758" lon="7.23123">
        <ele>588.5</ele>
        <time>2020-09-14T13:08:09.000Z</time>
      </trkpt>
      <trkpt lat="48.23755" lon="7.2311">
        <ele>587.7</ele>
        <time>2020-09-14T13:08:17.000Z</time>
      </trkpt>
      <trkpt lat="48.23753" lon="7.23097">
        <ele>586.78</ele>
        <time>2020-09-14T13:08:24.000Z</time>
      </trkpt>
      <trkpt lat="48.23752" lon="7.23082">
        <ele>584.76</ele>
        <time>2020-09-14T13:08:32.000Z</time>
      </trkpt>
      <trkpt lat="48.23751" lon="7.23069">
        <ele>583.08</ele>
        <time>2020-09-14T13:08:41.000Z</time>
      </trkpt>
      <trkpt lat="48.23749" lon="7.23056">
        <ele>581.2</ele>
        <time>2020-09-14T13:08:51.000Z</time>
      </trkpt>
      <trkpt lat="48.23749" lon="7.23042">
        <ele>579.81</ele>
        <time>2020-09-14T13:08:59.000Z</time>
      </trkpt>
      <trkpt lat="48.23748" lon="7.23028">
        <ele>578.02</ele>
        <time>2020-09-14T13:09:08.000Z</time>
      </trkpt>
      <trkpt lat="48.23745" lon="7.23015">
        <ele>576.63</ele>
        <time>2020-09-14T13:09:15.000Z</time>
      </trkpt>
      <trkpt lat="48.2374" lon="7.23003">
        <ele>574.58</ele>
        <time>2020-09-14T13:09:23.000Z</time>
      </trkpt>
      <trkpt lat="48.23738" lon="7.2299">
        <ele>572.68</ele>
        <time>2020-09-14T13:09:33.000Z</time>
      </trkpt>
      <trkpt lat="48.23734" lon="7.22977">
        <ele>570.68</ele>
        <time>2020-09-14T13:09:43.000Z</time>
      </trkpt>
      <trkpt lat="48.2373" lon="7.22965">
        <ele>568.83</ele>
        <time>2020-09-14T13:09:51.000Z</time>
      </trkpt>
      <trkpt lat="48.23725" lon="7.22952">
        <ele>567</ele>
        <time>2020-09-14T13:09:59.000Z</time>
      </trkpt>
      <trkpt lat="48.23719" lon="7.22941">
        <ele>564.94</ele>
        <time>2020-09-14T13:10:08.000Z</time>
      </trkpt>
      <trkpt lat="48.23712" lon="7.22931">
        <ele>563.18</ele>
        <time>2020-09-14T13:10:17.000Z</time>
      </trkpt>
      <trkpt lat="48.23704" lon="7.22923">
        <ele>562.26</ele>
        <time>2020-09-14T13:10:31.000Z</time>
      </trkpt>
      <trkpt lat="48.23698" lon="7.22913">
        <ele>564.31</ele>
        <time>2020-09-14T13:10:43.000Z</time>
      </trkpt>
      <trkpt lat="48.23688" lon="7.2291">
        <ele>566.38</ele>
        <time>2020-09-14T13:10:56.000Z</time>
      </trkpt>
      <trkpt lat="48.23679" lon="7.22905">
        <ele>568.61</ele>
        <time>2020-09-14T13:11:04.000Z</time>
      </trkpt>
      <trkpt lat="48.2367" lon="7.229">
        <ele>570.53</ele>
        <time>2020-09-14T13:11:10.000Z</time>
      </trkpt>
      <trkpt lat="48.23663" lon="7.22892">
        <ele>572.04</ele>
        <time>2020-09-14T13:11:17.000Z</time>
      </trkpt>
      <trkpt lat="48.23653" lon="7.22886">
        <ele>573.46</ele>
        <time>2020-09-14T13:11:23.000Z</time>
      </trkpt>
      <trkpt lat="48.23644" lon="7.2288">
        <ele>574.85</ele>
        <time>2020-09-14T13:11:28.000Z</time>
      </trkpt>
      <trkpt lat="48.23635" lon="7.22876">
        <ele>576.08</ele>
        <time>2020-09-14T13:11:35.000Z</time>
      </trkpt>
      <trkpt lat="48.23625" lon="7.22872">
        <ele>577.2</ele>
        <time>2020-09-14T13:11:45.000Z</time>
      </trkpt>
      <trkpt lat="48.23616" lon="7.22866">
        <ele>577.78</ele>
        <time>2020-09-14T13:11:52.000Z</time>
      </trkpt>
      <trkpt lat="48.23607" lon="7.22858">
        <ele>578.5</ele>
        <time>2020-09-14T13:11:58.000Z</time>
      </trkpt>
      <trkpt lat="48.23597" lon="7.22852">
        <ele>579.73</ele>
        <time>2020-09-14T13:12:07.000Z</time>
      </trkpt>
      <trkpt lat="48.23588" lon="7.22849">
        <ele>580.6</ele>
        <time>2020-09-14T13:12:17.000Z</time>
      </trkpt>
      <trkpt lat="48.23579" lon="7.22849">
        <ele>581.68</ele>
        <time>2020-09-14T13:12:27.000Z</time>
      </trkpt>
      <trkpt lat="48.2357" lon="7.22855">
        <ele>582.63</ele>
        <time>2020-09-14T13:12:37.000Z</time>
      </trkpt>
      <trkpt lat="48.23563" lon="7.22865">
        <ele>582.91</ele>
        <time>2020-09-14T13:12:46.000Z</time>
      </trkpt>
      <trkpt lat="48.23555" lon="7.22874">
        <ele>583.8</ele>
        <time>2020-09-14T13:12:56.000Z</time>
      </trkpt>
      <trkpt lat="48.23544" lon="7.22872">
        <ele>584.13</ele>
        <time>2020-09-14T13:13:06.000Z</time>
      </trkpt>
      <trkpt lat="48.23535" lon="7.2287">
        <ele>584.6</ele>
        <time>2020-09-14T13:13:14.000Z</time>
      </trkpt>
      <trkpt lat="48.23525" lon="7.22868">
        <ele>585.23</ele>
        <time>2020-09-14T13:13:21.000Z</time>
      </trkpt>
      <trkpt lat="48.23516" lon="7.22868">
        <ele>585.91</ele>
        <time>2020-09-14T13:13:29.000Z</time>
      </trkpt>
      <trkpt lat="48.23507" lon="7.2287">
        <ele>586.14</ele>
        <time>2020-09-14T13:13:38.000Z</time>
      </trkpt>
      <trkpt lat="48.23497" lon="7.2287">
        <ele>586.53</ele>
        <time>2020-09-14T13:13:47.000Z</time>
      </trkpt>
      <trkpt lat="48.23486" lon="7.22867">
        <ele>586.01</ele>
        <time>2020-09-14T13:13:52.000Z</time>
      </trkpt>
      <trkpt lat="48.23477" lon="7.22864">
        <ele>585.76</ele>
        <time>2020-09-14T13:14:02.000Z</time>
      </trkpt>
      <trkpt lat="48.23467" lon="7.22861">
        <ele>585.47</ele>
        <time>2020-09-14T13:14:10.000Z</time>
      </trkpt>
      <trkpt lat="48.23458" lon="7.22861">
        <ele>585.53</ele>
        <time>2020-09-14T13:14:18.000Z</time>
      </trkpt>
      <trkpt lat="48.23448" lon="7.22859">
        <ele>585.53</ele>
        <time>2020-09-14T13:14:26.000Z</time>
      </trkpt>
      <trkpt lat="48.23438" lon="7.22858">
        <ele>585.43</ele>
        <time>2020-09-14T13:14:34.000Z</time>
      </trkpt>
      <trkpt lat="48.2343" lon="7.22862">
        <ele>585.06</ele>
        <time>2020-09-14T13:14:46.000Z</time>
      </trkpt>
      <trkpt lat="48.23422" lon="7.2287">
        <ele>584.93</ele>
        <time>2020-09-14T13:14:55.000Z</time>
      </trkpt>
      <trkpt lat="48.23412" lon="7.22875">
        <ele>584.85</ele>
        <time>2020-09-14T13:15:05.000Z</time>
      </trkpt>
      <trkpt lat="48.23402" lon="7.22873">
        <ele>584.74</ele>
        <time>2020-09-14T13:15:14.000Z</time>
      </trkpt>
      <trkpt lat="48.23392" lon="7.22871">
        <ele>584.05</ele>
        <time>2020-09-14T13:15:22.000Z</time>
      </trkpt>
      <trkpt lat="48.23383" lon="7.22873">
        <ele>583.19</ele>
        <time>2020-09-14T13:15:30.000Z</time>
      </trkpt>
      <trkpt lat="48.23374" lon="7.22872">
        <ele>582.77</ele>
        <time>2020-09-14T13:15:35.000Z</time>
      </trkpt>
      <trkpt lat="48.23365" lon="7.22872">
        <ele>581.7</ele>
        <time>2020-09-14T13:15:42.000Z</time>
      </trkpt>
      <trkpt lat="48.23355" lon="7.22872">
        <ele>580.67</ele>
        <time>2020-09-14T13:15:48.000Z</time>
      </trkpt>
      <trkpt lat="48.23346" lon="7.22871">
        <ele>580.14</ele>
        <time>2020-09-14T13:15:53.000Z</time>
      </trkpt>
      <trkpt lat="48.23337" lon="7.22863">
        <ele>579.54</ele>
        <time>2020-09-14T13:15:59.000Z</time>
      </trkpt>
      <trkpt lat="48.23339" lon="7.22849">
        <ele>577.99</ele>
        <time>2020-09-14T13:16:10.000Z</time>
      </trkpt>
      <trkpt lat="48.23345" lon="7.22838">
        <ele>576.71</ele>
        <time>2020-09-14T13:16:16.000Z</time>
      </trkpt>
      <trkpt lat="48.23354" lon="7.22837">
        <ele>575.7</ele>
        <time>2020-09-14T13:16:22.000Z</time>
      </trkpt>
      <trkpt lat="48.23361" lon="7.22826">
        <ele>573.63</ele>
        <time>2020-09-14T13:16:31.000Z</time>
      </trkpt>
      <trkpt lat="48.2337" lon="7.2282">
        <ele>571.4</ele>
        <time>2020-09-14T13:16:42.000Z</time>
      </trkpt>
      <trkpt lat="48.23378" lon="7.22814">
        <ele>569.4</ele>
        <time>2020-09-14T13:16:53.000Z</time>
      </trkpt>
      <trkpt lat="48.23385" lon="7.22803">
        <ele>566.17</ele>
        <time>2020-09-14T13:17:08.000Z</time>
      </trkpt>
      <trkpt lat="48.23393" lon="7.22795">
        <ele>564.18</ele>
        <time>2020-09-14T13:17:19.000Z</time>
      </trkpt>
      <trkpt lat="48.23399" lon="7.22782">
        <ele>562.07</ele>
        <time>2020-09-14T13:17:27.000Z</time>
      </trkpt>
      <trkpt lat="48.23406" lon="7.22773">
        <ele>561.26</ele>
        <time>2020-09-14T13:17:35.000Z</time>
      </trkpt>
      <trkpt lat="48.23414" lon="7.22763">
        <ele>560.32</ele>
        <time>2020-09-14T13:17:42.000Z</time>
      </trkpt>
      <trkpt lat="48.23421" lon="7.22752">
        <ele>559.17</ele>
        <time>2020-09-14T13:17:49.000Z</time>
      </trkpt>
      <trkpt lat="48.23428" lon="7.22744">
        <ele>559.28</ele>
        <time>2020-09-14T13:17:56.000Z</time>
      </trkpt>
      <trkpt lat="48.23436" lon="7.22736">
        <ele>560.09</ele>
        <time>2020-09-14T13:18:02.000Z</time>
      </trkpt>
      <trkpt lat="48.23443" lon="7.22725">
        <ele>561.37</ele>
        <time>2020-09-14T13:18:12.000Z</time>
      </trkpt>
      <trkpt lat="48.23447" lon="7.22713">
        <ele>562.77</ele>
        <time>2020-09-14T13:18:21.000Z</time>
      </trkpt>
      <trkpt lat="48.23451" lon="7.227">
        <ele>563.48</ele>
        <time>2020-09-14T13:18:29.000Z</time>
      </trkpt>
      <trkpt lat="48.23448" lon="7.22685">
        <ele>562.62</ele>
        <time>2020-09-14T13:18:36.000Z</time>
      </trkpt>
      <trkpt lat="48.23446" lon="7.22671">
        <ele>562.18</ele>
        <time>2020-09-14T13:18:43.000Z</time>
      </trkpt>
      <trkpt lat="48.23443" lon="7.22658">
        <ele>561.1</ele>
        <time>2020-09-14T13:18:51.000Z</time>
      </trkpt>
      <trkpt lat="48.2344" lon="7.22645">
        <ele>561.03</ele>
        <time>2020-09-14T13:18:58.000Z</time>
      </trkpt>
      <trkpt lat="48.23439" lon="7.22631">
        <ele>561.72</ele>
        <time>2020-09-14T13:19:06.000Z</time>
      </trkpt>
      <trkpt lat="48.23437" lon="7.22618">
        <ele>561.78</ele>
        <time>2020-09-14T13:19:14.000Z</time>
      </trkpt>
      <trkpt lat="48.23437" lon="7.22603">
        <ele>560.94</ele>
        <time>2020-09-14T13:19:20.000Z</time>
      </trkpt>
      <trkpt lat="48.23432" lon="7.22592">
        <ele>560.74</ele>
        <time>2020-09-14T13:19:28.000Z</time>
      </trkpt>
      <trkpt lat="48.23428" lon="7.22579">
        <ele>560.42</ele>
        <time>2020-09-14T13:19:36.000Z</time>
      </trkpt>
      <trkpt lat="48.23422" lon="7.22568">
        <ele>560.32</ele>
        <time>2020-09-14T13:19:43.000Z</time>
      </trkpt>
      <trkpt lat="48.23418" lon="7.22555">
        <ele>560.03</ele>
        <time>2020-09-14T13:19:51.000Z</time>
      </trkpt>
      <trkpt lat="48.23416" lon="7.2254">
        <ele>560.23</ele>
        <time>2020-09-14T13:19:58.000Z</time>
      </trkpt>
      <trkpt lat="48.23412" lon="7.22526">
        <ele>560.63</ele>
        <time>2020-09-14T13:20:07.000Z</time>
      </trkpt>
      <trkpt lat="48.23413" lon="7.22511">
        <ele>560.74</ele>
        <time>2020-09-14T13:20:15.000Z</time>
      </trkpt>
      <trkpt lat="48.23423" lon="7.22497">
        <ele>553.03</ele>
        <time>2020-09-14T13:20:20.000Z</time>
      </trkpt>
      <trkpt lat="48.23431" lon="7.22489">
        <ele>551.2</ele>
        <time>2020-09-14T13:20:31.000Z</time>
      </trkpt>
      <trkpt lat="48.23441" lon="7.22492">
        <ele>549.7</ele>
        <time>2020-09-14T13:20:42.000Z</time>
      </trkpt>
      <trkpt lat="48.23449" lon="7.22498">
        <ele>547.96</ele>
        <time>2020-09-14T13:20:48.000Z</time>
      </trkpt>
      <trkpt lat="48.23458" lon="7.22505">
        <ele>546.8</ele>
        <time>2020-09-14T13:20:54.000Z</time>
      </trkpt>
      <trkpt lat="48.23464" lon="7.22514">
        <ele>545.94</ele>
        <time>2020-09-14T13:21:01.000Z</time>
      </trkpt>
      <trkpt lat="48.23472" lon="7.22521">
        <ele>544.82</ele>
        <time>2020-09-14T13:21:07.000Z</time>
      </trkpt>
      <trkpt lat="48.23482" lon="7.22523">
        <ele>544.14</ele>
        <time>2020-09-14T13:21:12.000Z</time>
      </trkpt>
      <trkpt lat="48.23491" lon="7.22526">
        <ele>542.57</ele>
        <time>2020-09-14T13:21:22.000Z</time>
      </trkpt>
      <trkpt lat="48.23498" lon="7.22537">
        <ele>539.22</ele>
        <time>2020-09-14T13:21:30.000Z</time>
      </trkpt>
      <trkpt lat="48.23507" lon="7.2254">
        <ele>536.14</ele>
        <time>2020-09-14T13:21:40.000Z</time>
      </trkpt>
      <trkpt lat="48.23516" lon="7.22536">
        <ele>534.11</ele>
        <time>2020-09-14T13:21:47.000Z</time>
      </trkpt>
      <trkpt lat="48.23525" lon="7.2253">
        <ele>531.96</ele>
        <time>2020-09-14T13:21:53.000Z</time>
      </trkpt>
      <trkpt lat="48.23534" lon="7.22528">
        <ele>528.7</ele>
        <time>2020-09-14T13:22:03.000Z</time>
      </trkpt>
      <trkpt lat="48.23543" lon="7.22524">
        <ele>525.77</ele>
        <time>2020-09-14T13:22:15.000Z</time>
      </trkpt>
      <trkpt lat="48.23552" lon="7.22518">
        <ele>523.01</ele>
        <time>2020-09-14T13:22:24.000Z</time>
      </trkpt>
      <trkpt lat="48.23561" lon="7.22512">
        <ele>521.95</ele>
        <time>2020-09-14T13:22:31.000Z</time>
      </trkpt>
      <trkpt lat="48.23569" lon="7.22506">
        <ele>521.81</ele>
        <time>2020-09-14T13:22:37.000Z</time>
      </trkpt>
      <trkpt lat="48.23578" lon="7.22498">
        <ele>521.83</ele>
        <time>2020-09-14T13:22:44.000Z</time>
      </trkpt>
      <trkpt lat="48.23586" lon="7.2249">
        <ele>522.02</ele>
        <time>2020-09-14T13:22:53.000Z</time>
      </trkpt>
      <trkpt lat="48.23595" lon="7.22486">
        <ele>521.31</ele>
        <time>2020-09-14T13:23:02.000Z</time>
      </trkpt>
      <trkpt lat="48.23603" lon="7.22481">
        <ele>521.34</ele>
        <time>2020-09-14T13:23:09.000Z</time>
      </trkpt>
      <trkpt lat="48.2361" lon="7.2247">
        <ele>520.86</ele>
        <time>2020-09-14T13:23:21.000Z</time>
      </trkpt>
      <trkpt lat="48.23618" lon="7.22461">
        <ele>520.74</ele>
        <time>2020-09-14T13:23:28.000Z</time>
      </trkpt>
      <trkpt lat="48.23625" lon="7.22451">
        <ele>520.9</ele>
        <time>2020-09-14T13:23:34.000Z</time>
      </trkpt>
      <trkpt lat="48.2363" lon="7.22438">
        <ele>520.54</ele>
        <time>2020-09-14T13:23:44.000Z</time>
      </trkpt>
      <trkpt lat="48.23638" lon="7.22428">
        <ele>520.71</ele>
        <time>2020-09-14T13:23:50.000Z</time>
      </trkpt>
      <trkpt lat="48.23645" lon="7.22418">
        <ele>520.74</ele>
        <time>2020-09-14T13:23:57.000Z</time>
      </trkpt>
      <trkpt lat="48.23651" lon="7.22407">
        <ele>521.57</ele>
        <time>2020-09-14T13:24:04.000Z</time>
      </trkpt>
      <trkpt lat="48.23659" lon="7.22399">
        <ele>522.68</ele>
        <time>2020-09-14T13:24:12.000Z</time>
      </trkpt>
      <trkpt lat="48.23665" lon="7.22386">
        <ele>522.87</ele>
        <time>2020-09-14T13:24:20.000Z</time>
      </trkpt>
      <trkpt lat="48.23671" lon="7.22374">
        <ele>523.13</ele>
        <time>2020-09-14T13:24:27.000Z</time>
      </trkpt>
      <trkpt lat="48.23674" lon="7.22361">
        <ele>523.37</ele>
        <time>2020-09-14T13:24:38.000Z</time>
      </trkpt>
      <trkpt lat="48.23681" lon="7.22351">
        <ele>524.21</ele>
        <time>2020-09-14T13:24:50.000Z</time>
      </trkpt>
      <trkpt lat="48.23688" lon="7.22342">
        <ele>525.08</ele>
        <time>2020-09-14T13:24:57.000Z</time>
      </trkpt>
      <trkpt lat="48.23694" lon="7.22331">
        <ele>524.83</ele>
        <time>2020-09-14T13:25:07.000Z</time>
      </trkpt>
      <trkpt lat="48.23704" lon="7.22325">
        <ele>526.73</ele>
        <time>2020-09-14T13:25:15.000Z</time>
      </trkpt>
      <trkpt lat="48.23713" lon="7.22321">
        <ele>528.04</ele>
        <time>2020-09-14T13:25:22.000Z</time>
      </trkpt>
      <trkpt lat="48.23721" lon="7.22313">
        <ele>528.64</ele>
        <time>2020-09-14T13:25:28.000Z</time>
      </trkpt>
      <trkpt lat="48.23729" lon="7.22307">
        <ele>529</ele>
        <time>2020-09-14T13:25:37.000Z</time>
      </trkpt>
      <trkpt lat="48.23738" lon="7.22302">
        <ele>528.19</ele>
        <time>2020-09-14T13:25:47.000Z</time>
      </trkpt>
      <trkpt lat="48.23748" lon="7.22301">
        <ele>527.94</ele>
        <time>2020-09-14T13:26:02.000Z</time>
      </trkpt>
      <trkpt lat="48.23757" lon="7.22299">
        <ele>528.12</ele>
        <time>2020-09-14T13:26:13.000Z</time>
      </trkpt>
      <trkpt lat="48.23766" lon="7.22298">
        <ele>526.87</ele>
        <time>2020-09-14T13:26:27.000Z</time>
      </trkpt>
      <trkpt lat="48.23775" lon="7.2229">
        <ele>526.57</ele>
        <time>2020-09-14T13:26:39.000Z</time>
      </trkpt>
      <trkpt lat="48.23782" lon="7.2228">
        <ele>525.87</ele>
        <time>2020-09-14T13:26:45.000Z</time>
      </trkpt>
      <trkpt lat="48.23785" lon="7.22267">
        <ele>525.24</ele>
        <time>2020-09-14T13:26:52.000Z</time>
      </trkpt>
      <trkpt lat="48.23789" lon="7.22254">
        <ele>524.67</ele>
        <time>2020-09-14T13:27:00.000Z</time>
      </trkpt>
      <trkpt lat="48.23796" lon="7.22245">
        <ele>524.29</ele>
        <time>2020-09-14T13:27:07.000Z</time>
      </trkpt>
      <trkpt lat="48.23799" lon="7.22232">
        <ele>523.53</ele>
        <time>2020-09-14T13:27:16.000Z</time>
      </trkpt>
      <trkpt lat="48.23805" lon="7.22221">
        <ele>523.77</ele>
        <time>2020-09-14T13:27:25.000Z</time>
      </trkpt>
      <trkpt lat="48.23811" lon="7.2221">
        <ele>522.94</ele>
        <time>2020-09-14T13:27:35.000Z</time>
      </trkpt>
      <trkpt lat="48.23819" lon="7.22201">
        <ele>523.87</ele>
        <time>2020-09-14T13:27:41.000Z</time>
      </trkpt>
      <trkpt lat="48.23827" lon="7.22192">
        <ele>525.2</ele>
        <time>2020-09-14T13:27:49.000Z</time>
      </trkpt>
      <trkpt lat="48.23833" lon="7.22181">
        <ele>525.44</ele>
        <time>2020-09-14T13:27:59.000Z</time>
      </trkpt>
      <trkpt lat="48.23842" lon="7.22174">
        <ele>525.81</ele>
        <time>2020-09-14T13:28:07.000Z</time>
      </trkpt>
      <trkpt lat="48.23852" lon="7.2217">
        <ele>526.97</ele>
        <time>2020-09-14T13:28:16.000Z</time>
      </trkpt>
      <trkpt lat="48.23861" lon="7.22169">
        <ele>528.89</ele>
        <time>2020-09-14T13:28:24.000Z</time>
      </trkpt>
      <trkpt lat="48.23871" lon="7.22174">
        <ele>529.38</ele>
        <time>2020-09-14T13:28:32.000Z</time>
      </trkpt>
      <trkpt lat="48.23879" lon="7.22179">
        <ele>529.72</ele>
        <time>2020-09-14T13:28:39.000Z</time>
      </trkpt>
      <trkpt lat="48.23885" lon="7.2219">
        <ele>529.92</ele>
        <time>2020-09-14T13:28:46.000Z</time>
      </trkpt>
      <trkpt lat="48.2389" lon="7.22202">
        <ele>529.38</ele>
        <time>2020-09-14T13:28:52.000Z</time>
      </trkpt>
      <trkpt lat="48.23897" lon="7.22212">
        <ele>530.88</ele>
        <time>2020-09-14T13:29:01.000Z</time>
      </trkpt>
      <trkpt lat="48.23903" lon="7.22223">
        <ele>532.44</ele>
        <time>2020-09-14T13:29:13.000Z</time>
      </trkpt>
      <trkpt lat="48.23911" lon="7.2223">
        <ele>532.74</ele>
        <time>2020-09-14T13:29:25.000Z</time>
      </trkpt>
      <trkpt lat="48.2392" lon="7.22228">
        <ele>532.47</ele>
        <time>2020-09-14T13:29:34.000Z</time>
      </trkpt>
      <trkpt lat="48.2393" lon="7.22224">
        <ele>532.51</ele>
        <time>2020-09-14T13:29:43.000Z</time>
      </trkpt>
      <trkpt lat="48.23939" lon="7.22218">
        <ele>532.69</ele>
        <time>2020-09-14T13:29:57.000Z</time>
      </trkpt>
      <trkpt lat="48.23949" lon="7.22212">
        <ele>533.11</ele>
        <time>2020-09-14T13:30:05.000Z</time>
      </trkpt>
      <trkpt lat="48.23958" lon="7.22207">
        <ele>533.72</ele>
        <time>2020-09-14T13:30:13.000Z</time>
      </trkpt>
      <trkpt lat="48.23967" lon="7.222">
        <ele>534.13</ele>
        <time>2020-09-14T13:30:22.000Z</time>
      </trkpt>
      <trkpt lat="48.23974" lon="7.22192">
        <ele>534.91</ele>
        <time>2020-09-14T13:30:28.000Z</time>
      </trkpt>
      <trkpt lat="48.2398" lon="7.22179">
        <ele>535.34</ele>
        <time>2020-09-14T13:30:35.000Z</time>
      </trkpt>
      <trkpt lat="48.23988" lon="7.2217">
        <ele>535.81</ele>
        <time>2020-09-14T13:30:45.000Z</time>
      </trkpt>
      <trkpt lat="48.23996" lon="7.22163">
        <ele>536.6</ele>
        <time>2020-09-14T13:30:50.000Z</time>
      </trkpt>
      <trkpt lat="48.24006" lon="7.22158">
        <ele>537.46</ele>
        <time>2020-09-14T13:30:57.000Z</time>
      </trkpt>
      <trkpt lat="48.24015" lon="7.22156">
        <ele>537.86</ele>
        <time>2020-09-14T13:31:05.000Z</time>
      </trkpt>
      <trkpt lat="48.24025" lon="7.22155">
        <ele>539.47</ele>
        <time>2020-09-14T13:31:13.000Z</time>
      </trkpt>
      <trkpt lat="48.24034" lon="7.22151">
        <ele>540.21</ele>
        <time>2020-09-14T13:31:21.000Z</time>
      </trkpt>
      <trkpt lat="48.24043" lon="7.22147">
        <ele>540.78</ele>
        <time>2020-09-14T13:31:28.000Z</time>
      </trkpt>
      <trkpt lat="48.24052" lon="7.22145">
        <ele>542.34</ele>
        <time>2020-09-14T13:31:37.000Z</time>
      </trkpt>
      <trkpt lat="48.24062" lon="7.22142">
        <ele>543.37</ele>
        <time>2020-09-14T13:31:44.000Z</time>
      </trkpt>
      <trkpt lat="48.24071" lon="7.22139">
        <ele>544.6</ele>
        <time>2020-09-14T13:31:51.000Z</time>
      </trkpt>
      <trkpt lat="48.24078" lon="7.2213">
        <ele>545.78</ele>
        <time>2020-09-14T13:32:01.000Z</time>
      </trkpt>
      <trkpt lat="48.24085" lon="7.22119">
        <ele>546.61</ele>
        <time>2020-09-14T13:32:08.000Z</time>
      </trkpt>
      <trkpt lat="48.24092" lon="7.2211">
        <ele>546.74</ele>
        <time>2020-09-14T13:32:15.000Z</time>
      </trkpt>
      <trkpt lat="48.24099" lon="7.22099">
        <ele>547.01</ele>
        <time>2020-09-14T13:32:21.000Z</time>
      </trkpt>
      <trkpt lat="48.24105" lon="7.22086">
        <ele>547.34</ele>
        <time>2020-09-14T13:32:30.000Z</time>
      </trkpt>
      <trkpt lat="48.24111" lon="7.22076">
        <ele>547.83</ele>
        <time>2020-09-14T13:32:36.000Z</time>
      </trkpt>
      <trkpt lat="48.24116" lon="7.22063">
        <ele>547.91</ele>
        <time>2020-09-14T13:32:43.000Z</time>
      </trkpt>
      <trkpt lat="48.24119" lon="7.2205">
        <ele>548.64</ele>
        <time>2020-09-14T13:32:51.000Z</time>
      </trkpt>
      <trkpt lat="48.24125" lon="7.22038">
        <ele>548.36</ele>
        <time>2020-09-14T13:32:58.000Z</time>
      </trkpt>
      <trkpt lat="48.24131" lon="7.22026">
        <ele>548.71</ele>
        <time>2020-09-14T13:33:05.000Z</time>
      </trkpt>
      <trkpt lat="48.24137" lon="7.22014">
        <ele>550.02</ele>
        <time>2020-09-14T13:33:13.000Z</time>
      </trkpt>
      <trkpt lat="48.24142" lon="7.22001">
        <ele>551.81</ele>
        <time>2020-09-14T13:33:23.000Z</time>
      </trkpt>
      <trkpt lat="48.24147" lon="7.21989">
        <ele>552.09</ele>
        <time>2020-09-14T13:33:32.000Z</time>
      </trkpt>
      <trkpt lat="48.24154" lon="7.21979">
        <ele>552.81</ele>
        <time>2020-09-14T13:33:43.000Z</time>
      </trkpt>
      <trkpt lat="48.24162" lon="7.2197">
        <ele>553.31</ele>
        <time>2020-09-14T13:33:52.000Z</time>
      </trkpt>
      <trkpt lat="48.2417" lon="7.2196">
        <ele>554.08</ele>
        <time>2020-09-14T13:33:59.000Z</time>
      </trkpt>
      <trkpt lat="48.24177" lon="7.21949">
        <ele>554.8</ele>
        <time>2020-09-14T13:34:06.000Z</time>
      </trkpt>
      <trkpt lat="48.24183" lon="7.21938">
        <ele>555.44</ele>
        <time>2020-09-14T13:34:14.000Z</time>
      </trkpt>
      <trkpt lat="48.24192" lon="7.21929">
        <ele>556.57</ele>
        <time>2020-09-14T13:34:22.000Z</time>
      </trkpt>
      <trkpt lat="48.24198" lon="7.21919">
        <ele>557.75</ele>
        <time>2020-09-14T13:34:29.000Z</time>
      </trkpt>
      <trkpt lat="48.24207" lon="7.21912">
        <ele>560.2</ele>
        <time>2020-09-14T13:34:38.000Z</time>
      </trkpt>
      <trkpt lat="48.24215" lon="7.21903">
        <ele>561.12</ele>
        <time>2020-09-14T13:34:46.000Z</time>
      </trkpt>
      <trkpt lat="48.24224" lon="7.21897">
        <ele>562.95</ele>
        <time>2020-09-14T13:34:52.000Z</time>
      </trkpt>
      <trkpt lat="48.24233" lon="7.21891">
        <ele>564.33</ele>
        <time>2020-09-14T13:35:01.000Z</time>
      </trkpt>
      <trkpt lat="48.24242" lon="7.21886">
        <ele>564.19</ele>
        <time>2020-09-14T13:35:09.000Z</time>
      </trkpt>
      <trkpt lat="48.2425" lon="7.21878">
        <ele>565.75</ele>
        <time>2020-09-14T13:35:16.000Z</time>
      </trkpt>
      <trkpt lat="48.2426" lon="7.21873">
        <ele>566.35</ele>
        <time>2020-09-14T13:35:24.000Z</time>
      </trkpt>
      <trkpt lat="48.24268" lon="7.21868">
        <ele>567.42</ele>
        <time>2020-09-14T13:35:33.000Z</time>
      </trkpt>
      <trkpt lat="48.24277" lon="7.21862">
        <ele>568.02</ele>
        <time>2020-09-14T13:35:42.000Z</time>
      </trkpt>
      <trkpt lat="48.24286" lon="7.21859">
        <ele>568.14</ele>
        <time>2020-09-14T13:35:50.000Z</time>
      </trkpt>
      <trkpt lat="48.24295" lon="7.21853">
        <ele>567.55</ele>
        <time>2020-09-14T13:35:57.000Z</time>
      </trkpt>
      <trkpt lat="48.24304" lon="7.21847">
        <ele>567.67</ele>
        <time>2020-09-14T13:36:05.000Z</time>
      </trkpt>
      <trkpt lat="48.24313" lon="7.21844">
        <ele>567.84</ele>
        <time>2020-09-14T13:36:11.000Z</time>
      </trkpt>
      <trkpt lat="48.24323" lon="7.2184">
        <ele>566.83</ele>
        <time>2020-09-14T13:36:19.000Z</time>
      </trkpt>
      <trkpt lat="48.2433" lon="7.21831">
        <ele>568.02</ele>
        <time>2020-09-14T13:36:26.000Z</time>
      </trkpt>
      <trkpt lat="48.2434" lon="7.21828">
        <ele>569.49</ele>
        <time>2020-09-14T13:36:34.000Z</time>
      </trkpt>
      <trkpt lat="48.24349" lon="7.21823">
        <ele>568.52</ele>
        <time>2020-09-14T13:36:43.000Z</time>
      </trkpt>
      <trkpt lat="48.24359" lon="7.21826">
        <ele>570.11</ele>
        <time>2020-09-14T13:36:55.000Z</time>
      </trkpt>
      <trkpt lat="48.24362" lon="7.21827">
        <ele>578.48</ele>
        <time>2020-09-14T13:37:30.000Z</time>
      </trkpt>
    </trkseg>
  </trk>
</gpx>